Provisional Data: Baldwin Creek near Lowman, NY


Please select a monitoring station.
Please select start date.
Please select start date.

Toggle Unit: C/F Toggle Unit: C/F
Sample Time Temperature (C) Temperature (F) Specific Conductivity (mS/cm) pH   Turbidity (NTU+) DO (mg/L)
12/23/2022 12:00:00 AM 0.86 33.548 0.181 7.33 3.46 13.55
12/23/2022 12:15:00 AM 0.88 33.584 0.182 7.32 4.52 13.53
12/23/2022 12:30:00 AM 0.88 33.584 0.184 7.32 4.81 13.52
12/23/2022 12:45:00 AM 0.89 33.602 0.188 7.31 4.68 13.5
12/23/2022 1:00:00 AM 0.89 33.602 0.191 7.3 4.92 13.49
12/23/2022 1:15:00 AM 0.89 33.602 0.194 7.29 5.3 13.48
12/23/2022 1:30:00 AM 0.89 33.602 0.195 7.28 5.88 13.46
12/23/2022 1:45:00 AM 0.89 33.602 0.198 7.27 6.23 13.45
12/23/2022 2:00:00 AM 0.88 33.584 0.196 7.27 6.97 13.44
12/23/2022 2:15:00 AM 0.87 33.566 0.193 7.27 7.15 13.43
12/23/2022 2:30:00 AM 0.84 33.512 0.188 7.26 7.89 13.43
12/23/2022 2:45:00 AM 0.79 33.422 0.187 7.25 9.79 13.43
12/23/2022 3:00:00 AM 0.7 33.26 0.185 7.24 13.77 13.43
12/23/2022 3:15:00 AM 0.6 33.08 0.188 7.23 21.55 13.42
12/23/2022 3:30:00 AM 0.48 32.864 0.192 7.2 38.08 13.43
12/23/2022 3:45:00 AM 0.33 32.594 0.196 7.18 72.01 13.48
12/23/2022 4:00:00 AM 0.21 32.378 0.201 7.1 120.37 13.52
12/23/2022 4:15:00 AM 0.15 32.27 0.212 7.06 169.04 13.5
12/23/2022 4:30:00 AM 0.11 32.198 0.204 7.04 204.6 13.55
12/23/2022 4:45:00 AM 0.09 32.162 0.192 7 234.3 13.6
12/23/2022 5:00:00 AM 0.1 32.18 0.179 7 265.97 13.63
12/23/2022 5:15:00 AM 0.1 32.18 0.174 6.92 277.66 13.57
12/23/2022 5:30:00 AM 0.12 32.216 0.171 6.95 274.07 13.62
12/23/2022 5:45:00 AM 0.13 32.234 0.166 6.94 279.93 13.62
12/23/2022 6:00:00 AM 0.16 32.288 0.16 6.92 262.25 13.62
12/23/2022 6:15:00 AM 0.18 32.324 0.155 6.91 248.26 13.61
12/23/2022 6:30:00 AM 0.2 32.36 0.15 6.89 234.5 13.59
12/23/2022 6:45:00 AM 0.23 32.414 0.146 6.89 227.87 13.57
12/23/2022 7:00:00 AM 0.26 32.468 0.138 6.87 208.39 13.56
12/23/2022 7:15:00 AM 0.3 32.54 0.139 6.88 200.34 13.54
12/23/2022 7:30:00 AM 0.34 32.612 0.137 6.89 186.85 13.52
12/23/2022 7:45:00 AM 0.38 32.684 0.134 6.86 176.46 13.5
12/23/2022 8:00:00 AM 0.42 32.756 0.132 6.86 167.06 13.48
12/23/2022 8:15:00 AM 0.46 32.828 0.13 6.86 162.23 13.47
12/23/2022 8:30:00 AM 0.5 32.9 0.129 6.86 154.73 13.45
12/23/2022 8:45:00 AM 0.53 32.954 0.128 6.86 149.13 13.44
12/23/2022 9:00:00 AM 0.59 33.062 0.127 6.86 141.62 13.42
12/23/2022 9:15:00 AM 0.64 33.152 0.126 6.86 133.19 13.4
12/23/2022 9:30:00 AM 0.69 33.242 0.125 6.82 129.5 13.38
12/23/2022 9:45:00 AM 0.75 33.35 0.122 6.87 120.21 13.37
12/23/2022 10:00:00 AM 0.8 33.44 0.123 6.87 110.19 13.35
12/23/2022 10:15:00 AM 0.85 33.53 0.122 6.88 107.56 13.33
12/23/2022 10:30:00 AM 0.9 33.62 0.122 6.88 100.11 13.31
12/23/2022 10:45:00 AM 0.94 33.692 0.121 6.87 95.37 13.29
12/23/2022 11:00:00 AM 0.98 33.764 0.121 6.89 90.8 13.27
12/23/2022 11:15:00 AM 1.01 33.818 0.121 6.89 86.98 13.27
12/23/2022 11:30:00 AM 1.01 33.818 0.119 6.88 83.09 13.26
12/23/2022 11:45:00 AM 0.98 33.764 0.118 6.88 82.4 13.25
12/23/2022 12:00:00 PM 1.01 33.818 0.12 6.88 80.84 13.25
12/23/2022 12:15:00 PM 0.99 33.782 0.119 6.86 81.47 13.26
12/23/2022 12:30:00 PM 0.99 33.782 0.119 6.87 82.28 13.26
12/23/2022 12:45:00 PM 1 33.8 0.119 6.87 83.57 13.26
12/23/2022 1:00:00 PM 1 33.8 0.118 6.88 84.79 13.27
12/23/2022 1:15:00 PM 0.98 33.764 0.118 6.88 84.85 13.29
12/23/2022 1:30:00 PM 0.95 33.71 0.117 6.87 81.68 13.3
12/23/2022 1:45:00 PM 0.93 33.674 0.117 6.86 77.6 13.32
12/23/2022 2:00:00 PM 0.9 33.62 0.116 6.86 75.52 13.33
12/23/2022 2:15:00 PM 0.84 33.512 0.115 6.83 74.23 13.36
12/23/2022 2:30:00 PM 0.78 33.404 0.116 6.82 70.04 13.38
12/23/2022 2:45:00 PM 0.73 33.314 0.115 6.83 69.13 13.4
12/23/2022 3:00:00 PM 0.66 33.188 0.116 6.83 67.71 13.43
12/23/2022 3:15:00 PM 0.59 33.062 0.115 6.83 65.66 13.45
12/23/2022 3:30:00 PM 0.52 32.936 0.115 6.83 62.83 13.48
12/23/2022 3:45:00 PM 0.44 32.792 0.115 6.83 61.77 13.51
12/23/2022 4:00:00 PM 0.36 32.648 0.114 6.81 60.17 13.54
12/23/2022 4:15:00 PM 0.28 32.504 0.113 6.83 56.91 13.58
12/23/2022 4:30:00 PM 0.2 32.36 0.113 6.83 56.85 13.61
12/23/2022 4:45:00 PM 0.11 32.198 0.114 6.84 53.1 13.64
12/23/2022 5:00:00 PM 0.02 32.036 0.115 6.85 52.44 13.67
12/23/2022 5:15:00 PM -0.01 31.982 0.116 6.85 51.43 13.71
12/23/2022 5:30:00 PM -0.01 31.982 0.115 6.9 49.02 13.75
12/23/2022 5:45:00 PM -0.01 31.982 0.115 6.93 40.27 13.77
12/23/2022 6:00:00 PM 0 32 0.117 6.95 51.29 13.8
12/23/2022 6:15:00 PM -0.01 31.982 0.117 6.96 48.22 13.81
12/23/2022 6:30:00 PM 0 32 0.118 6.96 44.71 13.83
12/23/2022 6:45:00 PM 0 32 0.118 6.97 41.41 13.84
12/23/2022 7:00:00 PM 0 32 0.119 6.98 46.28 13.84
12/23/2022 7:15:00 PM 0 32 0.119 6.98 40 13.85
12/23/2022 7:30:00 PM 0 32 0.12 6.99 42.28 13.86
12/23/2022 7:45:00 PM 0 32 0.12 7 38.88 13.86
12/23/2022 8:00:00 PM 0 32 0.12 7 31.71 13.87
12/23/2022 8:15:00 PM 0 32 0.121 7.01 31 13.88
12/23/2022 8:30:00 PM 0 32 0.122 7.01 32.5 13.88
12/23/2022 8:45:00 PM 0 32 0.123 7.02 28.63 13.88
12/23/2022 9:00:00 PM 0 32 0.123 7.02 27.87 13.88
12/23/2022 9:15:00 PM 0 32 0.124 7.02 29.7 13.88
12/23/2022 9:30:00 PM 0 32 0.125 7.03 29.9 13.89
12/23/2022 9:45:00 PM 0 32 0.126 7.03 25.01 13.88
12/23/2022 10:00:00 PM 0 32 0.126 7.03 26.62 13.89
12/23/2022 10:15:00 PM 0 32 0.126 7.04 25.29 13.88
12/23/2022 10:30:00 PM -99999.99 -179968 -99999.99 -99999.99 -99999.99 -99999.99
12/23/2022 10:45:00 PM -99999.99 -179968 -99999.99 -99999.99 -99999.99 -99999.99
12/23/2022 11:00:00 PM -99999.99 -179968 -99999.99 -99999.99 -99999.99 -99999.99
12/23/2022 11:15:00 PM -99999.99 -179968 -99999.99 -99999.99 -99999.99 -99999.99
12/23/2022 11:30:00 PM -99999.99 -179968 -99999.99 -99999.99 -99999.99 -99999.99
12/23/2022 11:45:00 PM -99999.99 -179968 -99999.99 -99999.99 -99999.99 -99999.99
12/24/2022 12:00:00 AM -99999.99 -179968 -99999.99 -99999.99 -99999.99 -99999.99
12/24/2022 12:15:00 AM -99999.99 -179968 -99999.99 -99999.99 -99999.99 -99999.99
12/24/2022 12:30:00 AM -99999.99 -179968 -99999.99 -99999.99 -99999.99 -99999.99
12/24/2022 12:45:00 AM -99999.99 -179968 -99999.99 -99999.99 -99999.99 -99999.99
12/24/2022 1:00:00 AM -99999.99 -179968 -99999.99 -99999.99 -99999.99 -99999.99
12/24/2022 1:15:00 AM -99999.99 -179968 -99999.99 -99999.99 -99999.99 -99999.99
12/24/2022 1:30:00 AM -99999.99 -179968 -99999.99 -99999.99 -99999.99 -99999.99
12/24/2022 1:45:00 AM -99999.99 -179968 -99999.99 -99999.99 -99999.99 -99999.99
12/24/2022 2:00:00 AM -99999.99 -179968 -99999.99 -99999.99 -99999.99 -99999.99
12/24/2022 2:15:00 AM -99999.99 -179968 -99999.99 -99999.99 -99999.99 -99999.99
12/24/2022 2:30:00 AM -99999.99 -179968 -99999.99 -99999.99 -99999.99 -99999.99
12/24/2022 2:45:00 AM -99999.99 -179968 -99999.99 -99999.99 -99999.99 -99999.99
12/24/2022 3:00:00 AM -99999.99 -179968 -99999.99 -99999.99 -99999.99 -99999.99
12/24/2022 3:15:00 AM -99999.99 -179968 -99999.99 -99999.99 -99999.99 -99999.99
12/24/2022 3:30:00 AM -99999.99 -179968 -99999.99 -99999.99 -99999.99 -99999.99
12/24/2022 3:45:00 AM -99999.99 -179968 -99999.99 -99999.99 -99999.99 -99999.99
12/24/2022 4:00:00 AM -99999.99 -179968 -99999.99 -99999.99 -99999.99 -99999.99
12/24/2022 4:15:00 AM -99999.99 -179968 -99999.99 -99999.99 -99999.99 -99999.99
12/24/2022 4:30:00 AM -99999.99 -179968 -99999.99 -99999.99 -99999.99 -99999.99
12/24/2022 4:45:00 AM -99999.99 -179968 -99999.99 -99999.99 -99999.99 -99999.99
12/24/2022 5:00:00 AM -99999.99 -179968 -99999.99 -99999.99 -99999.99 -99999.99
12/24/2022 5:15:00 AM -99999.99 -179968 -99999.99 -99999.99 -99999.99 -99999.99
12/24/2022 5:30:00 AM -99999.99 -179968 -99999.99 -99999.99 -99999.99 -99999.99
12/24/2022 5:45:00 AM -99999.99 -179968 -99999.99 -99999.99 -99999.99 -99999.99
12/24/2022 6:00:00 AM -99999.99 -179968 -99999.99 -99999.99 -99999.99 -99999.99
12/24/2022 6:15:00 AM -99999.99 -179968 -99999.99 -99999.99 -99999.99 -99999.99
12/24/2022 6:30:00 AM -99999.99 -179968 -99999.99 -99999.99 -99999.99 -99999.99
12/24/2022 6:45:00 AM -99999.99 -179968 -99999.99 -99999.99 -99999.99 -99999.99
12/24/2022 7:00:00 AM -99999.99 -179968 -99999.99 -99999.99 -99999.99 -99999.99
12/24/2022 7:15:00 AM -99999.99 -179968 -99999.99 -99999.99 -99999.99 -99999.99
12/24/2022 7:30:00 AM -99999.99 -179968 -99999.99 -99999.99 -99999.99 -99999.99
12/24/2022 7:45:00 AM -99999.99 -179968 -99999.99 -99999.99 -99999.99 -99999.99
12/24/2022 8:00:00 AM -99999.99 -179968 -99999.99 -99999.99 -99999.99 -99999.99
12/24/2022 8:15:00 AM -99999.99 -179968 -99999.99 -99999.99 -99999.99 -99999.99
12/24/2022 8:30:00 AM -99999.99 -179968 -99999.99 -99999.99 -99999.99 -99999.99
12/24/2022 8:45:00 AM 0 32 0.145 7.24 13.94 13.97
12/24/2022 9:00:00 AM 0 32 0.144 7.13 13.77 13.98
12/24/2022 9:15:00 AM 0 32 0.147 7.11 22.89 13.98
12/24/2022 9:30:00 AM 0 32 0.146 7.11 13.16 13.99
12/24/2022 9:45:00 AM 0 32 0.145 7.1 12.46 14
12/24/2022 10:00:00 AM 0 32 0.148 7.1 12.56 14.01
12/24/2022 10:15:00 AM 0 32 0.147 7.1 13.37 14.01
12/24/2022 10:30:00 AM 0 32 0.146 7.11 13.48 14.02
12/24/2022 10:45:00 AM 0 32 0.148 7.11 12.79 14.02
12/24/2022 11:00:00 AM 0 32 0.146 7.11 12.38 14.01
12/24/2022 11:15:00 AM 0 32 0.146 7.1 11.89 14.02
12/24/2022 11:30:00 AM 0 32 0.148 7.1 12.12 14.02
12/24/2022 11:45:00 AM 0 32 0.147 7.1 12.47 14.02
12/24/2022 12:00:00 PM 0 32 0.148 7.11 11.82 14.02
12/24/2022 12:15:00 PM 0 32 0.149 7.11 12.29 14.02
12/24/2022 12:30:00 PM 0 32 0.149 7.11 11.73 14.02
12/24/2022 12:45:00 PM 0 32 0.148 7.11 11.5 14.03
12/24/2022 1:00:00 PM 0 32 0.148 7.11 11.94 14.03
12/24/2022 1:15:00 PM 0 32 0.149 7.11 12.19 14.03
12/24/2022 1:30:00 PM 0 32 0.149 7.11 11.97 14.03
12/24/2022 1:45:00 PM 0 32 0.148 7.11 11.55 14.03
12/24/2022 2:00:00 PM 0 32 0.149 7.11 11.22 14.03
12/24/2022 2:15:00 PM 0 32 0.15 7.11 11.09 14.03
12/24/2022 2:30:00 PM 0 32 0.15 7.11 10.63 14.04
12/24/2022 2:45:00 PM 0 32 0.15 7.11 10.58 14.04
12/24/2022 3:00:00 PM 0 32 0.151 7.11 11.07 14.04
12/24/2022 3:15:00 PM 0 32 0.15 7.11 11.18 14.04
12/24/2022 3:30:00 PM 0 32 0.149 7.11 10.67 14.04
12/24/2022 3:45:00 PM 0 32 0.15 7.12 11.04 14.04
12/24/2022 4:00:00 PM 0 32 0.149 7.12 10.92 14.03
12/24/2022 4:15:00 PM -0.01 31.982 0.149 7.12 10.02 14.03
12/24/2022 4:30:00 PM 0 32 0.15 7.11 11.11 14.02
12/24/2022 4:45:00 PM 0 32 0.15 7.11 10.59 14.01
12/24/2022 5:00:00 PM 0 32 0.15 7.11 10.41 14
12/24/2022 5:15:00 PM -0.01 31.982 0.149 7.11 11.25 14
12/24/2022 5:30:00 PM 0 32 0.15 7.11 10.38 14
12/24/2022 5:45:00 PM 0 32 0.151 7.1 10.74 14
12/24/2022 6:00:00 PM 0 32 0.151 7.1 10.35 14
12/24/2022 6:15:00 PM 0 32 0.151 7.1 10.24 13.99
12/24/2022 6:30:00 PM 0 32 0.151 7.1 9.79 13.99
12/24/2022 6:45:00 PM 0 32 0.152 7.12 10.22 13.98
12/24/2022 7:00:00 PM -0.01 31.982 0.15 7.1 9.82 13.98
12/24/2022 7:15:00 PM 0 32 0.152 7.1 10.32 13.97
12/24/2022 7:30:00 PM 0 32 0.151 7.1 10.5 13.97
12/24/2022 7:45:00 PM 0 32 0.15 7.1 9.57 13.97
12/24/2022 8:00:00 PM 0 32 0.151 7.1 9.64 13.97
12/24/2022 8:15:00 PM -0.01 31.982 0.152 7.1 9.87 13.96
12/24/2022 8:30:00 PM 0 32 0.151 7.1 96.53 13.96
12/24/2022 8:45:00 PM 0 32 0.152 7.1 9.32 13.96
12/24/2022 9:00:00 PM 0 32 0.151 7.1 10 13.96
12/24/2022 9:15:00 PM -0.01 31.982 0.151 7.12 9.36 13.96
12/24/2022 9:30:00 PM 0 32 0.153 7.1 9.48 13.95
12/24/2022 9:45:00 PM 0 32 0.152 7.11 9.84 13.96
12/24/2022 10:00:00 PM 0 32 0.152 7.1 10.01 13.96
12/24/2022 10:15:00 PM 0 32 0.152 7.1 8.89 13.96
12/24/2022 10:30:00 PM 0 32 0.152 7.1 8.87 13.96
12/24/2022 10:45:00 PM 0 32 0.153 7.1 9.22 13.96
12/24/2022 11:00:00 PM 0 32 0.154 7.1 8.56 13.96
12/24/2022 11:15:00 PM 0 32 0.152 7.1 9.07 13.96
12/24/2022 11:30:00 PM 0 32 0.153 7.1 9.06 13.97
12/24/2022 11:45:00 PM 0 32 0.154 7.1 8.91 13.97
12/25/2022 12:00:00 AM 0 32 0.154 7.1 9.35 13.97
12/25/2022 12:15:00 AM 0 32 0.153 7.1 9.01 13.97
12/25/2022 12:30:00 AM 0 32 0.153 7.1 9.18 13.97
12/25/2022 12:45:00 AM 0 32 0.154 7.1 9.19 13.97
12/25/2022 1:00:00 AM 0 32 0.154 7.1 8.82 13.97
12/25/2022 1:15:00 AM 0 32 0.155 7.1 9.08 13.97
12/25/2022 1:30:00 AM 0 32 0.155 7.11 8.66 13.97
12/25/2022 1:45:00 AM 0 32 0.153 7.1 8.57 13.96
12/25/2022 2:00:00 AM 0 32 0.156 7.11 8.3 13.96
12/25/2022 2:15:00 AM 0 32 0.155 7.11 9.1 13.96
12/25/2022 2:30:00 AM 0 32 0.157 7.1 8.8 13.97
12/25/2022 2:45:00 AM 0 32 0.155 7.11 8.23 13.97
12/25/2022 3:00:00 AM 0 32 0.156 7.11 8.82 13.97
12/25/2022 3:15:00 AM 0 32 0.155 7.11 8.54 13.97
12/25/2022 3:30:00 AM 0 32 0.155 7.12 8.36 13.97
12/25/2022 3:45:00 AM 0 32 0.155 7.11 8.97 13.97
12/25/2022 4:00:00 AM 0 32 0.157 7.1 8.1 13.96
12/25/2022 4:15:00 AM 0 32 0.154 7.11 8.14 13.96
12/25/2022 4:30:00 AM 0 32 0.156 7.11 8.15 13.95
12/25/2022 4:45:00 AM 0 32 0.155 7.11 8.46 13.95
12/25/2022 5:00:00 AM 0 32 0.157 7.11 7.76 13.96
12/25/2022 5:15:00 AM 0 32 0.156 7.11 8.41 13.96
12/25/2022 5:30:00 AM 0 32 0.158 7.11 8.19 13.96
12/25/2022 5:45:00 AM 0 32 0.157 7.11 8.23 13.96
12/25/2022 6:00:00 AM 0 32 0.157 7.1 8.64 13.96
12/25/2022 6:15:00 AM 0 32 0.158 7.11 7.88 13.95
12/25/2022 6:30:00 AM 0 32 0.155 7.11 8.54 13.95
12/25/2022 6:45:00 AM 0 32 0.157 7.11 8.52 13.95
12/25/2022 7:00:00 AM 0 32 0.158 7.11 8.51 13.95
12/25/2022 7:15:00 AM 0 32 0.157 7.11 8.29 13.95
12/25/2022 7:30:00 AM 0 32 0.159 7.11 8.28 13.95
12/25/2022 7:45:00 AM 0 32 0.158 7.11 8.05 13.95
12/25/2022 8:00:00 AM 0 32 0.157 7.11 8.58 13.95
12/25/2022 8:15:00 AM 0 32 0.157 7.11 8.56 13.96
12/25/2022 8:30:00 AM 0 32 0.156 7.11 8.7 13.97
12/25/2022 8:45:00 AM 0 32 0.158 7.12 8.31 13.99
12/25/2022 9:00:00 AM 0 32 0.157 7.12 8.18 14
12/25/2022 9:15:00 AM 0 32 0.159 7.12 8.61 14.01
12/25/2022 9:30:00 AM 0 32 0.157 7.12 8.43 14.03
12/25/2022 9:45:00 AM 0 32 0.157 7.12 8.26 14.04
12/25/2022 10:00:00 AM 0 32 0.156 7.13 8.25 14.04
12/25/2022 10:15:00 AM 0 32 0.157 7.13 8.38 14.04
12/25/2022 10:30:00 AM 0 32 0.156 7.13 7.95 14.04
12/25/2022 10:45:00 AM 0 32 0.158 7.13 7.7 14.05
12/25/2022 11:00:00 AM 0 32 0.157 7.13 7.73 14.05
12/25/2022 11:15:00 AM 0 32 0.157 7.13 7.8 14.05
12/25/2022 11:30:00 AM 0.01 32.018 0.157 7.13 7.92 14.05
12/25/2022 11:45:00 AM 0 32 0.156 7.13 8.84 14.05
12/25/2022 12:00:00 PM 0 32 0.157 7.14 8.92 14.05
12/25/2022 12:15:00 PM 0.01 32.018 0.157 7.13 8.64 14.05
12/25/2022 12:30:00 PM 0.01 32.018 0.158 7.13 9.08 14.04
12/25/2022 12:45:00 PM 0.01 32.018 0.157 7.14 10.51 14.05
12/25/2022 1:00:00 PM 0.01 32.018 0.156 7.14 9.2 14.05
12/25/2022 1:15:00 PM 0 32 0.157 7.13 10.18 14.04
12/25/2022 1:30:00 PM 0.01 32.018 0.156 7.13 9.46 14.05
12/25/2022 1:45:00 PM 0 32 0.157 7.13 8.93 14.05
12/25/2022 2:00:00 PM 0.01 32.018 0.157 7.13 8.94 14.05
12/25/2022 2:15:00 PM 0.01 32.018 0.157 7.13 9.08 14.05
12/25/2022 2:30:00 PM 0 32 0.156 7.13 9.76 14.05
12/25/2022 2:45:00 PM 0 32 0.157 7.13 9.36 14.05
12/25/2022 3:00:00 PM 0 32 0.156 7.12 9.38 14.05
12/25/2022 3:15:00 PM 0 32 0.155 7.13 9.25 14.06
12/25/2022 3:30:00 PM 0 32 0.156 7.12 8.97 14.05
12/25/2022 3:45:00 PM 0 32 0.155 7.12 9.2 14.05
12/25/2022 4:00:00 PM 0 32 0.154 7.11 9.37 14.05
12/25/2022 4:15:00 PM -0.01 31.982 0.155 7.12 9.42 14.04
12/25/2022 4:30:00 PM -0.01 31.982 0.154 7.11 9.83 14.03
12/25/2022 4:45:00 PM -0.01 31.982 0.153 7.11 9.12 14.02
12/25/2022 5:00:00 PM -0.01 31.982 0.154 7.11 9.17 14.01
12/25/2022 5:15:00 PM -0.01 31.982 0.154 7.1 9.98 14
12/25/2022 5:30:00 PM -0.01 31.982 0.154 7.1 9.2 14
12/25/2022 5:45:00 PM -0.01 31.982 0.154 7.1 9.48 13.99
12/25/2022 6:00:00 PM -0.01 31.982 0.153 7.1 8.89 13.99
12/25/2022 6:15:00 PM -0.01 31.982 0.154 7.1 9.07 13.99
12/25/2022 6:30:00 PM -0.01 31.982 0.153 7.09 9.27 13.98
12/25/2022 6:45:00 PM -0.01 31.982 0.153 7.09 9.23 13.99
12/25/2022 7:00:00 PM -0.01 31.982 0.155 7.09 8.65 13.98
12/25/2022 7:15:00 PM -0.01 31.982 0.154 7.09 8.4 13.98
12/25/2022 7:30:00 PM -0.01 31.982 0.154 7.09 8.68 13.99
12/25/2022 7:45:00 PM -0.01 31.982 0.152 7.09 9.23 13.98
12/25/2022 8:00:00 PM -0.01 31.982 0.153 7.09 9.26 13.99
12/25/2022 8:15:00 PM -0.01 31.982 0.153 7.09 8.18 13.99
12/25/2022 8:30:00 PM -0.01 31.982 0.154 7.09 8.69 13.99
12/25/2022 8:45:00 PM -0.01 31.982 0.152 7.09 8.64 13.99
12/25/2022 9:00:00 PM -0.01 31.982 0.154 7.09 9.21 13.99
12/25/2022 9:15:00 PM -0.01 31.982 0.155 7.09 8.59 13.99
12/25/2022 9:30:00 PM -0.01 31.982 0.153 7.09 8.48 13.99
12/25/2022 9:45:00 PM -0.01 31.982 0.154 7.09 8.4 13.99
12/25/2022 10:00:00 PM -0.01 31.982 0.154 7.08 8.28 13.99
12/25/2022 10:15:00 PM -0.01 31.982 0.154 7.09 8.97 13.99
12/25/2022 10:30:00 PM -0.01 31.982 0.154 7.09 8.98 13.99
12/25/2022 10:45:00 PM -0.01 31.982 0.153 7.09 8.07 14
12/25/2022 11:00:00 PM -0.01 31.982 0.153 7.09 8.26 14
12/25/2022 11:15:00 PM -0.01 31.982 0.153 7.08 8.55 14
12/25/2022 11:30:00 PM -0.01 31.982 0.153 7.09 8.78 14.01
12/25/2022 11:45:00 PM -0.01 31.982 0.153 7.09 8.83 14.01
12/26/2022 12:00:00 AM -0.01 31.982 0.154 7.09 8.63 14.01
12/26/2022 12:15:00 AM -0.01 31.982 0.153 7.09 8.48 14.02
12/26/2022 12:30:00 AM -0.01 31.982 0.152 7.09 8.2 14.01
12/26/2022 12:45:00 AM -0.01 31.982 0.153 7.09 8.66 14.02
12/26/2022 1:00:00 AM -0.01 31.982 0.153 7.09 7.91 14.02
12/26/2022 1:15:00 AM -0.01 31.982 0.153 7.09 8.1 14.02
12/26/2022 1:30:00 AM -0.01 31.982 0.153 7.09 7.98 14.02
12/26/2022 1:45:00 AM -0.01 31.982 0.153 7.09 8.25 14.02
12/26/2022 2:00:00 AM -0.01 31.982 0.153 7.1 8.23 14.02
12/26/2022 2:15:00 AM -0.01 31.982 0.154 7.09 7.8 14.02
12/26/2022 2:30:00 AM -0.01 31.982 0.154 7.09 7.95 14.03
12/26/2022 2:45:00 AM -0.01 31.982 0.154 7.1 7.97 14.03
12/26/2022 3:00:00 AM -0.01 31.982 0.154 7.09 7.22 14.03
12/26/2022 3:15:00 AM -0.01 31.982 0.154 7.09 8.38 14.03
12/26/2022 3:30:00 AM -0.01 31.982 0.154 7.09 7.79 14.04
12/26/2022 3:45:00 AM -0.01 31.982 0.153 7.09 7.68 14.04
12/26/2022 4:00:00 AM -0.01 31.982 0.154 7.09 8.07 14.04
12/26/2022 4:15:00 AM 0 32 0.156 7.09 8.12 14.04
12/26/2022 4:30:00 AM 0 32 0.154 7.09 7.69 14.04
12/26/2022 4:45:00 AM 0 32 0.154 7.09 7.74 14.04
12/26/2022 5:00:00 AM 0 32 0.155 7.09 7.75 14.03
12/26/2022 5:15:00 AM 0 32 0.155 7.09 7.87 14.04
12/26/2022 5:30:00 AM 0 32 0.154 7.09 7.51 14.03
12/26/2022 5:45:00 AM 0 32 0.155 7.09 7.32 14.03
12/26/2022 6:00:00 AM 0 32 0.154 7.09 7.37 14.04
12/26/2022 6:15:00 AM 0 32 0.155 7.09 7.47 14.04
12/26/2022 6:30:00 AM 0 32 0.155 7.09 7.47 14.04
12/26/2022 6:45:00 AM 0 32 0.153 7.09 7.71 14.04
12/26/2022 7:00:00 AM 0 32 0.155 7.09 7.44 14.04
12/26/2022 7:15:00 AM 0 32 0.155 7.09 7.32 14.04
12/26/2022 7:30:00 AM 0 32 0.156 7.09 7.6 14.04
12/26/2022 7:45:00 AM 0 32 0.155 7.09 7.44 14.05
12/26/2022 8:00:00 AM 0 32 0.155 7.09 7.6 14.05
12/26/2022 8:15:00 AM 0 32 0.157 7.09 7.19 14.06
12/26/2022 8:30:00 AM 0 32 0.155 7.1 7.41 14.07
12/26/2022 8:45:00 AM 0 32 0.154 7.09 7.29 14.08
12/26/2022 9:00:00 AM 0 32 0.155 7.1 7.57 14.1
12/26/2022 9:15:00 AM 0.01 32.018 0.156 7.1 7.25 14.12
12/26/2022 9:30:00 AM 0 32 0.156 7.1 7.53 14.13
12/26/2022 9:45:00 AM 0 32 0.155 7.1 7.19 14.14
12/26/2022 10:00:00 AM 0.01 32.018 0.155 7.1 7.13 14.16
12/26/2022 10:15:00 AM 0.01 32.018 0.154 7.11 7.05 14.17
12/26/2022 10:30:00 AM 0.01 32.018 0.153 7.11 7.12 14.18
12/26/2022 10:45:00 AM 0.01 32.018 0.152 7.11 6.54 14.19
12/26/2022 11:00:00 AM 0.02 32.036 0.156 7.11 7.01 14.2
12/26/2022 11:15:00 AM 0.02 32.036 0.156 7.11 7.07 14.2
12/26/2022 11:30:00 AM 0.02 32.036 0.156 7.1 7.14 14.2
12/26/2022 11:45:00 AM 0.02 32.036 0.155 7.1 6.95 14.21
12/26/2022 12:00:00 PM 0.02 32.036 0.156 7.09 7.07 14.21
12/26/2022 12:15:00 PM 0.02 32.036 0.154 7.09 6.5 14.21
12/26/2022 12:30:00 PM 0.02 32.036 0.155 7.09 7.27 14.21
12/26/2022 12:45:00 PM 0.03 32.054 0.152 7.08 7.22 14.21
12/26/2022 1:00:00 PM 0.03 32.054 0.155 7.09 7.56 14.2
12/26/2022 1:15:00 PM 0.02 32.036 0.153 7.08 7.29 14.2
12/26/2022 1:30:00 PM 0.02 32.036 0.154 7.08 7.23 14.19
12/26/2022 1:45:00 PM 0.02 32.036 0.154 7.08 7.1 14.19
12/26/2022 2:00:00 PM 0.02 32.036 0.155 7.08 7.3 14.18
12/26/2022 2:15:00 PM 0.02 32.036 0.153 7.08 7.75 14.18
12/26/2022 2:30:00 PM 0.01 32.018 0.153 7.08 7.66 14.17
12/26/2022 2:45:00 PM 0.01 32.018 0.154 7.08 6.94 14.17
12/26/2022 3:00:00 PM 0.01 32.018 0.155 7.08 7.64 14.16
12/26/2022 3:15:00 PM 0.01 32.018 0.153 7.07 7.63 14.16
12/26/2022 3:30:00 PM 0.01 32.018 0.154 7.07 7.56 14.15
12/26/2022 3:45:00 PM 0.01 32.018 0.154 7.08 7.8 14.15
12/26/2022 4:00:00 PM 0 32 0.153 7.08 7.38 14.14
12/26/2022 4:15:00 PM 0 32 0.156 7.08 7.64 14.13
12/26/2022 4:30:00 PM 0 32 0.154 7.07 7.56 14.12
12/26/2022 4:45:00 PM 0 32 0.153 7.09 7.65 14.11
12/26/2022 5:00:00 PM 0 32 0.152 7.08 7.67 14.1
12/26/2022 5:15:00 PM 0 32 0.155 7.06 7.3 14.08
12/26/2022 5:30:00 PM 0 32 0.153 7.07 7.19 14.07
12/26/2022 5:45:00 PM 0 32 0.155 7.07 7.5 14.06
12/26/2022 6:00:00 PM 0 32 0.153 7.07 7.37 14.06
12/26/2022 6:15:00 PM 0 32 0.155 7.06 7.96 14.05
12/26/2022 6:30:00 PM 0 32 0.152 7.06 7.27 14.05
12/26/2022 6:45:00 PM 0 32 0.154 7.06 7.63 14.04
12/26/2022 7:00:00 PM 0 32 0.154 7.07 7.77 14.04
12/26/2022 7:15:00 PM 0 32 0.156 7.06 7.6 14.04
12/26/2022 7:30:00 PM 0 32 0.153 7.07 7.47 14.04
12/26/2022 7:45:00 PM 0 32 0.155 7.06 7.36 14.03
12/26/2022 8:00:00 PM 0 32 0.154 7.06 7.5 14.03
12/26/2022 8:15:00 PM 0 32 0.155 7.06 7.81 14.03
12/26/2022 8:30:00 PM 0 32 0.155 7.06 7.11 14.02
12/26/2022 8:45:00 PM 0 32 0.156 7.06 7.48 14.03
12/26/2022 9:00:00 PM 0 32 0.156 7.06 7.45 14.03
12/26/2022 9:15:00 PM 0 32 0.156 7.06 7.65 14.03
12/26/2022 9:30:00 PM 0 32 0.155 7.07 7.27 14.03
12/26/2022 9:45:00 PM 0 32 0.156 7.07 7.58 14.03
12/26/2022 10:00:00 PM 0 32 0.157 7.07 7.42 14.02
12/26/2022 10:15:00 PM 0 32 0.157 7.07 7.18 14.02
12/26/2022 10:30:00 PM 0 32 0.154 7.07 11.49 14.02
12/26/2022 10:45:00 PM 0 32 0.155 7.06 9.68 14.02
12/26/2022 11:00:00 PM 0 32 0.154 7.07 8.03 14.02
12/26/2022 11:15:00 PM 0 32 0.155 7.07 8.45 14.02
12/26/2022 11:30:00 PM 0 32 0.154 7.07 8.67 14.02
12/26/2022 11:45:00 PM 0 32 0.155 7.07 6.39 14.02
12/27/2022 12:00:00 AM 0 32 0.155 7.07 8.89 14.02
12/27/2022 12:15:00 AM 0 32 0.157 7.07 8.92 14.01
12/27/2022 12:30:00 AM 0 32 0.156 7.07 10.89 14.02
12/27/2022 12:45:00 AM 0 32 0.157 7.07 15.58 14.02
12/27/2022 1:00:00 AM 0 32 0.156 7.07 10.84 14.02
12/27/2022 1:15:00 AM 0 32 0.156 7.07 13.58 14.01
12/27/2022 1:30:00 AM 0 32 0.156 7.07 8.03 14.01
12/27/2022 1:45:00 AM 0 32 0.156 7.07 7.82 14.02
12/27/2022 2:00:00 AM 0 32 0.154 7.07 8.83 14.01
12/27/2022 2:15:00 AM 0 32 0.157 7.07 7.75 14.01
12/27/2022 2:30:00 AM 0 32 0.155 7.09 17.46 14.01
12/27/2022 2:45:00 AM 0 32 0.156 7.06 16.44 14.01
12/27/2022 3:00:00 AM 0 32 0.157 7.06 15.31 14.01
12/27/2022 3:15:00 AM 0 32 0.155 7.07 15.81 14.01
12/27/2022 3:30:00 AM 0 32 0.157 7.07 20.12 14.01
12/27/2022 3:45:00 AM 0 32 0.155 7.07 6.98 14.01
12/27/2022 4:00:00 AM 0 32 0.154 7.08 10.43 14.01
12/27/2022 4:15:00 AM 0 32 0.155 7.06 11.71 14.01
12/27/2022 4:30:00 AM 0 32 0.154 7.07 12.93 14.01
12/27/2022 4:45:00 AM 0 32 0.143 7.07 31.67 14.02
12/27/2022 5:00:00 AM 0 32 0.128 7.07 74.11 14.02
12/27/2022 5:15:00 AM 0 32 0.15 7.07 7.27 14.01
12/27/2022 5:30:00 AM 0 32 0.155 7.07 740.63 14.01
12/27/2022 5:45:00 AM 0 32 0.156 7.07 6.14 14.01
12/27/2022 6:00:00 AM 0 32 0.156 7.07 6.63 14.02
12/27/2022 6:15:00 AM 0 32 0.156 7.08 10.22 14.01
12/27/2022 6:30:00 AM 0 32 0.156 7.07 243.14 14.02
12/27/2022 6:45:00 AM 0 32 0.157 7.07 99.93 14.02
12/27/2022 7:00:00 AM 0 32 0.156 7.07 6.67 14.02
12/27/2022 7:15:00 AM 0 32 0.154 7.07 6.57 14.02
12/27/2022 7:30:00 AM 0 32 0.157 7.08 7.21 14.02
12/27/2022 7:45:00 AM 0 32 0.158 7.07 8.13 14.02
12/27/2022 8:00:00 AM 0 32 0.154 7.07 6.56 14.03
12/27/2022 8:15:00 AM 0 32 0.157 7.08 7.01 14.03
12/27/2022 8:30:00 AM 0 32 0.156 7.08 9.08 14.04
12/27/2022 8:45:00 AM 0 32 0.157 7.08 6.69 14.05
12/27/2022 9:00:00 AM 0.01 32.018 0.157 7.08 8.96 14.05
12/27/2022 9:15:00 AM 0.01 32.018 0.158 7.08 6.32 14.07
12/27/2022 9:30:00 AM 0.01 32.018 0.156 7.09 7.73 14.08
12/27/2022 9:45:00 AM 0.01 32.018 0.157 7.09 7.01 14.09
12/27/2022 10:00:00 AM 0.01 32.018 0.156 7.09 6.31 14.11
12/27/2022 10:15:00 AM 0.01 32.018 0.156 7.09 6.81 14.12
12/27/2022 10:30:00 AM 0.02 32.036 0.156 7.1 7.58 14.14
12/27/2022 10:45:00 AM 0.02 32.036 0.158 7.1 8.94 14.15
12/27/2022 11:00:00 AM 0.02 32.036 0.156 7.1 13.57 14.16
12/27/2022 11:15:00 AM 0.02 32.036 0.155 7.11 6.47 14.17
12/27/2022 11:30:00 AM 0.02 32.036 0.157 7.11 8.64 14.18
12/27/2022 11:45:00 AM 0.02 32.036 0.155 7.11 6.16 14.18
12/27/2022 12:00:00 PM 0.02 32.036 0.157 7.11 8.62 14.18
12/27/2022 12:15:00 PM 0.02 32.036 0.156 7.11 6.19 14.19
12/27/2022 12:30:00 PM 0.02 32.036 0.157 7.12 6.27 14.19
12/27/2022 12:45:00 PM 0.02 32.036 0.156 7.12 5.98 14.19
12/27/2022 1:00:00 PM 0.02 32.036 0.157 7.12 6.46 14.2
12/27/2022 1:15:00 PM 0.02 32.036 0.156 7.12 6.55 14.2
12/27/2022 1:30:00 PM 0.02 32.036 0.155 7.12 6.37 14.2
12/27/2022 1:45:00 PM 0.02 32.036 0.155 7.12 5.96 14.2
12/27/2022 2:00:00 PM 0.02 32.036 0.154 7.12 6.05 14.2
12/27/2022 2:15:00 PM 0.02 32.036 0.155 7.12 6.2 14.2
12/27/2022 2:30:00 PM 0.02 32.036 0.156 7.13 6.14 14.2
12/27/2022 2:45:00 PM 0.02 32.036 0.153 7.13 6.36 14.2
12/27/2022 3:00:00 PM 0.02 32.036 0.155 7.13 6.51 14.19
12/27/2022 3:15:00 PM 0.02 32.036 0.157 7.12 5.97 14.2
12/27/2022 3:30:00 PM 0.02 32.036 0.155 7.13 6.13 14.19
12/27/2022 3:45:00 PM 0.01 32.018 0.156 7.12 6.88 14.18
12/27/2022 4:00:00 PM 0.01 32.018 0.155 7.12 6.13 14.18
12/27/2022 4:15:00 PM 0.01 32.018 0.156 7.13 6.1 14.16
12/27/2022 4:30:00 PM 0.01 32.018 0.156 7.12 6.87 14.14
12/27/2022 4:45:00 PM 0.01 32.018 0.155 7.12 6.01 14.12
12/27/2022 5:00:00 PM 0 32 0.156 7.11 6.32 14.1
12/27/2022 5:15:00 PM 0 32 0.155 7.11 6.42 14.09
12/27/2022 5:30:00 PM 0 32 0.156 7.11 5.78 14.08
12/27/2022 5:45:00 PM 0 32 0.156 7.11 8.64 14.07
12/27/2022 6:00:00 PM 0 32 0.157 7.1 6.12 14.06
12/27/2022 6:15:00 PM 0 32 0.155 7.1 6.07 14.05
12/27/2022 6:30:00 PM 0 32 0.156 7.1 5.91 14.05
12/27/2022 6:45:00 PM 0 32 0.156 7.1 6.04 14.05
12/27/2022 7:00:00 PM 0 32 0.154 7.1 6.01 14.04
12/27/2022 7:15:00 PM 0 32 0.156 7.1 5.92 14.04
12/27/2022 7:30:00 PM 0 32 0.157 7.1 5.92 14.04
12/27/2022 7:45:00 PM 0 32 0.155 7.1 5.74 14.03
12/27/2022 8:00:00 PM 0 32 0.157 7.1 5.9 14.04
12/27/2022 8:15:00 PM 0 32 0.157 7.1 6.07 14.04
12/27/2022 8:30:00 PM 0 32 0.156 7.1 5.63 14.04
12/27/2022 8:45:00 PM 0 32 0.157 7.1 5.76 14.04
12/27/2022 9:00:00 PM 0 32 0.159 7.1 5.81 14.04
12/27/2022 9:15:00 PM 0 32 0.155 7.1 5.71 14.03
12/27/2022 9:30:00 PM 0 32 0.155 7.1 5.95 14.04
12/27/2022 9:45:00 PM 0 32 0.156 7.1 5.83 14.04
12/27/2022 10:00:00 PM 0 32 0.156 7.09 5.71 14.04
12/27/2022 10:15:00 PM 0.01 32.018 0.155 7.09 5.91 14.03
12/27/2022 10:30:00 PM 0.01 32.018 0.157 7.09 5.67 14.03
12/27/2022 10:45:00 PM 0.01 32.018 0.156 7.09 5.7 14.03
12/27/2022 11:00:00 PM 0.01 32.018 0.157 7.09 5.71 14.03
12/27/2022 11:15:00 PM 0.01 32.018 0.156 7.09 5.7 14.02
12/27/2022 11:30:00 PM 0.01 32.018 0.156 7.09 5.57 14.02
12/27/2022 11:45:00 PM 0.01 32.018 0.157 7.1 5.66 14.01
12/28/2022 12:00:00 AM 0.01 32.018 0.158 7.09 5.94 14.01
12/28/2022 12:15:00 AM 0.01 32.018 0.157 7.09 6.09 14.01
12/28/2022 12:30:00 AM 0.01 32.018 0.157 7.09 5.9 14.01
12/28/2022 12:45:00 AM 0.01 32.018 0.159 7.09 5.97 14
12/28/2022 1:00:00 AM 0.01 32.018 0.156 7.09 5.86 14
12/28/2022 1:15:00 AM 0.01 32.018 0.157 7.09 5.92 14
12/28/2022 1:30:00 AM 0.01 32.018 0.157 7.09 6.04 14
12/28/2022 1:45:00 AM 0 32 0.156 7.1 5.73 13.99
12/28/2022 2:00:00 AM 0.01 32.018 0.158 7.09 5.7 13.99
12/28/2022 2:15:00 AM 0 32 0.156 7.09 5.82 13.99
12/28/2022 2:30:00 AM 0 32 0.156 7.09 6.14 13.99
12/28/2022 2:45:00 AM 0 32 0.158 7.09 6.77 13.99
12/28/2022 3:00:00 AM 0 32 0.158 7.09 5.57 13.99
12/28/2022 3:15:00 AM 0 32 0.157 7.09 5.87 13.99
12/28/2022 3:30:00 AM 0 32 0.156 7.09 5.63 13.99
12/28/2022 3:45:00 AM 0 32 0.158 7.09 6.34 13.99
12/28/2022 4:00:00 AM 0 32 0.157 7.09 5.77 13.99
12/28/2022 4:15:00 AM 0 32 0.157 7.1 6.1 14
12/28/2022 4:30:00 AM 0 32 0.156 7.09 5.74 14
12/28/2022 4:45:00 AM 0 32 0.158 7.09 5.73 14
12/28/2022 5:00:00 AM 0 32 0.159 7.09 5.57 14
12/28/2022 5:15:00 AM 0 32 0.157 7.09 5.78 14
12/28/2022 5:30:00 AM 0 32 0.159 7.09 5.82 14
12/28/2022 5:45:00 AM 0 32 0.157 7.09 5.64 14
12/28/2022 6:00:00 AM 0 32 0.158 7.1 6.08 14
12/28/2022 6:15:00 AM 0 32 0.157 7.09 5.93 14.01
12/28/2022 6:30:00 AM 0 32 0.156 7.09 5.79 14.01
12/28/2022 6:45:00 AM 0 32 0.158 7.09 5.88 14
12/28/2022 7:00:00 AM 0 32 0.157 7.09 5.69 14
12/28/2022 7:15:00 AM 0 32 0.158 7.09 5.72 14.01
12/28/2022 7:30:00 AM 0 32 0.156 7.09 5.95 14.01
12/28/2022 7:45:00 AM 0 32 0.156 7.09 5.49 14.01
12/28/2022 8:00:00 AM 0 32 0.159 7.09 5.54 14.02
12/28/2022 8:15:00 AM 0 32 0.158 7.1 5.46 14.04
12/28/2022 8:30:00 AM 0.01 32.018 0.157 7.1 5.42 14.06
12/28/2022 8:45:00 AM 0.03 32.054 0.157 7.11 5.42 14.09
12/28/2022 9:00:00 AM 0.03 32.054 0.157 7.11 5.45 14.11
12/28/2022 9:15:00 AM 0.03 32.054 0.158 7.12 5.31 14.13
12/28/2022 9:30:00 AM 0.04 32.072 0.158 7.12 5.51 14.16
12/28/2022 9:45:00 AM 0.06 32.108 0.157 7.13 5.76 14.16
12/28/2022 10:00:00 AM 0.05 32.09 0.159 7.14 5.96 14.18
12/28/2022 10:15:00 AM 0.05 32.09 0.157 7.14 5.71 14.19
12/28/2022 10:30:00 AM 0.06 32.108 0.157 7.15 5.74 14.19
12/28/2022 10:45:00 AM 0.06 32.108 0.156 7.15 5.85 14.2
12/28/2022 11:00:00 AM 0.07 32.126 0.158 7.16 6.25 14.2
12/28/2022 11:15:00 AM 0.07 32.126 0.155 7.17 6.7 14.2
12/28/2022 11:30:00 AM 0.07 32.126 0.155 7.17 8.43 14.19
12/28/2022 11:45:00 AM 0.07 32.126 0.156 7.17 6.09 14.18
12/28/2022 12:00:00 PM 0.06 32.108 0.154 7.18 6.39 14.17
12/28/2022 12:15:00 PM 0.07 32.126 0.156 7.18 6.36 14.16
12/28/2022 12:30:00 PM 0.06 32.108 0.155 7.18 7.55 14.15
12/28/2022 12:45:00 PM 0.06 32.108 0.155 7.18 7.24 14.14
12/28/2022 1:00:00 PM 0.05 32.09 0.155 7.18 7.38 14.13
12/28/2022 1:15:00 PM 0.05 32.09 0.153 7.18 7.33 14.12
12/28/2022 1:30:00 PM 0.05 32.09 0.154 7.18 7.34 14.12
12/28/2022 1:45:00 PM 0.06 32.108 0.155 7.19 7.96 14.11
12/28/2022 2:00:00 PM 0.06 32.108 0.154 7.19 7.25 14.11
12/28/2022 2:15:00 PM 0.05 32.09 0.153 7.19 7.4 14.11
12/28/2022 2:30:00 PM 0.05 32.09 0.152 7.19 7.9 14.11
12/28/2022 2:45:00 PM 0.05 32.09 0.154 7.19 7.17 14.1
12/28/2022 3:00:00 PM 0.05 32.09 0.155 7.18 7.59 14.09
12/28/2022 3:15:00 PM 0.05 32.09 0.153 7.18 7.16 14.09
12/28/2022 3:30:00 PM 0.05 32.09 0.152 7.18 7.51 14.08
12/28/2022 3:45:00 PM 0.04 32.072 0.153 7.18 7 14.08
12/28/2022 4:00:00 PM 0.04 32.072 0.154 7.17 7.3 14.07
12/28/2022 4:15:00 PM 0.03 32.054 0.154 7.17 7.07 14.06
12/28/2022 4:30:00 PM 0.03 32.054 0.154 7.17 7.14 14.04
12/28/2022 4:45:00 PM 0.03 32.054 0.153 7.16 7.15 14.03
12/28/2022 5:00:00 PM 0.03 32.054 0.152 7.16 6.78 14.01
12/28/2022 5:15:00 PM 0.03 32.054 0.154 7.15 6.76 14
12/28/2022 5:30:00 PM 0.02 32.036 0.154 7.15 7.45 14
12/28/2022 5:45:00 PM 0.02 32.036 0.153 7.15 7.12 14
12/28/2022 6:00:00 PM 0.02 32.036 0.153 7.14 7.1 14
12/28/2022 6:15:00 PM 0.02 32.036 0.153 7.14 7.02 14
12/28/2022 6:30:00 PM 0.02 32.036 0.153 7.14 6.76 14
12/28/2022 6:45:00 PM 0.03 32.054 0.155 7.14 6.98 14
12/28/2022 7:00:00 PM 0.03 32.054 0.154 7.14 6.62 14
12/28/2022 7:15:00 PM 0.03 32.054 0.153 7.13 6.51 14
12/28/2022 7:30:00 PM 0.03 32.054 0.154 7.14 6.49 14
12/28/2022 7:45:00 PM 0.03 32.054 0.154 7.13 7.01 14.01
12/28/2022 8:00:00 PM 0.02 32.036 0.153 7.14 6.96 14.01
12/28/2022 8:15:00 PM 0.02 32.036 0.154 7.14 6.83 14.01
12/28/2022 8:30:00 PM 0.02 32.036 0.156 7.14 6.77 14.02
12/28/2022 8:45:00 PM 0.01 32.018 0.155 7.13 6.89 14.03
12/28/2022 9:00:00 PM 0.01 32.018 0.154 7.13 6.68 14.03
12/28/2022 9:15:00 PM 0.01 32.018 0.156 7.13 6.56 14.04
12/28/2022 9:30:00 PM 0.01 32.018 0.155 7.13 6.6 14.04
12/28/2022 9:45:00 PM 0.01 32.018 0.155 7.13 6.51 14.04
12/28/2022 10:00:00 PM 0 32 0.156 7.13 6.62 14.05
12/28/2022 10:15:00 PM 0 32 0.156 7.13 6.42 14.05
12/28/2022 10:30:00 PM 0 32 0.154 7.13 6.44 14.06
12/28/2022 10:45:00 PM 0 32 0.157 7.13 6.51 14.06
12/28/2022 11:00:00 PM -0.01 31.982 0.156 7.14 6.35 14.07
12/28/2022 11:15:00 PM -0.01 31.982 0.155 7.13 6.55 14.07
12/28/2022 11:30:00 PM -0.01 31.982 0.155 7.13 6.27 14.08
12/28/2022 11:45:00 PM -0.01 31.982 0.157 7.13 6.41 14.08
12/29/2022 12:00:00 AM -0.01 31.982 0.156 7.13 6.12 14.08
12/29/2022 12:15:00 AM -0.01 31.982 0.157 7.14 6.16 14.09
12/29/2022 12:30:00 AM -0.01 31.982 0.158 7.13 6.15 14.09
12/29/2022 12:45:00 AM -0.01 31.982 0.157 7.13 6.56 14.09
12/29/2022 1:00:00 AM -0.01 31.982 0.157 7.13 6.26 14.09
12/29/2022 1:15:00 AM -0.01 31.982 0.155 7.13 6.2 14.1
12/29/2022 1:30:00 AM -0.01 31.982 0.157 7.13 6.27 14.1
12/29/2022 1:45:00 AM -0.01 31.982 0.156 7.13 6.2 14.1
12/29/2022 2:00:00 AM -0.01 31.982 0.155 7.13 6.05 14.1
12/29/2022 2:15:00 AM -0.01 31.982 0.158 7.14 6.04 14.11
12/29/2022 2:30:00 AM -0.01 31.982 0.158 7.13 6.16 14.11
12/29/2022 2:45:00 AM -0.01 31.982 0.157 7.13 6.18 14.12
12/29/2022 3:00:00 AM -0.01 31.982 0.157 7.14 6.84 14.12
12/29/2022 3:15:00 AM -0.01 31.982 0.157 7.13 6.22 14.12
12/29/2022 3:30:00 AM -0.01 31.982 0.158 7.13 6.24 14.12
12/29/2022 3:45:00 AM -0.01 31.982 0.157 7.13 5.72 14.13
12/29/2022 4:00:00 AM -0.01 31.982 0.157 7.14 6.07 14.13
12/29/2022 4:15:00 AM -0.01 31.982 0.157 7.14 6.25 14.13
12/29/2022 4:30:00 AM -0.01 31.982 0.158 7.13 5.62 14.13
12/29/2022 4:45:00 AM -0.01 31.982 0.158 7.13 6.09 14.14
12/29/2022 5:00:00 AM -0.01 31.982 0.159 7.13 5.8 14.13
12/29/2022 5:15:00 AM -0.01 31.982 0.159 7.14 5.84 14.14
12/29/2022 5:30:00 AM -0.01 31.982 0.158 7.13 5.92 14.14
12/29/2022 5:45:00 AM -0.01 31.982 0.157 7.13 5.97 14.14
12/29/2022 6:00:00 AM -0.01 31.982 0.159 7.13 6.53 14.14
12/29/2022 6:15:00 AM -0.01 31.982 0.157 7.13 5.92 14.15
12/29/2022 6:30:00 AM -0.01 31.982 0.157 7.13 6.19 14.15
12/29/2022 6:45:00 AM -0.01 31.982 0.159 7.13 6.01 14.15
12/29/2022 7:00:00 AM -0.01 31.982 0.159 7.13 5.79 14.15
12/29/2022 7:15:00 AM -0.01 31.982 0.157 7.13 6.06 14.16
12/29/2022 7:30:00 AM -0.01 31.982 0.159 7.13 6.19 14.16
12/29/2022 7:45:00 AM -0.01 31.982 0.16 7.13 6.23 14.16
12/29/2022 8:00:00 AM -0.01 31.982 0.159 7.13 6.03 14.17
12/29/2022 8:15:00 AM -0.01 31.982 0.159 7.13 6.01 14.18
12/29/2022 8:30:00 AM 0 32 0.16 7.14 6.2 14.2
12/29/2022 8:45:00 AM 0 32 0.16 7.13 5.9 14.22
12/29/2022 9:00:00 AM 0.01 32.018 0.16 7.15 5.83 14.25
12/29/2022 9:15:00 AM 0.01 32.018 0.159 7.15 6.03 14.28
12/29/2022 9:30:00 AM 0.02 32.036 0.159 7.16 5.95 14.31
12/29/2022 9:45:00 AM 0.03 32.054 0.159 7.16 5.83 14.32
12/29/2022 10:00:00 AM 0.03 32.054 0.158 7.17 5.48 14.34
12/29/2022 10:15:00 AM 0.03 32.054 0.156 7.17 5.74 14.34
12/29/2022 10:30:00 AM 0.04 32.072 0.158 7.17 6 14.33
12/29/2022 10:45:00 AM 0.05 32.09 0.157 7.17 5.63 14.32
12/29/2022 11:00:00 AM 0.07 32.126 0.156 7.18 5.93 14.31
12/29/2022 11:15:00 AM 0.08 32.144 0.157 7.18 5.98 14.3
12/29/2022 11:30:00 AM 0.1 32.18 0.156 7.18 5.86 14.29
12/29/2022 11:45:00 AM 0.1 32.18 0.159 7.18 6.16 14.28
12/29/2022 12:00:00 PM 0.11 32.198 0.156 7.18 5.98 14.27
12/29/2022 12:15:00 PM 0.11 32.198 0.156 7.19 6.27 14.25
12/29/2022 12:30:00 PM 0.12 32.216 0.156 7.19 6.15 14.23
12/29/2022 12:45:00 PM 0.15 32.27 0.159 7.19 6.24 14.19
12/29/2022 1:00:00 PM 0.21 32.378 0.16 7.2 6.56 14.15
12/29/2022 1:15:00 PM 0.27 32.486 0.158 7.21 6.6 14.12
12/29/2022 1:30:00 PM 0.31 32.558 0.16 7.22 6.47 14.09
12/29/2022 1:45:00 PM 0.35 32.63 0.159 7.22 6.67 14.07
12/29/2022 2:00:00 PM 0.38 32.684 0.157 7.23 6.68 14.05
12/29/2022 2:15:00 PM 0.4 32.72 0.159 7.23 6.84 14.04
12/29/2022 2:30:00 PM 0.42 32.756 0.157 7.24 6.57 14.02
12/29/2022 2:45:00 PM 0.44 32.792 0.158 7.24 6.84 14.01
12/29/2022 3:00:00 PM 0.44 32.792 0.157 7.24 6.42 13.99
12/29/2022 3:15:00 PM 0.46 32.828 0.158 7.24 8.05 13.99
12/29/2022 3:30:00 PM 0.45 32.81 0.157 7.24 6.62 13.98
12/29/2022 3:45:00 PM 0.44 32.792 0.155 7.24 7.23 13.97
12/29/2022 4:00:00 PM 0.43 32.774 0.156 7.23 6.95 13.96
12/29/2022 4:15:00 PM 0.43 32.774 0.156 7.23 6.59 13.96
12/29/2022 4:30:00 PM 0.43 32.774 0.157 7.22 6.5 13.96
12/29/2022 4:45:00 PM 0.42 32.756 0.154 7.21 6.73 13.95
12/29/2022 5:00:00 PM 0.4 32.72 0.155 7.21 7.72 13.95
12/29/2022 5:15:00 PM 0.39 32.702 0.158 7.21 8.33 13.94
12/29/2022 5:30:00 PM 0.38 32.684 0.155 7.2 9.63 13.94
12/29/2022 5:45:00 PM 0.36 32.648 0.16 7.19 9.62 13.93
12/29/2022 6:00:00 PM 0.35 32.63 0.161 7.19 9.27 13.94
12/29/2022 6:15:00 PM 0.34 32.612 0.162 7.18 8.69 13.95
12/29/2022 6:30:00 PM 0.32 32.576 0.065 7.18 8.5 13.96
12/29/2022 6:45:00 PM 0.31 32.558 0.168 7.19 8.62 13.96
12/29/2022 7:00:00 PM 0.3 32.54 0.156 7.18 8.47 13.96
12/29/2022 7:15:00 PM 0.28 32.504 0.156 7.18 8.29 13.97
12/29/2022 7:30:00 PM 0.27 32.486 0.156 7.18 7.36 13.98
12/29/2022 7:45:00 PM 0.26 32.468 0.156 7.17 7.28 13.98
12/29/2022 8:00:00 PM 0.27 32.486 0.16 7.17 7.18 13.98
12/29/2022 8:15:00 PM 0.28 32.504 0.157 7.17 6.77 13.98
12/29/2022 8:30:00 PM 0.29 32.522 0.156 7.17 7.02 13.98
12/29/2022 8:45:00 PM 0.3 32.54 0.164 7.17 6.73 13.98
12/29/2022 9:00:00 PM 0.31 32.558 0.158 7.17 6.63 13.98
12/29/2022 9:15:00 PM 0.32 32.576 0.157 7.17 6.36 13.98
12/29/2022 9:30:00 PM 0.32 32.576 0.168 7.17 7.02 13.97
12/29/2022 9:45:00 PM 0.32 32.576 0.172 7.17 6.86 13.97
12/29/2022 10:00:00 PM 0.33 32.594 0.175 7.17 7.08 13.97
12/29/2022 10:15:00 PM 0.33 32.594 0.155 7.16 6.45 13.96
12/29/2022 10:30:00 PM 0.34 32.612 0.171 7.16 6.64 13.96
12/29/2022 10:45:00 PM 0.34 32.612 0.157 7.17 6.65 13.96
12/29/2022 11:00:00 PM 0.35 32.63 0.157 7.16 7.1 13.96
12/29/2022 11:15:00 PM 0.34 32.612 0.156 7.16 6.81 13.96
12/29/2022 11:30:00 PM 0.34 32.612 0.157 7.16 6.62 13.96
12/29/2022 11:45:00 PM 0.35 32.63 0.155 7.16 7.11 13.96
12/30/2022 12:00:00 AM 0.35 32.63 0.157 7.17 7.37 13.96
12/30/2022 12:15:00 AM 0.36 32.648 0.157 7.16 6.95 13.96
12/30/2022 12:30:00 AM 0.36 32.648 0.156 7.15 6.93 13.96
12/30/2022 12:45:00 AM 0.37 32.666 0.155 7.15 7.15 13.96
12/30/2022 1:00:00 AM 0.37 32.666 0.157 7.15 7.02 13.96
12/30/2022 1:15:00 AM 0.38 32.684 0.158 7.16 6.92 13.95
12/30/2022 1:30:00 AM 0.38 32.684 0.155 7.16 6.95 13.96
12/30/2022 1:45:00 AM 0.37 32.666 0.157 7.16 7.21 13.95
12/30/2022 2:00:00 AM 0.36 32.648 0.156 7.16 7.26 13.96
12/30/2022 2:15:00 AM 0.34 32.612 0.162 7.16 7.37 13.96
12/30/2022 2:30:00 AM 0.33 32.594 0.155 7.15 7.43 13.97
12/30/2022 2:45:00 AM 0.31 32.558 0.168 7.15 7.39 13.97
12/30/2022 3:00:00 AM 0.3 32.54 0.157 7.15 7.53 13.98
12/30/2022 3:15:00 AM 0.29 32.522 0.155 7.15 7.77 13.98
12/30/2022 3:30:00 AM 0.28 32.504 0.154 7.15 7.41 13.99
12/30/2022 3:45:00 AM 0.26 32.468 0.157 7.15 7.45 14
12/30/2022 4:00:00 AM 0.25 32.45 0.17 7.15 7.91 14
12/30/2022 4:15:00 AM 0.24 32.432 0.172 7.15 7.82 14
12/30/2022 4:30:00 AM 0.24 32.432 0.17 7.15 7.84 14
12/30/2022 4:45:00 AM 0.24 32.432 0.17 7.15 8.06 14.01
12/30/2022 5:00:00 AM 0.23 32.414 0.171 7.15 8.38 14.02
12/30/2022 5:15:00 AM 0.22 32.396 0.173 7.15 8.27 14.01
12/30/2022 5:30:00 AM 0.22 32.396 0.172 7.15 8.32 14.02
12/30/2022 5:45:00 AM 0.22 32.396 0.169 7.15 8.09 14.02
12/30/2022 6:00:00 AM 0.23 32.414 0.154 7.15 9.75 14.02
12/30/2022 6:15:00 AM 0.24 32.432 0.166 7.15 7.93 14.02
12/30/2022 6:30:00 AM 0.25 32.45 0.153 7.15 8.53 14.01
12/30/2022 6:45:00 AM 0.25 32.45 0.153 7.16 8.14 14.02
12/30/2022 7:00:00 AM 0.24 32.432 0.154 7.15 8.72 14.02
12/30/2022 7:15:00 AM 0.23 32.414 0.154 7.15 8.5 14.02
12/30/2022 7:30:00 AM 0.23 32.414 0.155 7.15 8.43 14.02
12/30/2022 7:45:00 AM 0.23 32.414 0.152 7.15 8.7 14.03
12/30/2022 8:00:00 AM 0.24 32.432 0.166 7.15 8.27 14.04
12/30/2022 8:15:00 AM 0.26 32.468 0.171 7.15 8.44 14.05
12/30/2022 8:30:00 AM 0.28 32.504 0.172 7.15 8.21 14.08
12/30/2022 8:45:00 AM 0.3 32.54 0.168 7.16 8.58 14.1
12/30/2022 9:00:00 AM 0.33 32.594 0.173 7.17 8.35 14.12
12/30/2022 9:15:00 AM 0.35 32.63 0.17 7.17 8.7 14.14
12/30/2022 9:30:00 AM 0.38 32.684 0.172 7.18 8.84 14.15
12/30/2022 9:45:00 AM 0.43 32.774 0.172 7.18 9.58 14.16
12/30/2022 10:00:00 AM 0.47 32.846 0.173 7.19 8.86 14.16
12/30/2022 10:15:00 AM 0.5 32.9 0.175 7.19 8.84 14.17
12/30/2022 10:30:00 AM 0.53 32.954 0.173 7.19 9.45 14.17
12/30/2022 10:45:00 AM 0.57 33.026 0.175 7.2 8.83 14.17
12/30/2022 11:00:00 AM 0.61 33.098 0.169 7.2 8.88 14.17
12/30/2022 11:15:00 AM 0.63 33.134 0.17 7.2 8.94 14.17
12/30/2022 11:30:00 AM 0.67 33.206 0.171 7.21 8.66 14.16
12/30/2022 11:45:00 AM 0.72 33.296 0.173 7.21 8.92 14.16
12/30/2022 12:00:00 PM 0.81 33.458 0.169 7.22 8.46 14.15
12/30/2022 12:15:00 PM 0.88 33.584 0.166 7.23 8.77 14.14
12/30/2022 12:30:00 PM 0.91 33.638 0.171 7.23 8.8 14.12
12/30/2022 12:45:00 PM 0.95 33.71 0.17 7.23 8.96 14.1
12/30/2022 1:00:00 PM 1.01 33.818 0.171 7.23 9.56 14.08
12/30/2022 1:15:00 PM 1.05 33.89 0.164 7.24 8.96 14.06
12/30/2022 1:30:00 PM 1.07 33.926 0.165 7.24 9.46 14.04
12/30/2022 1:45:00 PM 1.07 33.926 0.164 7.23 9.67 14.03
12/30/2022 2:00:00 PM 1.08 33.944 0.164 7.24 9.73 14.02
12/30/2022 2:15:00 PM 1.06 33.908 0.162 7.24 9.94 14.01
12/30/2022 2:30:00 PM 1 33.8 0.164 7.23 10.06 14
12/30/2022 2:45:00 PM 0.94 33.692 0.166 7.23 10.92 14
12/30/2022 3:00:00 PM 0.88 33.584 0.163 7.21 10.12 13.98
12/30/2022 3:15:00 PM 0.81 33.458 0.163 7.21 10.62 13.98
12/30/2022 3:30:00 PM 0.74 33.332 0.16 7.2 11.61 13.98
12/30/2022 3:45:00 PM 0.65 33.17 0.16 7.19 13.4 13.99
12/30/2022 4:00:00 PM 0.55 32.99 0.158 7.17 13.91 13.99
12/30/2022 4:15:00 PM 0.45 32.81 0.158 7.15 14.79 13.99
12/30/2022 4:30:00 PM 0.37 32.666 0.162 7.13 17.14 13.98
12/30/2022 4:45:00 PM 0.31 32.558 0.161 7.11 18.83 13.98
12/30/2022 5:00:00 PM 0.24 32.432 0.161 7.09 24.61 13.98
12/30/2022 5:15:00 PM 0.18 32.324 0.16 7.08 31.84 14
12/30/2022 5:30:00 PM 0.14 32.252 0.155 7.07 40.38 14.01
12/30/2022 5:45:00 PM 0.11 32.198 0.154 7.06 45.88 14.02
12/30/2022 6:00:00 PM 0.08 32.144 0.151 7.06 47.81 14.02
12/30/2022 6:15:00 PM 0.07 32.126 0.152 7.05 50.28 14.03
12/30/2022 6:30:00 PM 0.06 32.108 0.15 7.05 54.68 14.04
12/30/2022 6:45:00 PM 0.05 32.09 0.15 7.01 55.52 14.05
12/30/2022 7:00:00 PM 0.04 32.072 0.15 7.04 57.56 14.07
12/30/2022 7:15:00 PM 0.04 32.072 0.146 7.04 64.01 14.07
12/30/2022 7:30:00 PM 0.04 32.072 0.144 7.02 65.05 14.08
12/30/2022 7:45:00 PM 0.04 32.072 0.141 7.02 64.77 14.08
12/30/2022 8:00:00 PM 0.04 32.072 0.14 7.01 60.82 14.09
12/30/2022 8:15:00 PM 0.03 32.054 0.137 7 65.67 14.1
12/30/2022 8:30:00 PM 0.03 32.054 0.137 6.99 59.46 14.1
12/30/2022 8:45:00 PM 0.03 32.054 0.138 7.01 56.95 14.1
12/30/2022 9:00:00 PM 0.03 32.054 0.132 7 54.49 14.11
12/30/2022 9:15:00 PM 0.03 32.054 0.132 6.99 54.33 14.11
12/30/2022 9:30:00 PM 0.03 32.054 0.132 6.99 51.57 14.11
12/30/2022 9:45:00 PM 0.03 32.054 0.131 6.98 50.49 14.11
12/30/2022 10:00:00 PM 0.03 32.054 0.129 6.99 47.08 14.1
12/30/2022 10:15:00 PM 0.03 32.054 0.129 6.97 47.65 14.1
12/30/2022 10:30:00 PM 0.03 32.054 0.128 6.97 44.59 14.1
12/30/2022 10:45:00 PM 0.03 32.054 0.127 6.98 44.62 14.1
12/30/2022 11:00:00 PM 0.03 32.054 0.123 6.97 42.96 14.1
12/30/2022 11:15:00 PM 0.04 32.072 0.124 6.96 40.62 14.1
12/30/2022 11:30:00 PM 0.04 32.072 0.122 6.97 39.85 14.1
12/30/2022 11:45:00 PM 0.04 32.072 0.126 6.97 42.02 14.09
12/31/2022 12:00:00 AM 0.04 32.072 0.125 6.97 56.34 14.09
12/31/2022 12:15:00 AM 0.04 32.072 0.123 6.95 41.51 14.09
12/31/2022 12:30:00 AM 0.04 32.072 0.123 6.95 41.67 14.09
12/31/2022 12:45:00 AM 0.04 32.072 0.123 6.98 38.2 14.08
12/31/2022 1:00:00 AM 0.05 32.09 0.123 6.98 30.27 14.08
12/31/2022 1:15:00 AM 0.05 32.09 0.124 6.97 33.17 14.08
12/31/2022 1:30:00 AM 0.05 32.09 0.124 6.96 31.38 14.07
12/31/2022 1:45:00 AM 0.05 32.09 0.123 6.96 31.12 14.07
12/31/2022 2:00:00 AM 0.06 32.108 0.124 6.96 30.11 14.07
12/31/2022 2:15:00 AM 0.06 32.108 0.122 6.98 29.96 14.06
12/31/2022 2:30:00 AM 0.07 32.126 0.12 6.98 29.08 14.05
12/31/2022 2:45:00 AM 0.07 32.126 0.122 6.98 28.24 14.05
12/31/2022 3:00:00 AM 0.07 32.126 0.121 6.92 27.65 14.04
12/31/2022 3:15:00 AM 0.08 32.144 0.121 6.93 26.59 14.04
12/31/2022 3:30:00 AM 0.08 32.144 0.121 6.95 25.96 14.04
12/31/2022 3:45:00 AM 0.08 32.144 0.121 6.98 27.36 14.04
12/31/2022 4:00:00 AM 0.08 32.144 0.122 6.97 24.94 14.03
12/31/2022 4:15:00 AM 0.09 32.162 0.122 7 24.42 14.03
12/31/2022 4:30:00 AM 0.1 32.18 0.123 7 25.23 14.03
12/31/2022 4:45:00 AM 0.11 32.198 0.122 7 26.94 14.02
12/31/2022 5:00:00 AM 0.11 32.198 0.11 7 23.9 14.02
12/31/2022 5:15:00 AM 0.11 32.198 0.121 6.99 25.28 14.01
12/31/2022 5:30:00 AM 0.11 32.198 0.123 6.99 24.31 14.01
12/31/2022 5:45:00 AM 0.11 32.198 0.122 7.02 26.08 14.01
12/31/2022 6:00:00 AM 0.11 32.198 0.126 7 24.9 14
12/31/2022 6:15:00 AM 0.11 32.198 0.108 7 26.63 14
12/31/2022 6:30:00 AM 0.12 32.216 0.107 6.98 25.66 14
12/31/2022 6:45:00 AM 0.12 32.216 0.109 7.02 30.95 13.99
12/31/2022 7:00:00 AM 0.12 32.216 0.11 7.09 34.46 13.99
12/31/2022 7:15:00 AM 0.13 32.234 0.109 7.03 33.96 13.99
12/31/2022 7:30:00 AM 0.13 32.234 0.108 7.01 33.64 13.98
12/31/2022 7:45:00 AM 0.14 32.252 0.109 7 34.58 13.98
12/31/2022 8:00:00 AM 0.16 32.288 0.109 6.99 25.5 13.98
12/31/2022 8:15:00 AM 0.17 32.306 0.107 7 36.57 13.98
12/31/2022 8:30:00 AM 0.19 32.342 0.108 6.98 29.14 13.98
12/31/2022 8:45:00 AM 0.21 32.378 0.11 6.98 32.79 13.98
12/31/2022 9:00:00 AM 0.23 32.414 0.109 6.98 33.41 13.98
12/31/2022 9:15:00 AM 0.25 32.45 0.108 6.97 26.12 13.98
12/31/2022 9:30:00 AM 0.28 32.504 0.108 6.97 26.29 13.99
12/31/2022 9:45:00 AM 0.3 32.54 0.107 6.97 26.39 13.99
12/31/2022 10:00:00 AM 0.33 32.594 0.107 6.98 25.7 13.99
12/31/2022 10:15:00 AM 0.36 32.648 0.107 6.99 24.89 13.99
12/31/2022 10:30:00 AM 0.39 32.702 0.108 6.99 22.28 13.99
12/31/2022 10:45:00 AM 0.41 32.738 0.107 6.98 24.73 13.99
12/31/2022 11:00:00 AM 0.42 32.756 0.109 6.99 22.01 13.97
12/31/2022 11:15:00 AM 0.44 32.792 0.108 7 30.14 13.97
12/31/2022 11:30:00 AM 0.47 32.846 0.108 7 24.17 13.97
12/31/2022 11:45:00 AM 0.49 32.882 0.109 7 22.31 13.96
12/31/2022 12:00:00 PM 0.51 32.918 0.109 7 21.86 13.96
12/31/2022 12:15:00 PM 0.54 32.972 0.109 7.01 23.47 13.95
12/31/2022 12:30:00 PM 0.58 33.044 0.108 7.01 22.03 13.95
12/31/2022 12:45:00 PM 0.61 33.098 0.108 7.02 20.09 13.94
12/31/2022 1:00:00 PM 0.64 33.152 0.107 7.02 26.97 13.93
12/31/2022 1:15:00 PM 0.66 33.188 0.109 7.03 22.59 13.92
12/31/2022 1:30:00 PM 0.7 33.26 0.109 7.03 27.12 13.91
12/31/2022 1:45:00 PM 0.72 33.296 0.108 7.03 21.07 13.89
12/31/2022 2:00:00 PM 0.73 33.314 0.109 7.04 21.32 13.88
12/31/2022 2:15:00 PM 0.74 33.332 0.107 7.04 21.58 13.86
12/31/2022 2:30:00 PM 0.76 33.368 0.107 7.04 21.38 13.85
12/31/2022 2:45:00 PM 0.76 33.368 0.107 7.04 22.36 13.83
12/31/2022 3:00:00 PM 0.74 33.332 0.108 7.04 22.64 13.81
12/31/2022 3:15:00 PM 0.74 33.332 0.107 7.03 22.14 13.79
12/31/2022 3:30:00 PM 0.74 33.332 0.109 7.04 22.46 13.78
12/31/2022 3:45:00 PM 0.74 33.332 0.108 7.02 23.53 13.76
12/31/2022 4:00:00 PM 0.73 33.314 0.109 7.02 23.13 13.75
12/31/2022 4:15:00 PM 0.72 33.296 0.108 7.01 25.99 13.73
12/31/2022 4:30:00 PM 0.72 33.296 0.11 7 26.52 13.72
12/31/2022 4:45:00 PM 0.7 33.26 0.108 7.01 30.98 13.71
12/31/2022 5:00:00 PM 0.68 33.224 0.108 7 33.27 13.7
12/31/2022 5:15:00 PM 0.66 33.188 0.11 6.99 34.25 13.7
12/31/2022 5:30:00 PM 0.64 33.152 0.109 6.99 34.65 13.7
12/31/2022 5:45:00 PM 0.62 33.116 0.107 6.97 36.11 13.71
12/31/2022 6:00:00 PM 0.6 33.08 0.108 6.97 36.61 13.71
12/31/2022 6:15:00 PM 0.58 33.044 0.107 6.95 40.67 13.71
12/31/2022 6:30:00 PM 0.56 33.008 0.108 6.96 42.59 13.71
12/31/2022 6:45:00 PM 0.55 32.99 0.107 6.94 41.85 13.72
12/31/2022 7:00:00 PM 0.54 32.972 0.107 6.95 41.52 13.72
12/31/2022 7:15:00 PM 0.53 32.954 0.106 6.95 42.13 13.73
12/31/2022 7:30:00 PM 0.54 32.972 0.106 6.94 42.44 13.73
12/31/2022 7:45:00 PM 0.54 32.972 0.106 6.95 42.49 13.72
12/31/2022 8:00:00 PM 0.54 32.972 0.105 6.96 41.76 13.72
12/31/2022 8:15:00 PM 0.55 32.99 0.106 6.96 44.4 13.71
12/31/2022 8:30:00 PM 0.56 33.008 0.105 6.95 43.94 13.71
12/31/2022 8:45:00 PM 0.57 33.026 0.105 6.96 42.33 13.71
12/31/2022 9:00:00 PM 0.58 33.044 0.105 6.95 39.86 13.7
12/31/2022 9:15:00 PM 0.59 33.062 0.105 6.95 42.8 13.7
12/31/2022 9:30:00 PM 0.6 33.08 0.103 6.94 38.76 13.7
12/31/2022 9:45:00 PM 0.61 33.098 0.103 6.96 40.7 13.69
12/31/2022 10:00:00 PM 0.62 33.116 0.102 6.94 40.52 13.69
12/31/2022 10:15:00 PM 0.63 33.134 0.102 6.94 39.49 13.68
12/31/2022 10:30:00 PM 0.64 33.152 0.102 6.97 40.48 13.68
12/31/2022 10:45:00 PM 0.65 33.17 0.101 6.94 37.04 13.67
12/31/2022 11:00:00 PM 0.67 33.206 0.103 6.95 35.27 13.67
12/31/2022 11:15:00 PM 0.69 33.242 0.102 6.96 35.55 13.66
12/31/2022 11:30:00 PM 0.71 33.278 0.104 6.96 34.01 13.65
12/31/2022 11:45:00 PM 0.72 33.296 0.103 6.96 38.62 13.65
1/1/2023 12:00:00 AM 0.72 33.296 0.104 6.96 32.99 13.64
1/1/2023 12:15:00 AM 0.73 33.314 0.103 6.96 35.84 13.63
1/1/2023 12:30:00 AM 0.74 33.332 0.103 6.96 32.85 13.63
1/1/2023 12:45:00 AM 0.77 33.386 0.103 6.95 32.7 13.63
1/1/2023 1:00:00 AM 0.79 33.422 0.101 6.95 32.51 13.62
1/1/2023 1:15:00 AM 0.81 33.458 0.102 6.95 32.8 13.61
1/1/2023 1:30:00 AM 0.84 33.512 0.105 6.95 32.66 13.6
1/1/2023 1:45:00 AM 0.87 33.566 0.102 6.96 31.58 13.6
1/1/2023 2:00:00 AM 0.91 33.638 0.103 6.95 31.06 13.58
1/1/2023 2:15:00 AM 0.94 33.692 0.106 6.97 31.11 13.58
1/1/2023 2:30:00 AM 0.95 33.71 0.105 6.98 29.82 13.58
1/1/2023 2:45:00 AM 0.96 33.728 0.105 6.98 29.53 13.57
1/1/2023 3:00:00 AM 0.99 33.782 0.106 6.99 28.6 13.56
1/1/2023 3:15:00 AM 1.01 33.818 0.106 6.98 27.63 13.56
1/1/2023 3:30:00 AM 1.03 33.854 0.105 6.99 27.9 13.55
1/1/2023 3:45:00 AM 1.05 33.89 0.103 6.99 27.45 13.55
1/1/2023 4:00:00 AM 1.08 33.944 0.105 6.99 27.92 13.55
1/1/2023 4:15:00 AM 1.09 33.962 0.103 7 31.18 13.54
1/1/2023 4:30:00 AM 1.11 33.998 0.106 7 27.27 13.54
1/1/2023 4:45:00 AM 1.13 34.034 0.104 6.98 27.43 13.54
1/1/2023 5:00:00 AM 1.15 34.07 0.105 6.99 26.92 13.53
1/1/2023 5:15:00 AM 1.17 34.106 0.105 7 27.84 13.53
1/1/2023 5:30:00 AM 1.2 34.16 0.106 6.99 25.48 13.52
1/1/2023 5:45:00 AM 1.23 34.214 0.104 7 26 13.52
1/1/2023 6:00:00 AM 1.25 34.25 0.105 6.99 25.99 13.51
1/1/2023 6:15:00 AM 1.28 34.304 0.107 6.98 25 13.51
1/1/2023 6:30:00 AM 1.31 34.358 0.105 7 24.64 13.5
1/1/2023 6:45:00 AM 1.33 34.394 0.107 6.99 25.9 13.5
1/1/2023 7:00:00 AM 1.35 34.43 0.106 6.99 26.28 13.5
1/1/2023 7:15:00 AM 1.37 34.466 0.105 6.99 24.77 13.49
1/1/2023 7:30:00 AM 1.39 34.502 0.107 7.01 26.79 13.49
1/1/2023 7:45:00 AM 1.4 34.52 0.106 7.01 26.7 13.49
1/1/2023 8:00:00 AM 1.42 34.556 0.106 6.99 24.52 13.49
1/1/2023 8:15:00 AM 1.44 34.592 0.106 6.98 23.73 13.49
1/1/2023 8:30:00 AM 1.46 34.628 0.105 6.98 24.04 13.49
1/1/2023 8:45:00 AM 1.49 34.682 0.106 7 23.59 13.49
1/1/2023 9:00:00 AM 1.51 34.718 0.107 7.01 26.2 13.5
1/1/2023 9:15:00 AM 1.54 34.772 0.107 7.01 22.37 13.5
1/1/2023 9:30:00 AM 1.57 34.826 0.106 7.03 24.59 13.51
1/1/2023 9:45:00 AM 1.61 34.898 0.107 7.03 23.36 13.51
1/1/2023 10:00:00 AM 1.67 35.006 0.105 7.04 22.66 13.53
1/1/2023 10:15:00 AM 1.72 35.096 0.108 7.03 23.36 13.53
1/1/2023 10:30:00 AM 1.78 35.204 0.106 7.05 23.67 13.53
1/1/2023 10:45:00 AM 1.84 35.312 0.107 7.06 21.45 13.53
1/1/2023 11:00:00 AM 1.9 35.42 0.109 7.06 22.35 13.52
1/1/2023 11:15:00 AM 1.94 35.492 0.109 7.06 21.4 13.51
1/1/2023 11:30:00 AM 2.03 35.654 0.108 7.06 22.06 13.5
1/1/2023 11:45:00 AM 2.11 35.798 0.107 7.08 20.97 13.49
1/1/2023 12:00:00 PM 2.18 35.924 0.109 7.09 22.17 13.46
1/1/2023 12:15:00 PM 2.27 36.086 0.108 7.08 20.43 13.44
1/1/2023 12:30:00 PM 2.33 36.194 0.112 7.08 20.7 13.42
1/1/2023 12:45:00 PM 2.4 36.32 0.107 7.1 20.15 13.4
1/1/2023 1:00:00 PM 2.45 36.41 0.109 7.1 21.45 13.39
1/1/2023 1:15:00 PM 2.49 36.482 0.109 7.1 20.64 13.38
1/1/2023 1:30:00 PM 2.53 36.554 0.107 7.11 20.45 13.35
1/1/2023 1:45:00 PM 2.56 36.608 0.114 7.11 19.57 13.34
1/1/2023 2:00:00 PM 2.58 36.644 0.109 7.11 20.14 13.32
1/1/2023 2:15:00 PM 2.6 36.68 0.118 7.11 21.38 13.3
1/1/2023 2:30:00 PM 2.63 36.734 0.114 7.11 20.28 13.28
1/1/2023 2:45:00 PM 2.65 36.77 0.11 7.1 18.93 13.26
1/1/2023 3:00:00 PM 2.69 36.842 0.112 7.1 18.64 13.25
1/1/2023 3:15:00 PM 2.73 36.914 0.11 7.1 19.65 13.24
1/1/2023 3:30:00 PM 2.74 36.932 0.111 7.1 19.79 13.21
1/1/2023 3:45:00 PM 2.76 36.968 0.11 7.1 19.54 13.18
1/1/2023 4:00:00 PM 2.78 37.004 0.111 7.09 19 13.15
1/1/2023 4:15:00 PM 2.79 37.022 0.109 7.09 19.62 13.12
1/1/2023 4:30:00 PM 2.8 37.04 0.12 7.13 19.16 13.1
1/1/2023 4:45:00 PM 2.8 37.04 0.123 7.1 20.31 13.08
1/1/2023 5:00:00 PM 2.8 37.04 0.12 7.09 20.28 13.06
1/1/2023 5:15:00 PM 2.8 37.04 0.121 7.07 19.14 13.05
1/1/2023 5:30:00 PM 2.8 37.04 0.125 7.07 19.83 13.04
1/1/2023 5:45:00 PM 2.8 37.04 0.119 7.07 19.52 13.03
1/1/2023 6:00:00 PM 2.8 37.04 0.121 7.06 20.49 13.02
1/1/2023 6:15:00 PM 2.79 37.022 0.126 7.04 20.9 13.01
1/1/2023 6:30:00 PM 2.79 37.022 0.122 7.04 20.65 13.01
1/1/2023 6:45:00 PM 2.78 37.004 0.119 7.04 21.2 13.01
1/1/2023 7:00:00 PM 2.77 36.986 0.123 7.03 21.85 13.01
1/1/2023 7:15:00 PM 2.76 36.968 0.121 7.02 20.81 13.01
1/1/2023 7:30:00 PM 2.75 36.95 0.111 6.99 21.85 13.02
1/1/2023 7:45:00 PM 2.73 36.914 0.115 7 22.82 13.02
1/1/2023 8:00:00 PM 2.7 36.86 0.116 6.99 22.51 13.02
1/1/2023 8:15:00 PM 2.68 36.824 0.113 6.99 21.03 13.03
1/1/2023 8:30:00 PM 2.67 36.806 0.118 6.97 20.53 13.04
1/1/2023 8:45:00 PM 2.67 36.806 0.118 6.99 21.48 13.04
1/1/2023 9:00:00 PM 2.66 36.788 0.117 6.97 22.67 13.04
1/1/2023 9:15:00 PM 2.66 36.788 0.117 6.99 20.5 13.03
1/1/2023 9:30:00 PM 2.65 36.77 0.12 6.97 20.16 13.04
1/1/2023 9:45:00 PM 2.64 36.752 0.126 6.97 21.15 13.04
1/1/2023 10:00:00 PM 2.62 36.716 0.115 6.94 20.38 13.05
1/1/2023 10:15:00 PM 2.62 36.716 0.116 6.98 20.51 13.05
1/1/2023 10:30:00 PM 2.6 36.68 0.116 6.97 20.43 13.05
1/1/2023 10:45:00 PM 2.59 36.662 0.129 6.96 20.34 13.06
1/1/2023 11:00:00 PM 2.58 36.644 0.126 6.98 19.33 13.06
1/1/2023 11:15:00 PM 2.57 36.626 0.13 6.97 19.7 13.07
1/1/2023 11:30:00 PM 2.55 36.59 0.13 7.03 20.06 13.07
1/1/2023 11:45:00 PM 2.54 36.572 0.116 7.12 18.97 13.07
1/2/2023 12:00:00 AM 2.53 36.554 0.114 7.07 18.66 13.08
1/2/2023 12:15:00 AM 2.51 36.518 0.121 7.07 19.44 13.08
1/2/2023 12:30:00 AM 2.49 36.482 0.124 6.99 19.01 13.09
1/2/2023 12:45:00 AM 2.48 36.464 0.123 7.01 19.14 13.1
1/2/2023 1:00:00 AM 2.47 36.446 0.119 7.04 18.42 13.1
1/2/2023 1:15:00 AM 2.45 36.41 0.128 7.07 18.73 13.1
1/2/2023 1:30:00 AM 2.43 36.374 0.132 7.01 18.71 13.1
1/2/2023 1:45:00 AM 2.41 36.338 0.135 6.94 18.79 13.11
1/2/2023 2:00:00 AM 2.39 36.302 0.135 6.95 18.22 13.12
1/2/2023 2:15:00 AM 2.38 36.284 0.117 6.91 17.8 13.13
1/2/2023 2:30:00 AM 2.36 36.248 0.129 6.92 17.67 13.12
1/2/2023 2:45:00 AM 2.33 36.194 0.13 6.89 17.44 13.14
1/2/2023 3:00:00 AM 2.31 36.158 0.117 6.94 17.32 13.15
1/2/2023 3:15:00 AM 2.29 36.122 0.121 6.92 17.92 13.15
1/2/2023 3:30:00 AM 2.28 36.104 0.116 6.94 17.48 13.16
1/2/2023 3:45:00 AM 2.27 36.086 0.119 7.06 16.42 13.16
1/2/2023 4:00:00 AM 2.27 36.086 0.117 7.12 17.17 13.17
1/2/2023 4:15:00 AM 2.26 36.068 0.129 7.12 17.11 13.17
1/2/2023 4:30:00 AM 2.26 36.068 0.119 7.13 17.28 13.18
1/2/2023 4:45:00 AM 2.25 36.05 0.122 7.06 17.54 13.19
1/2/2023 5:00:00 AM 2.24 36.032 0.116 7.05 17.81 13.18
1/2/2023 5:15:00 AM 2.24 36.032 0.12 7.04 18.48 13.19
1/2/2023 5:30:00 AM 2.24 36.032 0.124 6.99 18.07 13.19
1/2/2023 5:45:00 AM 2.24 36.032 0.127 7 18.74 13.19
1/2/2023 6:00:00 AM 2.24 36.032 0.123 7.1 18.02 13.2
1/2/2023 6:15:00 AM 2.24 36.032 0.118 7.13 18.95 13.21
1/2/2023 6:30:00 AM 2.23 36.014 0.121 7.06 18.68 13.21
1/2/2023 6:45:00 AM 2.22 35.996 0.13 7.05 18.31 13.21
1/2/2023 7:00:00 AM 2.22 35.996 0.136 7.04 17.38 13.21
1/2/2023 7:15:00 AM 2.21 35.978 0.122 7.01 19.43 13.21
1/2/2023 7:30:00 AM 2.2 35.96 0.133 7.06 17.61 13.22
1/2/2023 7:45:00 AM 2.2 35.96 0.133 7.09 17.19 13.23
1/2/2023 8:00:00 AM 2.2 35.96 0.135 7 16.26 13.23
1/2/2023 8:15:00 AM 2.2 35.96 0.136 7.03 17.61 13.24
1/2/2023 8:30:00 AM 2.2 35.96 0.138 7.03 17.51 13.25
1/2/2023 8:45:00 AM 2.21 35.978 0.119 7.01 15.47 13.28
1/2/2023 9:00:00 AM 2.23 36.014 0.122 6.99 16.17 13.29
1/2/2023 9:15:00 AM 2.26 36.068 0.121 7.05 14.68 13.32
1/2/2023 9:30:00 AM 2.3 36.14 0.121 7.02 14.37 13.34
1/2/2023 9:45:00 AM 2.36 36.248 0.131 7.04 15.3 13.36
1/2/2023 10:00:00 AM 2.44 36.392 0.134 7.1 14.72 13.37
1/2/2023 10:15:00 AM 2.55 36.59 0.121 7.08 14.36 13.38
1/2/2023 10:30:00 AM 2.64 36.752 0.119 7.1 14.62 13.38
1/2/2023 10:45:00 AM 2.73 36.914 0.121 7.11 14.59 13.36
1/2/2023 11:00:00 AM 2.82 37.076 0.131 7.11 14.85 13.35
1/2/2023 11:15:00 AM 2.89 37.202 0.126 7.11 32.69 13.34
1/2/2023 11:30:00 AM 3.04 37.472 0.121 7.15 14.5 13.32
1/2/2023 11:45:00 AM 3.19 37.742 0.127 7.16 13.88 13.3
1/2/2023 12:00:00 PM 3.34 38.012 0.133 7.15 13.72 13.28
1/2/2023 12:15:00 PM 3.41 38.138 0.137 7.18 13.84 13.25
1/2/2023 12:30:00 PM 3.45 38.21 0.123 7.17 13.54 13.21
1/2/2023 12:45:00 PM 3.52 38.336 0.131 7.2 13.85 13.18
1/2/2023 1:00:00 PM 3.54 38.372 0.134 7.2 13.19 13.16
1/2/2023 1:15:00 PM 3.54 38.372 0.138 7.19 13.54 13.13
1/2/2023 1:30:00 PM 3.59 38.462 0.129 7.19 13.6 13.11
1/2/2023 1:45:00 PM 3.65 38.57 0.135 7.18 12.8 13.08
1/2/2023 2:00:00 PM 3.69 38.642 0.133 7.16 12.68 13.05
1/2/2023 2:15:00 PM 3.75 38.75 0.135 7.19 13.3 13.02
1/2/2023 2:30:00 PM 3.81 38.858 0.132 7.21 29.56 13
1/2/2023 2:45:00 PM 3.85 38.93 0.139 7.2 13.23 12.97
1/2/2023 3:00:00 PM 3.85 38.93 0.14 7.21 12.98 12.94
1/2/2023 3:15:00 PM 3.83 38.894 0.139 7.19 13.01 12.92
1/2/2023 3:30:00 PM 3.81 38.858 0.131 7.19 13.09 12.89
1/2/2023 3:45:00 PM 3.79 38.822 0.134 7.17 13.97 12.87
1/2/2023 4:00:00 PM 3.77 38.786 0.137 7.17 13.74 12.85
1/2/2023 4:15:00 PM 3.76 38.768 0.134 7.24 13.23 12.83
1/2/2023 4:30:00 PM 3.76 38.768 0.141 7.22 14.31 12.81
1/2/2023 4:45:00 PM 3.75 38.75 0.137 7.21 13.67 12.79
1/2/2023 5:00:00 PM 3.74 38.732 0.122 7.19 13.8 12.76
1/2/2023 5:15:00 PM 3.72 38.696 0.136 7.12 13.42 12.74
1/2/2023 5:30:00 PM 3.7 38.66 0.137 7.11 13.4 12.73
1/2/2023 5:45:00 PM 3.68 38.624 0.136 7.1 13.95 12.72
1/2/2023 6:00:00 PM 3.65 38.57 0.122 7.08 14.21 12.72
1/2/2023 6:15:00 PM 3.63 38.534 0.127 7.06 27.03 12.72
1/2/2023 6:30:00 PM 3.6 38.48 0.136 7.09 14.58 12.72
1/2/2023 6:45:00 PM 3.57 38.426 0.134 7.15 14.16 12.72
1/2/2023 7:00:00 PM 3.54 38.372 0.138 7.05 14.52 12.72
1/2/2023 7:15:00 PM 3.51 38.318 0.14 7.04 14.47 12.73
1/2/2023 7:30:00 PM 3.47 38.246 0.141 6.99 15.08 12.74
1/2/2023 7:45:00 PM 3.44 38.192 0.138 7.04 15.62 12.75
1/2/2023 8:00:00 PM 3.41 38.138 0.141 7.03 16.06 12.76
1/2/2023 8:15:00 PM 3.37 38.066 0.138 7.18 16.29 12.77
1/2/2023 8:30:00 PM 3.32 37.976 0.128 7.23 16.97 12.78
1/2/2023 8:45:00 PM 3.26 37.868 0.135 7.18 16.12 12.8
1/2/2023 9:00:00 PM 3.21 37.778 0.124 7.16 16.39 12.82
1/2/2023 9:15:00 PM 3.15 37.67 0.123 7.12 17.48 12.83
1/2/2023 9:30:00 PM 3.1 37.58 0.124 7.11 15.79 12.85
1/2/2023 9:45:00 PM 3.04 37.472 0.122 7.1 16.44 12.87
1/2/2023 10:00:00 PM 2.99 37.382 0.125 7.08 17.08 12.89
1/2/2023 10:15:00 PM 2.93 37.274 0.127 7.05 17.74 12.91
1/2/2023 10:30:00 PM 2.88 37.184 0.138 7.01 16.18 12.93
1/2/2023 10:45:00 PM 2.82 37.076 0.134 7.02 16.03 12.95
1/2/2023 11:00:00 PM 2.77 36.986 0.142 7.03 16 12.96
1/2/2023 11:15:00 PM 2.72 36.896 0.142 7.02 12.42 12.98
1/2/2023 11:30:00 PM 2.68 36.824 0.14 7.01 15.51 13
1/2/2023 11:45:00 PM 2.63 36.734 0.142 6.99 15.52 13.01
1/3/2023 12:00:00 AM 2.59 36.662 0.143 6.96 15.16 13.03
1/3/2023 12:15:00 AM 2.55 36.59 0.141 7 15.35 13.04
1/3/2023 12:30:00 AM 2.51 36.518 0.123 6.95 15.31 13.07
1/3/2023 12:45:00 AM 2.49 36.482 0.124 6.97 14.62 13.07
1/3/2023 1:00:00 AM 2.48 36.464 0.139 7 14.3 13.08
1/3/2023 1:15:00 AM 2.47 36.446 0.142 7.01 14.72 13.08
1/3/2023 1:30:00 AM 2.47 36.446 0.142 7.01 15.66 13.09
1/3/2023 1:45:00 AM 2.47 36.446 0.143 7.04 14.41 13.09
1/3/2023 2:00:00 AM 2.46 36.428 0.143 7.08 13.93 13.1
1/3/2023 2:15:00 AM 2.46 36.428 0.145 7.11 14.24 13.1
1/3/2023 2:30:00 AM 2.45 36.41 0.145 7.03 14.03 13.1
1/3/2023 2:45:00 AM 2.45 36.41 0.143 7.07 13.73 13.1
1/3/2023 3:00:00 AM 2.45 36.41 0.145 7.02 13.39 13.11
1/3/2023 3:15:00 AM 2.45 36.41 0.145 7.06 13.07 13.11
1/3/2023 3:30:00 AM 2.45 36.41 0.143 7.04 12.48 13.11
1/3/2023 3:45:00 AM 2.45 36.41 0.146 7.07 12.82 13.11
1/3/2023 4:00:00 AM 2.45 36.41 0.146 7.12 12.54 13.11
1/3/2023 4:15:00 AM 2.46 36.428 0.146 7.03 12.04 13.11
1/3/2023 4:30:00 AM 2.45 36.41 0.145 7 12.83 13.11
1/3/2023 4:45:00 AM 2.46 36.428 0.147 7.06 12.52 13.11
1/3/2023 5:00:00 AM 2.46 36.428 0.146 7.05 12.5 13.1
1/3/2023 5:15:00 AM 2.46 36.428 0.145 7.05 12.17 13.1
1/3/2023 5:30:00 AM 2.46 36.428 0.146 7.02 11.44 13.09
1/3/2023 5:45:00 AM 2.47 36.446 0.146 7.04 11.56 13.09
1/3/2023 6:00:00 AM 2.47 36.446 0.147 7.02 11.77 13.09
1/3/2023 6:15:00 AM 2.48 36.464 0.144 7.01 11.33 13.09
1/3/2023 6:30:00 AM 2.49 36.482 0.147 7.05 11.2 13.08
1/3/2023 6:45:00 AM 2.5 36.5 0.145 7.01 12.35 13.07
1/3/2023 7:00:00 AM 2.52 36.536 0.148 7.07 10.89 13.06
1/3/2023 7:15:00 AM 2.53 36.554 0.147 7.05 10.92 13.07
1/3/2023 7:30:00 AM 2.54 36.572 0.149 7.04 10.75 13.06
1/3/2023 7:45:00 AM 2.55 36.59 0.146 7.05 10.24 13.05
1/3/2023 8:00:00 AM 2.57 36.626 0.148 7.06 10.23 13.05
1/3/2023 8:15:00 AM 2.58 36.644 0.146 7.07 10.45 13.05
1/3/2023 8:30:00 AM 2.6 36.68 0.147 7.07 10.85 13.05
1/3/2023 8:45:00 AM 2.61 36.698 0.126 7.05 10.56 13.05
1/3/2023 9:00:00 AM 2.63 36.734 0.126 7.14 10.72 13.06
1/3/2023 9:15:00 AM 2.65 36.77 0.126 7.18 11.46 13.06
1/3/2023 9:30:00 AM 2.68 36.824 0.125 7.12 11.78 13.07
1/3/2023 9:45:00 AM 2.71 36.878 0.124 7.12 11.91 13.08
1/3/2023 10:00:00 AM 2.73 36.914 0.124 7.11 12.48 13.07
1/3/2023 10:15:00 AM 2.76 36.968 0.13 7.08 12.15 13.07
1/3/2023 10:30:00 AM 2.78 37.004 0.138 7.1 12.03 13.07
1/3/2023 10:45:00 AM 2.8 37.04 0.141 7.1 12.51 13.07
1/3/2023 11:00:00 AM 2.82 37.076 0.146 7.08 13.34 13.07
1/3/2023 11:15:00 AM 2.84 37.112 0.146 7.05 14.95 13.06
1/3/2023 11:30:00 AM 2.87 37.166 0.152 7.09 13.74 13.06
1/3/2023 11:45:00 AM 2.9 37.22 0.152 7.07 14.55 13.05
1/3/2023 12:00:00 PM 2.92 37.256 0.15 7.06 15.29 13.03
1/3/2023 12:15:00 PM 2.97 37.346 0.152 7.12 3.86 13.04
1/3/2023 12:30:00 PM 3.01 37.418 0.15 7.12 28.88 13.04
1/3/2023 12:45:00 PM 3.07 37.526 0.148 7.12 18.81 13.03
1/3/2023 1:00:00 PM 3.1 37.58 0.151 7.11 23.17 13
1/3/2023 1:15:00 PM 3.12 37.616 0.151 7.08 30.3 12.98
1/3/2023 1:30:00 PM 3.12 37.616 0.144 7.09 35.3 12.96
1/3/2023 1:45:00 PM 3.12 37.616 0.154 7.05 49.1 12.92
1/3/2023 2:00:00 PM 3.11 37.598 0.154 7.01 60.12 12.89
1/3/2023 2:15:00 PM 3.1 37.58 0.156 7.05 76.9 12.88
1/3/2023 2:30:00 PM 3.09 37.562 0.158 6.97 95.84 12.88
1/3/2023 2:45:00 PM 3.08 37.544 0.147 7.03 105.87 12.87
1/3/2023 3:00:00 PM 3.08 37.544 0.135 7.06 112.3 12.86
1/3/2023 3:15:00 PM 3.08 37.544 0.139 7.1 111.22 12.86
1/3/2023 3:30:00 PM 3.1 37.58 0.147 7.02 116.88 12.84
1/3/2023 3:45:00 PM 3.13 37.634 0.146 7.02 115.46 12.83
1/3/2023 4:00:00 PM 3.17 37.706 0.149 7.01 106.49 12.81
1/3/2023 4:15:00 PM 3.21 37.778 0.147 6.95 98.19 12.78
1/3/2023 4:30:00 PM 3.25 37.85 0.149 6.95 93.41 12.75
1/3/2023 4:45:00 PM 3.28 37.904 0.146 6.94 88.42 12.74
1/3/2023 5:00:00 PM 3.31 37.958 0.129 6.96 104.13 12.72
1/3/2023 5:15:00 PM 3.33 37.994 0.125 6.97 85.6 12.71
1/3/2023 5:30:00 PM 3.36 38.048 0.137 6.94 81.8 12.7
1/3/2023 5:45:00 PM 3.38 38.084 0.141 6.94 80.6 12.69
1/3/2023 6:00:00 PM 3.4 38.12 0.143 6.96 82.58 12.68
1/3/2023 6:15:00 PM 3.42 38.156 0.142 6.92 85.08 12.67
1/3/2023 6:30:00 PM 3.44 38.192 0.143 6.97 89.92 12.67
1/3/2023 6:45:00 PM 3.46 38.228 0.144 6.91 92.26 12.67
1/3/2023 7:00:00 PM 3.48 38.264 0.142 6.98 97.36 12.66
1/3/2023 7:15:00 PM 3.49 38.282 0.142 7 95.93 12.65
1/3/2023 7:30:00 PM 3.5 38.3 0.136 6.94 100.26 12.65
1/3/2023 7:45:00 PM 3.52 38.336 0.14 6.87 101.75 12.65
1/3/2023 8:00:00 PM 3.53 38.354 0.139 7.02 97.7 12.64
1/3/2023 8:15:00 PM 3.54 38.372 0.139 7.09 99.76 12.64
1/3/2023 8:30:00 PM 3.54 38.372 0.136 7.02 93.87 12.63
1/3/2023 8:45:00 PM 3.55 38.39 0.138 7.07 90.11 12.62
1/3/2023 9:00:00 PM 3.56 38.408 0.136 7 83.59 12.62
1/3/2023 9:15:00 PM 3.57 38.426 0.12 6.98 80.38 12.61
1/3/2023 9:30:00 PM 3.58 38.444 0.122 6.96 76.52 12.61
1/3/2023 9:45:00 PM 3.6 38.48 0.127 6.93 74.02 12.6
1/3/2023 10:00:00 PM 3.62 38.516 0.132 6.95 72.3 12.6
1/3/2023 10:15:00 PM 3.64 38.552 0.132 6.98 67.28 12.59
1/3/2023 10:30:00 PM 3.66 38.588 0.134 6.9 64.17 12.58
1/3/2023 10:45:00 PM 3.68 38.624 0.131 6.92 58.4 12.57
1/3/2023 11:00:00 PM 3.7 38.66 0.132 6.92 57.51 12.56
1/3/2023 11:15:00 PM 3.71 38.678 0.133 6.89 53.25 12.56
1/3/2023 11:30:00 PM 3.72 38.696 0.132 6.91 52.1 12.55
1/3/2023 11:45:00 PM 3.74 38.732 0.133 6.89 53.35 12.55
1/4/2023 12:00:00 AM 3.75 38.75 0.133 6.92 48.37 12.54
1/4/2023 12:15:00 AM 3.76 38.768 0.133 6.92 50.89 12.54
1/4/2023 12:30:00 AM 3.77 38.786 0.131 6.9 46.72 12.53
1/4/2023 12:45:00 AM 3.78 38.804 0.132 6.88 46.66 12.53
1/4/2023 1:00:00 AM 3.79 38.822 0.132 6.9 45.12 12.52
1/4/2023 1:15:00 AM 3.81 38.858 0.133 6.9 44.9 12.52
1/4/2023 1:30:00 AM 3.81 38.858 0.133 6.89 42.49 12.52
1/4/2023 1:45:00 AM 3.83 38.894 0.133 6.88 41.08 12.51
1/4/2023 2:00:00 AM 3.84 38.912 0.133 6.93 42.23 12.5
1/4/2023 2:15:00 AM 3.85 38.93 0.127 6.91 42.01 12.5
1/4/2023 2:30:00 AM 3.85 38.93 0.131 6.91 38.89 12.5
1/4/2023 2:45:00 AM 3.84 38.912 0.135 6.9 38.23 12.49
1/4/2023 3:00:00 AM 3.85 38.93 0.134 6.91 38.46 12.49
1/4/2023 3:15:00 AM 3.85 38.93 0.132 6.92 39.26 12.49
1/4/2023 3:30:00 AM 3.86 38.948 0.135 6.96 37.63 12.49
1/4/2023 3:45:00 AM 3.87 38.966 0.126 6.9 34.35 12.48
1/4/2023 4:00:00 AM 3.89 39.002 0.131 6.94 35.39 12.48
1/4/2023 4:15:00 AM 3.89 39.002 0.135 6.94 37.48 12.48
1/4/2023 4:30:00 AM 3.89 39.002 0.134 6.93 35.3 12.48
1/4/2023 4:45:00 AM 3.89 39.002 0.135 6.92 32.91 12.48
1/4/2023 5:00:00 AM 3.88 38.984 0.134 6.92 35.71 12.47
1/4/2023 5:15:00 AM 3.89 39.002 0.136 6.95 31.52 12.47
1/4/2023 5:30:00 AM 3.91 39.038 0.136 6.93 30.94 12.47
1/4/2023 5:45:00 AM 3.92 39.056 0.136 6.94 30.98 12.47
1/4/2023 6:00:00 AM 3.93 39.074 0.136 6.94 31.13 12.47
1/4/2023 6:15:00 AM 3.95 39.11 0.137 6.94 30.04 12.47
1/4/2023 6:30:00 AM 3.96 39.128 0.137 6.93 29.87 12.47
1/4/2023 6:45:00 AM 3.96 39.128 0.14 6.94 29.29 12.47
1/4/2023 7:00:00 AM 3.97 39.146 0.137 6.94 27.82 12.46
1/4/2023 7:15:00 AM 3.98 39.164 0.135 6.94 27.66 12.46
1/4/2023 7:30:00 AM 3.99 39.182 0.137 6.93 27.62 12.46
1/4/2023 7:45:00 AM 4 39.2 0.137 6.93 28.16 12.46
1/4/2023 8:00:00 AM 4.01 39.218 0.137 6.94 27.41 12.47
1/4/2023 8:15:00 AM 4.03 39.254 0.136 6.91 27.33 12.47
1/4/2023 8:30:00 AM 4.04 39.272 0.137 6.96 20.67 12.48
1/4/2023 8:45:00 AM 4.07 39.326 0.138 6.94 24.35 12.49
1/4/2023 9:00:00 AM 4.09 39.362 0.139 6.95 23.54 12.5
1/4/2023 9:15:00 AM 4.12 39.416 0.141 6.95 23.67 12.51
1/4/2023 9:30:00 AM 4.15 39.47 0.134 6.98 23.08 12.53
1/4/2023 9:45:00 AM 4.2 39.56 0.139 6.98 23.12 12.54
1/4/2023 10:00:00 AM 4.23 39.614 0.139 7 24.35 12.55
1/4/2023 10:15:00 AM 4.29 39.722 0.123 7 22.78 12.54
1/4/2023 10:30:00 AM 4.34 39.812 0.133 7 22.59 12.54
1/4/2023 10:45:00 AM 4.39 39.902 0.134 7.03 21.94 12.54
1/4/2023 11:00:00 AM 4.44 39.992 0.14 7.02 22.24 12.54
1/4/2023 11:15:00 AM 4.48 40.064 0.14 7.03 22.16 12.53
1/4/2023 11:30:00 AM 4.53 40.154 0.139 7.03 21.68 12.52
1/4/2023 11:45:00 AM 4.58 40.244 0.14 7.05 22.42 12.52
1/4/2023 12:00:00 PM 4.63 40.334 0.143 7.05 20.55 12.51
1/4/2023 12:15:00 PM 4.67 40.406 0.141 7.05 20.06 12.51
1/4/2023 12:30:00 PM 4.73 40.514 0.141 7.05 19 12.49
1/4/2023 12:45:00 PM 4.78 40.604 0.143 7.06 19.4 12.47
1/4/2023 1:00:00 PM 4.83 40.694 0.143 7.06 19.13 12.46
1/4/2023 1:15:00 PM 4.87 40.766 0.14 7.06 19.5 12.44
1/4/2023 1:30:00 PM 4.9 40.82 0.142 7.08 18.99 12.4
1/4/2023 1:45:00 PM 4.93 40.874 0.141 7.13 18.16 12.37
1/4/2023 2:00:00 PM 4.97 40.946 0.141 7.1 18.06 12.36
1/4/2023 2:15:00 PM 5 41 0.138 7.14 17.12 12.34
1/4/2023 2:30:00 PM 5.02 41.036 0.139 7.04 16.36 12.32
1/4/2023 2:45:00 PM 5.04 41.072 0.139 7.06 16.96 12.29
1/4/2023 3:00:00 PM 5.06 41.108 0.142 7.06 17.7 12.26
1/4/2023 3:15:00 PM 5.08 41.144 0.142 7.06 17.73 12.23
1/4/2023 3:30:00 PM 5.1 41.18 0.142 7.13 17.57 12.22
1/4/2023 3:45:00 PM 5.12 41.216 0.14 7.03 16.12 12.19
1/4/2023 4:00:00 PM -99999.99 -179968 -99999.99 -99999.99 -99999.99 -99999.99
1/4/2023 4:15:00 PM -99999.99 -179968 -99999.99 -99999.99 -99999.99 -99999.99
1/4/2023 4:30:00 PM -99999.99 -179968 -99999.99 -99999.99 -99999.99 -99999.99
1/4/2023 4:45:00 PM -99999.99 -179968 -99999.99 -99999.99 -99999.99 -99999.99
1/4/2023 5:00:00 PM -99999.99 -179968 -99999.99 -99999.99 -99999.99 -99999.99
1/4/2023 5:15:00 PM -99999.99 -179968 -99999.99 -99999.99 -99999.99 -99999.99
1/4/2023 5:30:00 PM -99999.99 -179968 -99999.99 -99999.99 -99999.99 -99999.99
1/4/2023 5:45:00 PM -99999.99 -179968 -99999.99 -99999.99 -99999.99 -99999.99
1/4/2023 6:00:00 PM -99999.99 -179968 -99999.99 -99999.99 -99999.99 -99999.99
1/4/2023 6:15:00 PM -99999.99 -179968 -99999.99 -99999.99 -99999.99 -99999.99
1/4/2023 6:30:00 PM -99999.99 -179968 -99999.99 -99999.99 -99999.99 -99999.99
1/4/2023 6:45:00 PM -99999.99 -179968 -99999.99 -99999.99 -99999.99 -99999.99
1/4/2023 7:00:00 PM -99999.99 -179968 -99999.99 -99999.99 -99999.99 -99999.99
1/4/2023 7:15:00 PM -99999.99 -179968 -99999.99 -99999.99 -99999.99 -99999.99
1/4/2023 7:30:00 PM -99999.99 -179968 -99999.99 -99999.99 -99999.99 -99999.99
1/4/2023 7:45:00 PM -99999.99 -179968 -99999.99 -99999.99 -99999.99 -99999.99
1/4/2023 8:00:00 PM -99999.99 -179968 -99999.99 -99999.99 -99999.99 -99999.99
1/4/2023 8:15:00 PM -99999.99 -179968 -99999.99 -99999.99 -99999.99 -99999.99
1/4/2023 8:30:00 PM -99999.99 -179968 -99999.99 -99999.99 -99999.99 -99999.99
1/4/2023 8:45:00 PM -99999.99 -179968 -99999.99 -99999.99 -99999.99 -99999.99
1/4/2023 9:00:00 PM -99999.99 -179968 -99999.99 -99999.99 -99999.99 -99999.99
1/4/2023 9:15:00 PM -99999.99 -179968 -99999.99 -99999.99 -99999.99 -99999.99
1/4/2023 9:30:00 PM -99999.99 -179968 -99999.99 -99999.99 -99999.99 -99999.99
1/4/2023 9:45:00 PM -99999.99 -179968 -99999.99 -99999.99 -99999.99 -99999.99
1/4/2023 10:00:00 PM -99999.99 -179968 -99999.99 -99999.99 -99999.99 -99999.99
1/4/2023 10:15:00 PM -99999.99 -179968 -99999.99 -99999.99 -99999.99 -99999.99
1/4/2023 10:30:00 PM -99999.99 -179968 -99999.99 -99999.99 -99999.99 -99999.99
1/4/2023 10:45:00 PM -99999.99 -179968 -99999.99 -99999.99 -99999.99 -99999.99
1/4/2023 11:00:00 PM -99999.99 -179968 -99999.99 -99999.99 -99999.99 -99999.99
1/4/2023 11:15:00 PM -99999.99 -179968 -99999.99 -99999.99 -99999.99 -99999.99
1/4/2023 11:30:00 PM -99999.99 -179968 -99999.99 -99999.99 -99999.99 -99999.99
1/4/2023 11:45:00 PM -99999.99 -179968 -99999.99 -99999.99 -99999.99 -99999.99
1/5/2023 12:00:00 AM -99999.99 -179968 -99999.99 -99999.99 -99999.99 -99999.99
1/5/2023 12:15:00 AM -99999.99 -179968 -99999.99 -99999.99 -99999.99 -99999.99
1/5/2023 12:30:00 AM -99999.99 -179968 -99999.99 -99999.99 -99999.99 -99999.99
1/5/2023 12:45:00 AM -99999.99 -179968 -99999.99 -99999.99 -99999.99 -99999.99
1/5/2023 1:00:00 AM -99999.99 -179968 -99999.99 -99999.99 -99999.99 -99999.99
1/5/2023 1:15:00 AM -99999.99 -179968 -99999.99 -99999.99 -99999.99 -99999.99
1/5/2023 1:30:00 AM -99999.99 -179968 -99999.99 -99999.99 -99999.99 -99999.99
1/5/2023 1:45:00 AM -99999.99 -179968 -99999.99 -99999.99 -99999.99 -99999.99
1/5/2023 2:00:00 AM -99999.99 -179968 -99999.99 -99999.99 -99999.99 -99999.99
1/5/2023 2:15:00 AM -99999.99 -179968 -99999.99 -99999.99 -99999.99 -99999.99
1/5/2023 2:30:00 AM -99999.99 -179968 -99999.99 -99999.99 -99999.99 -99999.99
1/5/2023 2:45:00 AM -99999.99 -179968 -99999.99 -99999.99 -99999.99 -99999.99
1/5/2023 3:00:00 AM -99999.99 -179968 -99999.99 -99999.99 -99999.99 -99999.99
1/5/2023 3:15:00 AM -99999.99 -179968 -99999.99 -99999.99 -99999.99 -99999.99
1/5/2023 3:30:00 AM -99999.99 -179968 -99999.99 -99999.99 -99999.99 -99999.99
1/5/2023 3:45:00 AM -99999.99 -179968 -99999.99 -99999.99 -99999.99 -99999.99
1/5/2023 4:00:00 AM -99999.99 -179968 -99999.99 -99999.99 -99999.99 -99999.99
1/5/2023 4:15:00 AM -99999.99 -179968 -99999.99 -99999.99 -99999.99 -99999.99
1/5/2023 4:30:00 AM -99999.99 -179968 -99999.99 -99999.99 -99999.99 -99999.99
1/5/2023 4:45:00 AM -99999.99 -179968 -99999.99 -99999.99 -99999.99 -99999.99
1/5/2023 5:00:00 AM -99999.99 -179968 -99999.99 -99999.99 -99999.99 -99999.99
1/5/2023 5:15:00 AM -99999.99 -179968 -99999.99 -99999.99 -99999.99 -99999.99
1/5/2023 5:30:00 AM -99999.99 -179968 -99999.99 -99999.99 -99999.99 -99999.99
1/5/2023 5:45:00 AM -99999.99 -179968 -99999.99 -99999.99 -99999.99 -99999.99
1/5/2023 6:00:00 AM -99999.99 -179968 -99999.99 -99999.99 -99999.99 -99999.99
1/5/2023 6:15:00 AM -99999.99 -179968 -99999.99 -99999.99 -99999.99 -99999.99
1/5/2023 6:30:00 AM -99999.99 -179968 -99999.99 -99999.99 -99999.99 -99999.99
1/5/2023 6:45:00 AM -99999.99 -179968 -99999.99 -99999.99 -99999.99 -99999.99
1/5/2023 7:00:00 AM -99999.99 -179968 -99999.99 -99999.99 -99999.99 -99999.99
1/5/2023 7:15:00 AM -99999.99 -179968 -99999.99 -99999.99 -99999.99 -99999.99
1/5/2023 7:30:00 AM -99999.99 -179968 -99999.99 -99999.99 -99999.99 -99999.99
1/5/2023 7:45:00 AM -99999.99 -179968 -99999.99 -99999.99 -99999.99 -99999.99
1/5/2023 8:00:00 AM -99999.99 -179968 -99999.99 -99999.99 -99999.99 -99999.99
1/5/2023 8:15:00 AM 4.62 40.316 0.138 7.43 14.43 12.3
1/5/2023 8:30:00 AM -99999.99 -179968 -99999.99 -99999.99 -99999.99 -99999.99
1/5/2023 8:45:00 AM -99999.99 -179968 -99999.99 -99999.99 -99999.99 -99999.99
1/5/2023 9:00:00 AM -99999.99 -179968 -99999.99 -99999.99 -99999.99 -99999.99
1/5/2023 9:15:00 AM 4.61 40.298 0.062 7.31 39.44 12.4
1/5/2023 9:30:00 AM 4.63 40.334 0.141 7.21 13.56 12.43
1/5/2023 9:45:00 AM 4.66 40.388 0.14 7.16 14.39 12.47
1/5/2023 10:00:00 AM 4.69 40.442 0.136 7.18 13.44 12.48
1/5/2023 10:15:00 AM 4.73 40.514 0.134 7.27 12.92 12.51
1/5/2023 10:30:00 AM 4.75 40.55 0.135 7.39 13.02 12.51
1/5/2023 10:45:00 AM 4.76 40.568 0.138 7.39 13.63 12.51
1/5/2023 11:00:00 AM 4.82 40.676 0.131 7.22 13.28 12.52
1/5/2023 11:15:00 AM 4.88 40.784 0.133 7.23 14.69 12.52
1/5/2023 11:30:00 AM 4.93 40.874 0.139 7.3 12.01 12.53
1/5/2023 11:45:00 AM 4.97 40.946 0.138 7.32 12.34 12.52
1/5/2023 12:00:00 PM 5.01 41.018 0.125 7.45 16.3 12.51
1/5/2023 12:15:00 PM 5.06 41.108 0.138 7.32 11.69 12.51
1/5/2023 12:30:00 PM 5.14 41.252 0.133 7.34 12.19 12.51
1/5/2023 12:45:00 PM 5.19 41.342 0.133 7.33 7.66 12.5
1/5/2023 1:00:00 PM 5.26 41.468 0.136 7.33 11.71 12.49
1/5/2023 1:15:00 PM 5.35 41.63 0.137 7.32 11.37 12.47
1/5/2023 1:30:00 PM 5.43 41.774 0.13 7.34 11.35 12.47
1/5/2023 1:45:00 PM 5.45 41.81 0.137 7.36 11.21 12.45
1/5/2023 2:00:00 PM 5.47 41.846 0.137 7.34 11.76 12.43
1/5/2023 2:15:00 PM 5.46 41.828 0.137 7.28 11.75 12.4
1/5/2023 2:30:00 PM 5.46 41.828 0.128 7.34 11.15 12.37
1/5/2023 2:45:00 PM 5.43 41.774 0.139 7.26 10.99 12.34
1/5/2023 3:00:00 PM 5.43 41.774 0.137 7.31 11.12 12.36
1/5/2023 3:15:00 PM 5.41 41.738 0.142 7.3 10.91 12.34
1/5/2023 3:30:00 PM 5.39 41.702 0.142 7.31 10.97 12.32
1/5/2023 3:45:00 PM 5.37 41.666 0.139 7.29 10.74 12.3
1/5/2023 4:00:00 PM 5.36 41.648 0.14 7.2 10.43 12.27
1/5/2023 4:15:00 PM 5.35 41.63 0.141 7.2 10.61 12.25
1/5/2023 4:30:00 PM 5.34 41.612 0.131 7.26 11.16 12.22
1/5/2023 4:45:00 PM 5.33 41.594 0.141 7.24 10.7 12.2
1/5/2023 5:00:00 PM 5.31 41.558 0.137 7.24 10.56 12.17
1/5/2023 5:15:00 PM 5.3 41.54 0.136 7.14 10.46 12.15
1/5/2023 5:30:00 PM 5.29 41.522 0.137 7.14 10.51 12.13
1/5/2023 5:45:00 PM 5.29 41.522 0.129 7.19 10.33 12.12
1/5/2023 6:00:00 PM 5.28 41.504 0.134 7.15 10.45 12.11
1/5/2023 6:15:00 PM 5.27 41.486 0.133 7.17 10.9 12.1
1/5/2023 6:30:00 PM 5.25 41.45 0.135 7.17 11.78 12.1
1/5/2023 6:45:00 PM 5.23 41.414 0.133 7.11 11 12.1
1/5/2023 7:00:00 PM 5.2 41.36 0.136 7.15 11 12.1
1/5/2023 7:15:00 PM 5.17 41.306 0.14 7.2 10.72 12.1
1/5/2023 7:30:00 PM 5.13 41.234 0.143 7.22 10.58 12.1
1/5/2023 7:45:00 PM 5.09 41.162 0.134 7.17 10.75 12.11
1/5/2023 8:00:00 PM 5.06 41.108 0.142 7.19 11.05 12.12
1/5/2023 8:15:00 PM 5.01 41.018 0.142 7.16 10.19 12.13
1/5/2023 8:30:00 PM 4.96 40.928 0.142 7.17 10.56 12.14
1/5/2023 8:45:00 PM 4.9 40.82 0.141 7.23 10.45 12.17
1/5/2023 9:00:00 PM 4.84 40.712 0.144 7.17 10.26 12.18
1/5/2023 9:15:00 PM 4.78 40.604 0.143 7.16 10.15 12.18
1/5/2023 9:30:00 PM 4.73 40.514 0.143 7.18 10.5 12.2
1/5/2023 9:45:00 PM 4.66 40.388 0.143 7.14 10.38 12.22
1/5/2023 10:00:00 PM 4.6 40.28 0.144 7.2 10.7 12.25
1/5/2023 10:15:00 PM 4.54 40.172 0.142 7.29 10.6 12.27
1/5/2023 10:30:00 PM 4.48 40.064 0.144 7.22 10.41 12.29
1/5/2023 10:45:00 PM 4.42 39.956 0.143 7.13 10.23 12.3
1/5/2023 11:00:00 PM 4.37 39.866 0.142 7.12 10.15 12.31
1/5/2023 11:15:00 PM 4.32 39.776 0.142 7.06 10.29 12.33
1/5/2023 11:30:00 PM 4.28 39.704 0.14 7.1 10.1 12.34
1/5/2023 11:45:00 PM 4.23 39.614 0.144 7.08 10.01 12.36
1/6/2023 12:00:00 AM 4.2 39.56 0.143 7.14 9.93 12.37
1/6/2023 12:15:00 AM 4.16 39.488 0.145 7.18 9.85 12.38
1/6/2023 12:30:00 AM 4.12 39.416 0.142 7.28 9.97 12.4
1/6/2023 12:45:00 AM 4.08 39.344 0.146 7.51 9.85 12.41
1/6/2023 1:00:00 AM 4.05 39.29 0.146 7.66 10.11 12.42
1/6/2023 1:15:00 AM 4.02 39.236 0.143 7.96 10 12.43
1/6/2023 1:30:00 AM 3.99 39.182 0.14 8.42 10.02 12.45
1/6/2023 1:45:00 AM 3.96 39.128 0.142 8.3 9.91 12.46
1/6/2023 2:00:00 AM 3.94 39.092 0.144 8.36 9.53 12.46
1/6/2023 2:15:00 AM 3.92 39.056 0.144 8.39 10.02 12.47
1/6/2023 2:30:00 AM 3.89 39.002 0.145 8.43 9.31 12.48
1/6/2023 2:45:00 AM 3.87 38.966 0.142 8.46 9.93 12.48
1/6/2023 3:00:00 AM 3.84 38.912 0.143 8.5 9.24 12.5
1/6/2023 3:15:00 AM 3.82 38.876 0.144 8.64 9.78 12.51
1/6/2023 3:30:00 AM 3.8 38.84 0.144 8.65 9.58 12.51
1/6/2023 3:45:00 AM 3.78 38.804 0.145 8.47 9.27 12.52
1/6/2023 4:00:00 AM 3.76 38.768 0.143 8.56 9.09 12.53
1/6/2023 4:15:00 AM 3.74 38.732 0.144 8.26 9.18 12.54
1/6/2023 4:30:00 AM 3.73 38.714 0.146 8.32 9.17 12.55
1/6/2023 4:45:00 AM 3.71 38.678 0.145 8.07 9.19 12.55
1/6/2023 5:00:00 AM 3.7 38.66 0.145 8.08 9.11 12.56
1/6/2023 5:15:00 AM 3.68 38.624 0.146 7.66 9.14 12.57
1/6/2023 5:30:00 AM 3.66 38.588 0.143 7.36 9.27 12.57
1/6/2023 5:45:00 AM 3.64 38.552 0.144 7.23 8.95 12.58
1/6/2023 6:00:00 AM 3.62 38.516 0.144 7.19 9.05 12.58
1/6/2023 6:15:00 AM 3.61 38.498 0.145 7.16 9.29 12.59
1/6/2023 6:30:00 AM 3.59 38.462 0.146 7.12 8.95 12.6
1/6/2023 6:45:00 AM 3.58 38.444 0.149 7.17 8.91 12.6
1/6/2023 7:00:00 AM 3.57 38.426 0.146 7.08 9.05 12.61
1/6/2023 7:15:00 AM 3.56 38.408 0.149 7.06 8.91 12.62
1/6/2023 7:30:00 AM 3.55 38.39 0.141 7.06 8.59 12.62
1/6/2023 7:45:00 AM 3.54 38.372 0.145 7.29 9.17 12.63
1/6/2023 8:00:00 AM 3.53 38.354 0.144 7.11 9.06 12.64
1/6/2023 8:15:00 AM 3.52 38.336 0.142 7.14 8.5 12.65
1/6/2023 8:30:00 AM 3.52 38.336 0.145 7.11 8.34 12.67
1/6/2023 8:45:00 AM 3.51 38.318 0.144 7.08 8.38 12.68
1/6/2023 9:00:00 AM 3.51 38.318 0.146 7.07 8.5 12.7
1/6/2023 9:15:00 AM 3.51 38.318 0.146 7.06 8.35 12.71
1/6/2023 9:30:00 AM 3.51 38.318 0.144 7.09 8.5 12.74
1/6/2023 9:45:00 AM 3.52 38.336 0.146 7.44 8.53 12.76
1/6/2023 10:00:00 AM 3.5 38.3 0.145 7.11 8.23 12.79
1/6/2023 10:15:00 AM 3.49 38.282 0.137 7.11 7.95 12.82
1/6/2023 10:30:00 AM 3.52 38.336 0.143 7.11 9.93 12.87
1/6/2023 10:45:00 AM 3.55 38.39 0.143 7.11 8.33 12.91
1/6/2023 11:00:00 AM 3.58 38.444 0.145 7.14 8.46 12.91
1/6/2023 11:15:00 AM 3.6 38.48 0.144 7.21 7.96 12.92
1/6/2023 11:30:00 AM 3.64 38.552 0.142 7.31 8.2 12.94
1/6/2023 11:45:00 AM 3.66 38.588 0.143 7.32 8.02 12.95
1/6/2023 12:00:00 PM 3.69 38.642 0.132 7.29 7.95 12.96
1/6/2023 12:15:00 PM 3.71 38.678 0.128 7.27 8.29 12.96
1/6/2023 12:30:00 PM 3.72 38.696 0.137 7.26 8.13 12.95
1/6/2023 12:45:00 PM 3.74 38.732 0.142 7.24 8.1 12.95
1/6/2023 1:00:00 PM 3.78 38.804 0.131 7.24 7.88 12.96
1/6/2023 1:15:00 PM 3.82 38.876 0.139 7.3 8.1 12.96
1/6/2023 1:30:00 PM 3.88 38.984 0.138 7.25 7.57 12.96
1/6/2023 1:45:00 PM 3.96 39.128 0.141 7.24 8.79 12.96
1/6/2023 2:00:00 PM 3.99 39.182 0.129 7.23 9.64 12.95
1/6/2023 2:15:00 PM 3.95 39.11 0.134 7.21 10.16 12.91
1/6/2023 2:30:00 PM 3.96 39.128 0.143 7.19 10.37 12.9
1/6/2023 2:45:00 PM 3.96 39.128 0.144 7.19 9.58 12.9
1/6/2023 3:00:00 PM 3.95 39.11 0.143 7.18 9.86 12.88
1/6/2023 3:15:00 PM 3.94 39.092 0.142 7.17 8.53 12.86
1/6/2023 3:30:00 PM 3.92 39.056 0.137 7.17 13.55 12.84
1/6/2023 3:45:00 PM 3.91 39.038 0.137 7.13 11.63 12.82
1/6/2023 4:00:00 PM 3.89 39.002 0.141 7.13 11.17 12.8
1/6/2023 4:15:00 PM 3.87 38.966 0.141 7.12 10.43 12.78
1/6/2023 4:30:00 PM 3.86 38.948 0.141 7.13 9.48 12.75
1/6/2023 4:45:00 PM 3.85 38.93 0.128 7.13 9.21 12.72
1/6/2023 5:00:00 PM 3.83 38.894 0.129 7.11 9.2 12.71
1/6/2023 5:15:00 PM 3.82 38.876 0.129 7.08 9.57 12.69
1/6/2023 5:30:00 PM 3.81 38.858 0.139 7.1 10.01 12.68
1/6/2023 5:45:00 PM 3.8 38.84 0.14 7.11 9.97 12.67
1/6/2023 6:00:00 PM 3.78 38.804 0.141 7.1 10.1 12.67
1/6/2023 6:15:00 PM 3.77 38.786 0.139 7.07 9.94 12.66
1/6/2023 6:30:00 PM 3.76 38.768 0.14 7.08 10.35 12.66
1/6/2023 6:45:00 PM 3.75 38.75 0.142 7.08 10.28 12.66
1/6/2023 7:00:00 PM 3.74 38.732 0.128 7.07 9.98 12.65
1/6/2023 7:15:00 PM 3.74 38.732 0.127 7.32 9.73 12.65
1/6/2023 7:30:00 PM 3.73 38.714 0.136 7.05 10.52 12.65
1/6/2023 7:45:00 PM 3.72 38.696 0.14 7.07 10.14 12.66
1/6/2023 8:00:00 PM 3.71 38.678 0.137 7.06 10.16 12.66
1/6/2023 8:15:00 PM 3.7 38.66 0.141 7.03 9.74 12.66
1/6/2023 8:30:00 PM 3.69 38.642 0.143 7.1 9.81 12.66
1/6/2023 8:45:00 PM 3.68 38.624 0.128 7.06 9.74 12.66
1/6/2023 9:00:00 PM 3.67 38.606 0.128 7.04 9.55 12.67
1/6/2023 9:15:00 PM 3.65 38.57 0.126 7.02 9.58 12.67
1/6/2023 9:30:00 PM 3.64 38.552 0.138 7.06 9.17 12.68
1/6/2023 9:45:00 PM 3.62 38.516 0.14 7.13 9.68 12.68
1/6/2023 10:00:00 PM 3.61 38.498 0.141 7.09 9.52 12.68
1/6/2023 10:15:00 PM 3.6 38.48 0.142 7.12 9.38 12.69
1/6/2023 10:30:00 PM 3.58 38.444 0.143 7.03 8.96 12.69
1/6/2023 10:45:00 PM 3.56 38.408 0.142 7.05 8.91 12.69
1/6/2023 11:00:00 PM 3.55 38.39 0.14 7.06 8.91 12.7
1/6/2023 11:15:00 PM 3.53 38.354 0.142 7.04 8.6 12.71
1/6/2023 11:30:00 PM 3.51 38.318 0.142 7.02 9.04 12.72
1/6/2023 11:45:00 PM 3.5 38.3 0.142 7.06 9.05 12.72
1/7/2023 12:00:00 AM 3.48 38.264 0.143 7.04 8.78 12.73
1/7/2023 12:15:00 AM 3.47 38.246 0.142 7.04 8.68 12.73
1/7/2023 12:30:00 AM 3.45 38.21 0.141 7.05 8.86 12.73
1/7/2023 12:45:00 AM 3.44 38.192 0.142 7.04 8.92 12.74
1/7/2023 1:00:00 AM 3.42 38.156 0.142 7 8.42 12.74
1/7/2023 1:15:00 AM 3.41 38.138 0.142 7.06 8.56 12.74
1/7/2023 1:30:00 AM 3.4 38.12 0.142 7.61 8.4 12.75
1/7/2023 1:45:00 AM 3.38 38.084 0.142 7.08 8.64 12.75
1/7/2023 2:00:00 AM 3.37 38.066 0.144 7.04 8.25 12.76
1/7/2023 2:15:00 AM -99999.99 -179968 -99999.99 -99999.99 -99999.99 -99999.99
1/7/2023 2:30:00 AM -99999.99 -179968 -99999.99 -99999.99 -99999.99 -99999.99
1/7/2023 2:45:00 AM -99999.99 -179968 -99999.99 -99999.99 -99999.99 -99999.99
1/7/2023 3:00:00 AM -99999.99 -179968 -99999.99 -99999.99 -99999.99 -99999.99
1/7/2023 3:15:00 AM -99999.99 -179968 -99999.99 -99999.99 -99999.99 -99999.99
1/7/2023 3:30:00 AM -99999.99 -179968 -99999.99 -99999.99 -99999.99 -99999.99
1/7/2023 3:45:00 AM -99999.99 -179968 -99999.99 -99999.99 -99999.99 -99999.99
1/7/2023 4:00:00 AM -99999.99 -179968 -99999.99 -99999.99 -99999.99 -99999.99
1/7/2023 4:15:00 AM -99999.99 -179968 -99999.99 -99999.99 -99999.99 -99999.99
1/7/2023 4:30:00 AM -99999.99 -179968 -99999.99 -99999.99 -99999.99 -99999.99
1/7/2023 4:45:00 AM -99999.99 -179968 -99999.99 -99999.99 -99999.99 -99999.99
1/7/2023 5:00:00 AM -99999.99 -179968 -99999.99 -99999.99 -99999.99 -99999.99
1/7/2023 5:15:00 AM -99999.99 -179968 -99999.99 -99999.99 -99999.99 -99999.99
1/7/2023 5:30:00 AM -99999.99 -179968 -99999.99 -99999.99 -99999.99 -99999.99
1/7/2023 5:45:00 AM -99999.99 -179968 -99999.99 -99999.99 -99999.99 -99999.99
1/7/2023 6:00:00 AM -99999.99 -179968 -99999.99 -99999.99 -99999.99 -99999.99
1/7/2023 6:15:00 AM -99999.99 -179968 -99999.99 -99999.99 -99999.99 -99999.99
1/7/2023 6:30:00 AM -99999.99 -179968 -99999.99 -99999.99 -99999.99 -99999.99
1/7/2023 6:45:00 AM -99999.99 -179968 -99999.99 -99999.99 -99999.99 -99999.99
1/7/2023 7:00:00 AM -99999.99 -179968 -99999.99 -99999.99 -99999.99 -99999.99
1/7/2023 7:15:00 AM -99999.99 -179968 -99999.99 -99999.99 -99999.99 -99999.99
1/7/2023 7:30:00 AM -99999.99 -179968 -99999.99 -99999.99 -99999.99 -99999.99
1/7/2023 7:45:00 AM -99999.99 -179968 -99999.99 -99999.99 -99999.99 -99999.99
1/7/2023 8:00:00 AM -99999.99 -179968 -99999.99 -99999.99 -99999.99 -99999.99
1/7/2023 8:15:00 AM -99999.99 -179968 -99999.99 -99999.99 -99999.99 -99999.99
1/7/2023 8:30:00 AM -99999.99 -179968 -99999.99 -99999.99 -99999.99 -99999.99
1/7/2023 8:45:00 AM -99999.99 -179968 -99999.99 -99999.99 -99999.99 -99999.99
1/7/2023 9:00:00 AM -99999.99 -179968 -99999.99 -99999.99 -99999.99 -99999.99
1/7/2023 9:15:00 AM -99999.99 -179968 -99999.99 -99999.99 -99999.99 -99999.99
1/7/2023 9:30:00 AM -99999.99 -179968 -99999.99 -99999.99 -99999.99 -99999.99
1/7/2023 9:45:00 AM -99999.99 -179968 -99999.99 -99999.99 -99999.99 -99999.99
1/7/2023 10:00:00 AM -99999.99 -179968 -99999.99 -99999.99 -99999.99 -99999.99
1/7/2023 10:15:00 AM -99999.99 -179968 -99999.99 -99999.99 -99999.99 -99999.99
1/7/2023 10:30:00 AM 3.26 37.868 0.143 7.23 7.77 13.11
1/7/2023 10:45:00 AM -99999.99 -179968 -99999.99 -99999.99 -99999.99 -99999.99
1/7/2023 11:00:00 AM -99999.99 -179968 -99999.99 -99999.99 -99999.99 -99999.99
1/7/2023 11:15:00 AM 3.34 38.012 0.142 7.21 6.84 13.12
1/7/2023 11:30:00 AM 3.4 38.12 0.145 7.22 6.88 13.15
1/7/2023 11:45:00 AM 3.48 38.264 0.143 7.22 6.94 13.17
1/7/2023 12:00:00 PM 3.51 38.318 0.143 7.2 7.12 13.17
1/7/2023 12:15:00 PM 3.53 38.354 0.142 7.22 7.29 13.14
1/7/2023 12:30:00 PM 3.58 38.444 0.143 7.23 7.05 13.14
1/7/2023 12:45:00 PM 3.64 38.552 0.144 7.24 6.85 13.16
1/7/2023 1:00:00 PM 3.68 38.624 0.144 7.25 6.64 13.15
1/7/2023 1:15:00 PM 3.69 38.642 0.144 7.24 7.24 13.13
1/7/2023 1:30:00 PM 3.72 38.696 0.141 7.22 6.68 13.09
1/7/2023 1:45:00 PM 3.75 38.75 0.141 7.24 6.51 13.1
1/7/2023 2:00:00 PM 3.76 38.768 0.145 7.25 6.4 13.09
1/7/2023 2:15:00 PM 3.72 38.696 0.144 7.75 6.38 13.02
1/7/2023 2:30:00 PM -99999.99 -179968 -99999.99 -99999.99 -99999.99 -99999.99
1/7/2023 2:45:00 PM 3.74 38.732 0.147 8.35 7.36 13.03
1/7/2023 3:00:00 PM 3.75 38.75 0.146 8.56 6.26 13.05
1/7/2023 3:15:00 PM 3.75 38.75 0.145 8.38 6.42 13.04
1/7/2023 3:30:00 PM 3.76 38.768 0.147 8.51 7.44 13
1/7/2023 3:45:00 PM -99999.99 -179968 -99999.99 -99999.99 -99999.99 -99999.99
1/7/2023 4:00:00 PM -99999.99 -179968 -99999.99 -99999.99 -99999.99 -99999.99
1/7/2023 4:15:00 PM -99999.99 -179968 -99999.99 -99999.99 -99999.99 -99999.99
1/7/2023 4:30:00 PM -99999.99 -179968 -99999.99 -99999.99 -99999.99 -99999.99
1/7/2023 4:45:00 PM -99999.99 -179968 -99999.99 -99999.99 -99999.99 -99999.99
1/7/2023 5:00:00 PM -99999.99 -179968 -99999.99 -99999.99 -99999.99 -99999.99
1/7/2023 5:15:00 PM -99999.99 -179968 -99999.99 -99999.99 -99999.99 -99999.99
1/7/2023 5:30:00 PM -99999.99 -179968 -99999.99 -99999.99 -99999.99 -99999.99
1/7/2023 5:45:00 PM -99999.99 -179968 -99999.99 -99999.99 -99999.99 -99999.99
1/7/2023 6:00:00 PM -99999.99 -179968 -99999.99 -99999.99 -99999.99 -99999.99
1/7/2023 6:15:00 PM -99999.99 -179968 -99999.99 -99999.99 -99999.99 -99999.99
1/7/2023 6:30:00 PM -99999.99 -179968 -99999.99 -99999.99 -99999.99 -99999.99
1/7/2023 6:45:00 PM -99999.99 -179968 -99999.99 -99999.99 -99999.99 -99999.99
1/7/2023 7:00:00 PM -99999.99 -179968 -99999.99 -99999.99 -99999.99 -99999.99
1/7/2023 7:15:00 PM -99999.99 -179968 -99999.99 -99999.99 -99999.99 -99999.99
1/7/2023 7:30:00 PM -99999.99 -179968 -99999.99 -99999.99 -99999.99 -99999.99
1/7/2023 7:45:00 PM -99999.99 -179968 -99999.99 -99999.99 -99999.99 -99999.99
1/7/2023 8:00:00 PM -99999.99 -179968 -99999.99 -99999.99 -99999.99 -99999.99
1/7/2023 8:15:00 PM -99999.99 -179968 -99999.99 -99999.99 -99999.99 -99999.99
1/7/2023 8:30:00 PM -99999.99 -179968 -99999.99 -99999.99 -99999.99 -99999.99
1/7/2023 8:45:00 PM -99999.99 -179968 -99999.99 -99999.99 -99999.99 -99999.99
1/7/2023 9:00:00 PM -99999.99 -179968 -99999.99 -99999.99 -99999.99 -99999.99
1/7/2023 9:15:00 PM -99999.99 -179968 -99999.99 -99999.99 -99999.99 -99999.99
1/7/2023 9:30:00 PM -99999.99 -179968 -99999.99 -99999.99 -99999.99 -99999.99
1/7/2023 9:45:00 PM -99999.99 -179968 -99999.99 -99999.99 -99999.99 -99999.99
1/7/2023 10:00:00 PM -99999.99 -179968 -99999.99 -99999.99 -99999.99 -99999.99
1/7/2023 10:15:00 PM -99999.99 -179968 -99999.99 -99999.99 -99999.99 -99999.99
1/7/2023 10:30:00 PM -99999.99 -179968 -99999.99 -99999.99 -99999.99 -99999.99
1/7/2023 10:45:00 PM -99999.99 -179968 -99999.99 -99999.99 -99999.99 -99999.99
1/7/2023 11:00:00 PM -99999.99 -179968 -99999.99 -99999.99 -99999.99 -99999.99
1/7/2023 11:15:00 PM -99999.99 -179968 -99999.99 -99999.99 -99999.99 -99999.99
1/7/2023 11:30:00 PM -99999.99 -179968 -99999.99 -99999.99 -99999.99 -99999.99
1/7/2023 11:45:00 PM -99999.99 -179968 -99999.99 -99999.99 -99999.99 -99999.99
1/8/2023 12:00:00 AM -99999.99 -179968 -99999.99 -99999.99 -99999.99 -99999.99
1/8/2023 12:15:00 AM -99999.99 -179968 -99999.99 -99999.99 -99999.99 -99999.99
1/8/2023 12:30:00 AM -99999.99 -179968 -99999.99 -99999.99 -99999.99 -99999.99
1/8/2023 12:45:00 AM -99999.99 -179968 -99999.99 -99999.99 -99999.99 -99999.99
1/8/2023 1:00:00 AM -99999.99 -179968 -99999.99 -99999.99 -99999.99 -99999.99
1/8/2023 1:15:00 AM -99999.99 -179968 -99999.99 -99999.99 -99999.99 -99999.99
1/8/2023 1:30:00 AM -99999.99 -179968 -99999.99 -99999.99 -99999.99 -99999.99
1/8/2023 1:45:00 AM -99999.99 -179968 -99999.99 -99999.99 -99999.99 -99999.99
1/8/2023 2:00:00 AM -99999.99 -179968 -99999.99 -99999.99 -99999.99 -99999.99
1/8/2023 2:15:00 AM -99999.99 -179968 -99999.99 -99999.99 -99999.99 -99999.99
1/8/2023 2:30:00 AM -99999.99 -179968 -99999.99 -99999.99 -99999.99 -99999.99
1/8/2023 2:45:00 AM -99999.99 -179968 -99999.99 -99999.99 -99999.99 -99999.99
1/8/2023 3:00:00 AM -99999.99 -179968 -99999.99 -99999.99 -99999.99 -99999.99
1/8/2023 3:15:00 AM -99999.99 -179968 -99999.99 -99999.99 -99999.99 -99999.99
1/8/2023 3:30:00 AM -99999.99 -179968 -99999.99 -99999.99 -99999.99 -99999.99
1/8/2023 3:45:00 AM -99999.99 -179968 -99999.99 -99999.99 -99999.99 -99999.99
1/8/2023 4:00:00 AM -99999.99 -179968 -99999.99 -99999.99 -99999.99 -99999.99
1/8/2023 4:15:00 AM -99999.99 -179968 -99999.99 -99999.99 -99999.99 -99999.99
1/8/2023 4:30:00 AM -99999.99 -179968 -99999.99 -99999.99 -99999.99 -99999.99
1/8/2023 4:45:00 AM -99999.99 -179968 -99999.99 -99999.99 -99999.99 -99999.99
1/8/2023 5:00:00 AM -99999.99 -179968 -99999.99 -99999.99 -99999.99 -99999.99
1/8/2023 5:15:00 AM -99999.99 -179968 -99999.99 -99999.99 -99999.99 -99999.99
1/8/2023 5:30:00 AM -99999.99 -179968 -99999.99 -99999.99 -99999.99 -99999.99
1/8/2023 5:45:00 AM -99999.99 -179968 -99999.99 -99999.99 -99999.99 -99999.99
1/8/2023 6:00:00 AM -99999.99 -179968 -99999.99 -99999.99 -99999.99 -99999.99
1/8/2023 6:15:00 AM -99999.99 -179968 -99999.99 -99999.99 -99999.99 -99999.99
1/8/2023 6:30:00 AM -99999.99 -179968 -99999.99 -99999.99 -99999.99 -99999.99
1/8/2023 6:45:00 AM -99999.99 -179968 -99999.99 -99999.99 -99999.99 -99999.99
1/8/2023 7:00:00 AM -99999.99 -179968 -99999.99 -99999.99 -99999.99 -99999.99
1/8/2023 7:15:00 AM -99999.99 -179968 -99999.99 -99999.99 -99999.99 -99999.99
1/8/2023 7:30:00 AM -99999.99 -179968 -99999.99 -99999.99 -99999.99 -99999.99
1/8/2023 7:45:00 AM -99999.99 -179968 -99999.99 -99999.99 -99999.99 -99999.99
1/8/2023 8:00:00 AM -99999.99 -179968 -99999.99 -99999.99 -99999.99 -99999.99
1/8/2023 8:15:00 AM -99999.99 -179968 -99999.99 -99999.99 -99999.99 -99999.99
1/8/2023 8:30:00 AM -99999.99 -179968 -99999.99 -99999.99 -99999.99 -99999.99
1/8/2023 8:45:00 AM -99999.99 -179968 -99999.99 -99999.99 -99999.99 -99999.99
1/8/2023 9:00:00 AM -99999.99 -179968 -99999.99 -99999.99 -99999.99 -99999.99
1/8/2023 9:15:00 AM -99999.99 -179968 -99999.99 -99999.99 -99999.99 -99999.99
1/8/2023 9:30:00 AM -99999.99 -179968 -99999.99 -99999.99 -99999.99 -99999.99
1/8/2023 9:45:00 AM -99999.99 -179968 -99999.99 -99999.99 -99999.99 -99999.99
1/8/2023 10:00:00 AM -99999.99 -179968 -99999.99 -99999.99 -99999.99 -99999.99
1/8/2023 10:15:00 AM 2.58 36.644 0.145 7.36 6.96 13.51
1/8/2023 10:30:00 AM 2.62 36.716 0.132 7.32 7.21 13.53
1/8/2023 10:45:00 AM 2.66 36.788 0.146 7.31 9.46 13.54
1/8/2023 11:00:00 AM 2.7 36.86 0.137 7.33 6.03 13.55
1/8/2023 11:15:00 AM 2.75 36.95 0.145 7.41 10.22 13.56
1/8/2023 11:30:00 AM 2.81 37.058 0.142 7.46 6.04 13.56
1/8/2023 11:45:00 AM 2.92 37.256 0.145 7.45 6.84 13.56
1/8/2023 12:00:00 PM 2.99 37.382 0.146 7.48 5.84 13.55
1/8/2023 12:15:00 PM 3.02 37.436 0.149 7.52 6.03 13.54
1/8/2023 12:30:00 PM 3.03 37.454 0.149 7.51 5.77 13.51
1/8/2023 12:45:00 PM 3.03 37.454 0.15 7.48 7.45 13.49
1/8/2023 1:00:00 PM 3.04 37.472 0.151 7.47 6.22 13.48
1/8/2023 1:15:00 PM 3.06 37.508 0.143 7.45 6.43 13.46
1/8/2023 1:30:00 PM 3.11 37.598 0.14 7.45 6.07 13.43
1/8/2023 1:45:00 PM 3.16 37.688 0.134 7.47 5.99 13.4
1/8/2023 2:00:00 PM 3.2 37.76 0.148 7.44 5.96 13.37
1/8/2023 2:15:00 PM 3.22 37.796 0.149 7.47 6.08 13.35
1/8/2023 2:30:00 PM 3.23 37.814 0.151 7.52 6.32 13.33
1/8/2023 2:45:00 PM 3.26 37.868 0.148 7.6 6.05 13.31
1/8/2023 3:00:00 PM 3.27 37.886 0.15 7.56 6.82 13.28
1/8/2023 3:15:00 PM 3.27 37.886 0.15 7.57 5.85 13.24
1/8/2023 3:30:00 PM 3.25 37.85 0.144 7.61 5.77 13.22
1/8/2023 3:45:00 PM 3.22 37.796 0.149 7.53 6.46 13.19
1/8/2023 4:00:00 PM 3.19 37.742 0.148 7.46 5.9 13.17
1/8/2023 4:15:00 PM 3.16 37.688 0.151 7.5 5.49 13.15
1/8/2023 4:30:00 PM 3.12 37.616 0.134 7.47 5.83 13.13
1/8/2023 4:45:00 PM 3.09 37.562 0.145 7.43 5.94 13.11
1/8/2023 5:00:00 PM 3.05 37.49 0.149 7.4 5.85 13.08
1/8/2023 5:15:00 PM 3.01 37.418 0.149 7.36 5.64 13.05
1/8/2023 5:30:00 PM 2.98 37.364 0.151 7.33 7.03 13.02
1/8/2023 5:45:00 PM 2.94 37.292 0.151 7.3 5.26 13.01
1/8/2023 6:00:00 PM 2.89 37.202 0.15 7.28 5.69 13.01
1/8/2023 6:15:00 PM 2.83 37.094 0.153 7.24 5.75 13.01
1/8/2023 6:30:00 PM 2.78 37.004 0.151 7.21 5.78 13
1/8/2023 6:45:00 PM 2.73 36.914 0.151 7.25 5.68 13.01
1/8/2023 7:00:00 PM 2.69 36.842 0.149 7.26 5.56 13.01
1/8/2023 7:15:00 PM 2.64 36.752 0.151 7.27 34.84 13.02
1/8/2023 7:30:00 PM 2.6 36.68 0.15 7.28 5.55 13.02
1/8/2023 7:45:00 PM 2.56 36.608 0.148 7.24 6.76 13.03
1/8/2023 8:00:00 PM 2.52 36.536 0.148 7.23 6 13.04
1/8/2023 8:15:00 PM 2.48 36.464 0.146 7.21 5.6 13.04
1/8/2023 8:30:00 PM 2.45 36.41 0.151 7.2 5.64 13.04
1/8/2023 8:45:00 PM 2.41 36.338 0.147 7.18 5.58 13.05
1/8/2023 9:00:00 PM 2.38 36.284 0.151 7.17 5.59 13.06
1/8/2023 9:15:00 PM 2.34 36.212 0.151 7.14 5.69 13.07
1/8/2023 9:30:00 PM 2.32 36.176 0.153 7.14 5.71 13.07
1/8/2023 9:45:00 PM 2.29 36.122 0.153 7.14 6.2 13.08
1/8/2023 10:00:00 PM 2.26 36.068 0.154 7.13 5.75 13.08
1/8/2023 10:15:00 PM 2.23 36.014 0.155 7.12 5.73 13.1
1/8/2023 10:30:00 PM 2.19 35.942 0.154 7.11 5.92 13.11
1/8/2023 10:45:00 PM 2.15 35.87 0.154 7.1 9.65 13.13
1/8/2023 11:00:00 PM 2.11 35.798 0.153 7.1 5.73 13.13
1/8/2023 11:15:00 PM 2.06 35.708 0.154 7.08 5.71 13.14
1/8/2023 11:30:00 PM 2.02 35.636 0.151 7.13 5.82 13.16
1/8/2023 11:45:00 PM 2 35.6 0.154 7.15 1087.05 13.18
1/9/2023 12:00:00 AM 1.98 35.564 0.152 7.09 5.74 13.18
1/9/2023 12:15:00 AM 1.97 35.546 0.154 7.09 1401.86 13.19
1/9/2023 12:30:00 AM 1.95 35.51 0.154 7.09 5.15 13.2
1/9/2023 12:45:00 AM 1.93 35.474 0.156 7.09 5.75 13.21
1/9/2023 1:00:00 AM 1.89 35.402 0.154 7.08 156.85 13.22
1/9/2023 1:15:00 AM 1.85 35.33 0.155 7.09 246.35 13.24
1/9/2023 1:30:00 AM 1.81 35.258 0.153 7.07 5.6 13.25
1/9/2023 1:45:00 AM 1.78 35.204 0.154 7.08 4.98 13.26
1/9/2023 2:00:00 AM 1.75 35.15 0.154 7.08 5.48 13.27
1/9/2023 2:15:00 AM 1.72 35.096 0.153 7.07 6.9 13.28
1/9/2023 2:30:00 AM 1.69 35.042 0.153 7.09 5.13 13.29
1/9/2023 2:45:00 AM 1.67 35.006 0.155 7.06 5.29 13.31
1/9/2023 3:00:00 AM 1.66 34.988 0.154 7.07 5.36 13.31
1/9/2023 3:15:00 AM 1.64 34.952 0.154 7.07 5.14 13.32
1/9/2023 3:30:00 AM 1.62 34.916 0.155 7.07 5.19 13.33
1/9/2023 3:45:00 AM 1.61 34.898 0.156 7.07 5.06 13.34
1/9/2023 4:00:00 AM 1.59 34.862 0.153 7.08 38.76 13.34
1/9/2023 4:15:00 AM 1.57 34.826 0.154 7.07 5.32 13.35
1/9/2023 4:30:00 AM 1.55 34.79 0.154 7.06 5.24 13.35
1/9/2023 4:45:00 AM 1.52 34.736 0.154 7.08 4.9 13.36
1/9/2023 5:00:00 AM 1.49 34.682 0.156 7.07 5.52 13.37
1/9/2023 5:15:00 AM 1.48 34.664 0.156 7.07 7.65 13.38
1/9/2023 5:30:00 AM 1.48 34.664 0.154 7.09 5.05 13.39
1/9/2023 5:45:00 AM 1.48 34.664 0.157 7.08 5.08 13.39
1/9/2023 6:00:00 AM 1.48 34.664 0.15 7.08 4.97 13.39
1/9/2023 6:15:00 AM 1.48 34.664 0.155 7.08 5.06 13.39
1/9/2023 6:30:00 AM 1.48 34.664 0.155 7.08 6.57 13.39
1/9/2023 6:45:00 AM 1.49 34.682 0.157 7.09 5.1 13.39
1/9/2023 7:00:00 AM 1.49 34.682 0.138 7.09 68.39 13.39
1/9/2023 7:15:00 AM 1.49 34.682 0.154 7.1 5.04 13.39
1/9/2023 7:30:00 AM 1.49 34.682 0.155 7.09 5.16 13.4
1/9/2023 7:45:00 AM 1.5 34.7 0.144 7.09 5.03 13.4
1/9/2023 8:00:00 AM 1.5 34.7 0.156 7.09 5.42 13.41
1/9/2023 8:15:00 AM 1.51 34.718 0.155 7.1 5.33 13.44
1/9/2023 8:30:00 AM 1.53 34.754 0.154 7.12 5.22 13.47
1/9/2023 8:45:00 AM 1.55 34.79 0.153 7.12 5.07 13.51
1/9/2023 9:00:00 AM 1.57 34.826 0.155 7.14 5.48 13.54
1/9/2023 9:15:00 AM 1.58 34.844 0.154 7.15 5.64 13.56
1/9/2023 9:30:00 AM 1.6 34.88 0.152 7.16 4.87 13.6
1/9/2023 9:45:00 AM 1.63 34.934 0.154 7.18 4.95 13.64
1/9/2023 10:00:00 AM 1.66 34.988 0.152 7.18 5.02 13.68
1/9/2023 10:15:00 AM 1.72 35.096 0.154 7.2 5.36 13.72
1/9/2023 10:30:00 AM 1.8 35.24 0.152 7.22 5.15 13.75
1/9/2023 10:45:00 AM 1.83 35.294 0.156 7.22 4.87 13.76
1/9/2023 11:00:00 AM 1.85 35.33 0.156 7.22 5.28 13.76
1/9/2023 11:15:00 AM 1.9 35.42 0.157 7.25 6.43 13.75
1/9/2023 11:30:00 AM 2.02 35.636 0.157 7.26 6.56 13.75
1/9/2023 11:45:00 AM 2.13 35.834 0.154 7.27 6.41 13.74
1/9/2023 12:00:00 PM 2.23 36.014 0.155 7.28 6.39 13.72
1/9/2023 12:15:00 PM 2.31 36.158 0.139 7.29 4.7 13.7
1/9/2023 12:30:00 PM 2.38 36.284 0.152 7.29 4.67 13.68
1/9/2023 12:45:00 PM 2.44 36.392 0.152 7.3 4.62 13.65
1/9/2023 1:00:00 PM 2.5 36.5 0.152 7.3 5.03 13.63
1/9/2023 1:15:00 PM 2.55 36.59 0.139 7.31 12.12 13.59
1/9/2023 1:30:00 PM 2.61 36.698 0.139 7.31 5.27 13.57
1/9/2023 1:45:00 PM 2.66 36.788 0.137 7.31 5.59 13.54
1/9/2023 2:00:00 PM 2.7 36.86 0.136 7.31 4.85 13.52
1/9/2023 2:15:00 PM 2.73 36.914 0.153 7.31 6.79 13.49
1/9/2023 2:30:00 PM 2.75 36.95 0.138 7.3 4.94 13.47
1/9/2023 2:45:00 PM 2.77 36.986 0.14 7.3 5.08 13.44
1/9/2023 3:00:00 PM 2.77 36.986 0.149 7.3 6.6 13.41
1/9/2023 3:15:00 PM 2.77 36.986 0.145 7.29 132.4 13.39
1/9/2023 3:30:00 PM 2.75 36.95 0.147 7.29 4.69 13.36
1/9/2023 3:45:00 PM 2.72 36.896 0.146 7.28 5.32 13.34
1/9/2023 4:00:00 PM 2.7 36.86 0.143 7.26 4.95 13.31
1/9/2023 4:15:00 PM 2.68 36.824 0.15 7.25 4.67 13.29
1/9/2023 4:30:00 PM 2.65 36.77 0.143 7.25 4.52 13.27
1/9/2023 4:45:00 PM 2.61 36.698 0.154 7.23 4.37 13.24
1/9/2023 5:00:00 PM 2.58 36.644 0.14 7.2 4.57 13.21
1/9/2023 5:15:00 PM 2.54 36.572 0.154 7.2 4.63 13.17
1/9/2023 5:30:00 PM 2.51 36.518 0.155 7.19 5.25 13.13
1/9/2023 5:45:00 PM 2.47 36.446 0.155 7.18 4.89 13.12
1/9/2023 6:00:00 PM 2.43 36.374 0.156 7.16 4.65 13.11
1/9/2023 6:15:00 PM 2.38 36.284 0.138 7.17 4.9 13.11
1/9/2023 6:30:00 PM 2.34 36.212 0.149 7.23 5.3 13.1
1/9/2023 6:45:00 PM 2.3 36.14 0.151 7.27 4.65 13.1
1/9/2023 7:00:00 PM 2.26 36.068 0.139 7.23 5.3 13.11
1/9/2023 7:15:00 PM 2.23 36.014 0.143 7.23 4.88 13.11
1/9/2023 7:30:00 PM 2.2 35.96 0.153 7.22 4.94 13.12
1/9/2023 7:45:00 PM 2.17 35.906 0.155 7.2 6.06 13.12
1/9/2023 8:00:00 PM 2.13 35.834 0.144 7.19 4.86 13.13
1/9/2023 8:15:00 PM 2.11 35.798 0.154 7.18 16.86 13.13
1/9/2023 8:30:00 PM 2.1 35.78 0.143 7.15 4.76 13.12
1/9/2023 8:45:00 PM 2.1 35.78 0.152 7.16 4.65 13.14
1/9/2023 9:00:00 PM 2.1 35.78 0.144 7.15 4.53 13.13
1/9/2023 9:15:00 PM 2.11 35.798 0.152 7.15 5.01 13.14
1/9/2023 9:30:00 PM 2.12 35.816 0.155 7.13 5.73 13.13
1/9/2023 9:45:00 PM 2.13 35.834 0.155 7.15 4.81 13.13
1/9/2023 10:00:00 PM 2.14 35.852 0.151 7.14 5.96 13.13
1/9/2023 10:15:00 PM 2.15 35.87 0.154 7.14 7.96 13.13
1/9/2023 10:30:00 PM 2.16 35.888 0.143 7.14 4.71 13.13
1/9/2023 10:45:00 PM 2.17 35.906 0.139 7.14 4.89 13.12
1/9/2023 11:00:00 PM 2.18 35.924 0.152 7.13 5.88 13.12
1/9/2023 11:15:00 PM 2.18 35.924 0.152 7.18 5.06 13.13
1/9/2023 11:30:00 PM 2.19 35.942 0.155 7.22 4.76 13.12
1/9/2023 11:45:00 PM 2.19 35.942 0.149 7.15 5.33 13.12
1/10/2023 12:00:00 AM 2.19 35.942 0.153 7.23 5.18 13.13
1/10/2023 12:15:00 AM 2.19 35.942 0.155 7.24 5.13 13.13
1/10/2023 12:30:00 AM 2.18 35.924 0.141 7.22 5.3 13.13
1/10/2023 12:45:00 AM 2.18 35.924 0.14 7.18 5.09 13.13
1/10/2023 1:00:00 AM 2.17 35.906 0.15 7.22 5.22 13.14
1/10/2023 1:15:00 AM 2.17 35.906 0.14 7.24 5.42 13.13
1/10/2023 1:30:00 AM 2.16 35.888 0.151 7.22 4.92 13.14
1/10/2023 1:45:00 AM 2.15 35.87 0.155 7.18 5.6 13.15
1/10/2023 2:00:00 AM 2.15 35.87 0.155 7.18 4.93 13.15
1/10/2023 2:15:00 AM 2.14 35.852 0.155 7.23 4.81 13.15
1/10/2023 2:30:00 AM 2.13 35.834 0.155 7.16 4.78 13.16
1/10/2023 2:45:00 AM 2.12 35.816 0.155 7.16 4.56 13.16
1/10/2023 3:00:00 AM 2.12 35.816 0.156 7.15 4.61 13.17
1/10/2023 3:15:00 AM 2.11 35.798 0.158 7.14 4.7 13.18
1/10/2023 3:30:00 AM 2.1 35.78 0.158 7.14 4.52 13.18
1/10/2023 3:45:00 AM 2.1 35.78 0.157 7.13 4.63 13.18
1/10/2023 4:00:00 AM 2.09 35.762 0.159 7.13 4.92 13.19
1/10/2023 4:15:00 AM 2.08 35.744 0.157 7.13 4.41 13.19
1/10/2023 4:30:00 AM 2.07 35.726 0.139 7.12 4.58 13.2
1/10/2023 4:45:00 AM 2.07 35.726 0.142 7.12 4.49 13.2
1/10/2023 5:00:00 AM 2.06 35.708 0.143 7.11 4.59 13.2
1/10/2023 5:15:00 AM 2.06 35.708 0.153 7.12 4.73 13.2
1/10/2023 5:30:00 AM 2.06 35.708 0.153 7.12 4.92 13.2
1/10/2023 5:45:00 AM 2.05 35.69 0.141 7.12 5.62 13.2
1/10/2023 6:00:00 AM 2.05 35.69 0.14 7.12 4.81 13.2
1/10/2023 6:15:00 AM 2.05 35.69 0.155 7.12 4.89 13.2
1/10/2023 6:30:00 AM 2.05 35.69 0.156 7.13 6.07 13.2
1/10/2023 6:45:00 AM 2.06 35.708 0.157 7.12 4.48 13.2
1/10/2023 7:00:00 AM 2.06 35.708 0.154 7.12 4.46 13.21
1/10/2023 7:15:00 AM 2.06 35.708 0.157 7.14 4.61 13.2
1/10/2023 7:30:00 AM 2.06 35.708 0.156 7.13 5.02 13.2
1/10/2023 7:45:00 AM 2.06 35.708 0.151 7.1 4.63 13.21
1/10/2023 8:00:00 AM 2.07 35.726 0.154 7.14 4.68 13.21
1/10/2023 8:15:00 AM 2.07 35.726 0.158 7.12 4.5 13.21
1/10/2023 8:30:00 AM 2.08 35.744 0.157 7.13 4.85 13.22
1/10/2023 8:45:00 AM 2.09 35.762 0.159 7.14 4.41 13.22
1/10/2023 9:00:00 AM 2.09 35.762 0.155 7.14 5.5 13.25
1/10/2023 9:15:00 AM 2.1 35.78 0.155 7.14 4.61 13.26
1/10/2023 9:30:00 AM 2.12 35.816 0.152 7.14 4.57 13.3
1/10/2023 9:45:00 AM 2.14 35.852 0.157 7.17 4.97 13.35
1/10/2023 10:00:00 AM 2.15 35.87 0.142 7.18 4.42 13.39
1/10/2023 10:15:00 AM 2.18 35.924 0.152 7.19 4.24 13.43
1/10/2023 10:30:00 AM 2.2 35.96 0.148 7.22 5.26 13.46
1/10/2023 10:45:00 AM 2.22 35.996 0.153 7.2 4.35 13.47
1/10/2023 11:00:00 AM 2.25 36.05 0.156 7.22 4.33 13.5
1/10/2023 11:15:00 AM 2.28 36.104 0.151 7.22 5.09 13.52
1/10/2023 11:30:00 AM 2.3 36.14 0.155 7.24 4.43 13.54
1/10/2023 11:45:00 AM 2.31 36.158 0.155 7.21 4.87 13.52
1/10/2023 12:00:00 PM 2.33 36.194 0.155 7.26 5.38 13.52
1/10/2023 12:15:00 PM 2.36 36.248 0.156 7.26 4.19 13.52
1/10/2023 12:30:00 PM 2.38 36.284 0.153 7.29 4.27 13.53
1/10/2023 12:45:00 PM 2.4 36.32 0.157 7.34 8.84 13.53
1/10/2023 1:00:00 PM 2.42 36.356 0.156 7.29 4.11 13.52
1/10/2023 1:15:00 PM 2.45 36.41 0.156 7.28 4.16 13.53
1/10/2023 1:30:00 PM 2.47 36.446 0.158 7.28 97.92 13.53
1/10/2023 1:45:00 PM 2.5 36.5 0.158 7.28 4.17 13.54
1/10/2023 2:00:00 PM 2.52 36.536 0.159 7.29 4.06 13.53
1/10/2023 2:15:00 PM 2.53 36.554 0.158 7.28 4.23 13.52
1/10/2023 2:30:00 PM 2.54 36.572 0.158 7.27 6.77 13.5
1/10/2023 2:45:00 PM 2.56 36.608 0.154 7.26 4.18 13.48
1/10/2023 3:00:00 PM 2.57 36.626 0.157 7.29 12.26 13.48
1/10/2023 3:15:00 PM 2.57 36.626 0.142 7.26 4.16 13.46
1/10/2023 3:30:00 PM 2.57 36.626 0.156 7.24 4.06 13.42
1/10/2023 3:45:00 PM 2.57 36.626 0.139 7.26 4.08 13.39
1/10/2023 4:00:00 PM 2.57 36.626 0.156 7.25 4.01 13.35
1/10/2023 4:15:00 PM 2.57 36.626 0.155 7.24 4.12 13.33
1/10/2023 4:30:00 PM 2.57 36.626 0.159 7.19 4.05 13.3
1/10/2023 4:45:00 PM 2.56 36.608 0.144 7.28 4.07 13.25
1/10/2023 5:00:00 PM 2.56 36.608 0.16 7.31 4.15 13.21
1/10/2023 5:15:00 PM 2.55 36.59 0.158 7.26 3.92 13.18
1/10/2023 5:30:00 PM 2.54 36.572 0.157 7.25 4.09 13.15
1/10/2023 5:45:00 PM 2.54 36.572 0.157 7.24 4.16 13.13
1/10/2023 6:00:00 PM 2.53 36.554 0.152 7.23 4.08 13.12
1/10/2023 6:15:00 PM 2.53 36.554 0.157 7.21 4.1 13.11
1/10/2023 6:30:00 PM 2.53 36.554 0.158 7.2 4.09 13.1
1/10/2023 6:45:00 PM 2.52 36.536 0.159 7.2 4.16 13.1
1/10/2023 7:00:00 PM 2.52 36.536 0.157 7.17 4.08 13.09
1/10/2023 7:15:00 PM 2.52 36.536 0.155 7.18 4.28 13.09
1/10/2023 7:30:00 PM 2.51 36.518 0.153 7.17 4.03 13.09
1/10/2023 7:45:00 PM 2.51 36.518 0.155 7.15 4.14 13.08
1/10/2023 8:00:00 PM 2.5 36.5 0.156 7.18 3.91 13.08
1/10/2023 8:15:00 PM 2.5 36.5 0.16 7.16 4.06 13.08
1/10/2023 8:30:00 PM 2.49 36.482 0.158 7.16 4.1 13.08
1/10/2023 8:45:00 PM 2.49 36.482 0.159 7.16 4.23 13.08
1/10/2023 9:00:00 PM 2.48 36.464 0.157 7.16 4.31 13.08
1/10/2023 9:15:00 PM 2.48 36.464 0.156 7.15 4.06 13.08
1/10/2023 9:30:00 PM 2.47 36.446 0.157 7.15 4.08 13.08
1/10/2023 9:45:00 PM 2.47 36.446 0.156 7.15 4.09 13.08
1/10/2023 10:00:00 PM 2.47 36.446 0.153 7.21 3.98 13.07
1/10/2023 10:15:00 PM 2.46 36.428 0.159 7.23 4.12 13.08
1/10/2023 10:30:00 PM 2.46 36.428 0.158 7.21 4.14 13.09
1/10/2023 10:45:00 PM 2.45 36.41 0.157 7.21 4.05 13.09
1/10/2023 11:00:00 PM 2.44 36.392 0.157 7.23 4 13.09
1/10/2023 11:15:00 PM 2.44 36.392 0.157 7.24 4.03 13.09
1/10/2023 11:30:00 PM 2.43 36.374 0.158 7.2 4.05 13.09
1/10/2023 11:45:00 PM 2.42 36.356 0.158 7.19 4.13 13.1
1/11/2023 12:00:00 AM 2.41 36.338 0.157 7.19 3.97 13.11
1/11/2023 12:15:00 AM 2.4 36.32 0.16 7.23 4.05 13.1
1/11/2023 12:30:00 AM 2.39 36.302 0.158 7.2 4.19 13.11
1/11/2023 12:45:00 AM 2.38 36.284 0.157 7.16 4.01 13.11
1/11/2023 1:00:00 AM 2.36 36.248 0.158 7.15 4.11 13.11
1/11/2023 1:15:00 AM -99999.99 -179968 -99999.99 -99999.99 -99999.99 -99999.99
1/11/2023 1:30:00 AM -99999.99 -179968 -99999.99 -99999.99 -99999.99 -99999.99
1/11/2023 1:45:00 AM -99999.99 -179968 -99999.99 -99999.99 -99999.99 -99999.99
1/11/2023 2:00:00 AM -99999.99 -179968 -99999.99 -99999.99 -99999.99 -99999.99
1/11/2023 2:15:00 AM -99999.99 -179968 -99999.99 -99999.99 -99999.99 -99999.99
1/11/2023 2:30:00 AM -99999.99 -179968 -99999.99 -99999.99 -99999.99 -99999.99
1/11/2023 2:45:00 AM -99999.99 -179968 -99999.99 -99999.99 -99999.99 -99999.99
1/11/2023 3:00:00 AM -99999.99 -179968 -99999.99 -99999.99 -99999.99 -99999.99
1/11/2023 3:15:00 AM -99999.99 -179968 -99999.99 -99999.99 -99999.99 -99999.99
1/11/2023 3:30:00 AM -99999.99 -179968 -99999.99 -99999.99 -99999.99 -99999.99
1/11/2023 3:45:00 AM -99999.99 -179968 -99999.99 -99999.99 -99999.99 -99999.99
1/11/2023 4:00:00 AM -99999.99 -179968 -99999.99 -99999.99 -99999.99 -99999.99
1/11/2023 4:15:00 AM -99999.99 -179968 -99999.99 -99999.99 -99999.99 -99999.99
1/11/2023 4:30:00 AM -99999.99 -179968 -99999.99 -99999.99 -99999.99 -99999.99
1/11/2023 4:45:00 AM -99999.99 -179968 -99999.99 -99999.99 -99999.99 -99999.99
1/11/2023 5:00:00 AM -99999.99 -179968 -99999.99 -99999.99 -99999.99 -99999.99
1/11/2023 5:15:00 AM -99999.99 -179968 -99999.99 -99999.99 -99999.99 -99999.99
1/11/2023 5:30:00 AM -99999.99 -179968 -99999.99 -99999.99 -99999.99 -99999.99
1/11/2023 5:45:00 AM -99999.99 -179968 -99999.99 -99999.99 -99999.99 -99999.99
1/11/2023 6:00:00 AM -99999.99 -179968 -99999.99 -99999.99 -99999.99 -99999.99
1/11/2023 6:15:00 AM -99999.99 -179968 -99999.99 -99999.99 -99999.99 -99999.99
1/11/2023 6:30:00 AM -99999.99 -179968 -99999.99 -99999.99 -99999.99 -99999.99
1/11/2023 6:45:00 AM -99999.99 -179968 -99999.99 -99999.99 -99999.99 -99999.99
1/11/2023 7:00:00 AM -99999.99 -179968 -99999.99 -99999.99 -99999.99 -99999.99
1/11/2023 7:15:00 AM -99999.99 -179968 -99999.99 -99999.99 -99999.99 -99999.99
1/11/2023 7:30:00 AM -99999.99 -179968 -99999.99 -99999.99 -99999.99 -99999.99
1/11/2023 7:45:00 AM -99999.99 -179968 -99999.99 -99999.99 -99999.99 -99999.99
1/11/2023 8:00:00 AM -99999.99 -179968 -99999.99 -99999.99 -99999.99 -99999.99
1/11/2023 8:15:00 AM -99999.99 -179968 -99999.99 -99999.99 -99999.99 -99999.99
1/11/2023 8:30:00 AM -99999.99 -179968 -99999.99 -99999.99 -99999.99 -99999.99
1/11/2023 8:45:00 AM -99999.99 -179968 -99999.99 -99999.99 -99999.99 -99999.99
1/11/2023 9:00:00 AM -99999.99 -179968 -99999.99 -99999.99 -99999.99 -99999.99
1/11/2023 9:15:00 AM -99999.99 -179968 -99999.99 -99999.99 -99999.99 -99999.99
1/11/2023 9:30:00 AM 2.12 35.816 0.16 7.27 3.9 13.61
1/11/2023 9:45:00 AM 2.16 35.888 0.158 7.26 3.96 13.66
1/11/2023 10:00:00 AM 2.2 35.96 0.155 7.27 3.91 13.7
1/11/2023 10:15:00 AM 2.24 36.032 0.156 7.29 3.86 13.75
1/11/2023 10:30:00 AM 2.3 36.14 0.159 7.3 3.91 13.77
1/11/2023 10:45:00 AM 2.35 36.23 0.156 7.29 3.8 13.78
1/11/2023 11:00:00 AM 2.41 36.338 0.148 7.34 3.87 13.78
1/11/2023 11:15:00 AM 2.47 36.446 0.142 7.34 3.9 13.79
1/11/2023 11:30:00 AM 2.53 36.554 0.156 7.36 3.85 13.79
1/11/2023 11:45:00 AM 2.6 36.68 0.152 7.36 6.33 13.78
1/11/2023 12:00:00 PM 2.65 36.77 0.157 7.37 3.78 13.77
1/11/2023 12:15:00 PM 2.73 36.914 0.143 7.37 4.95 13.75
1/11/2023 12:30:00 PM 2.81 37.058 0.156 7.39 4.25 13.74
1/11/2023 12:45:00 PM 2.89 37.202 0.157 7.4 3.83 13.72
1/11/2023 1:00:00 PM 2.95 37.31 0.147 7.4 7.62 13.71
1/11/2023 1:15:00 PM 3.01 37.418 0.147 7.41 7.77 13.68
1/11/2023 1:30:00 PM 3.06 37.508 0.156 7.42 15.21 13.66
1/11/2023 1:45:00 PM 3.12 37.616 0.151 7.42 18.82 13.64
1/11/2023 2:00:00 PM 3.17 37.706 0.156 7.42 3.71 13.62
1/11/2023 2:15:00 PM 3.21 37.778 0.153 7.42 12.9 13.6
1/11/2023 2:30:00 PM 3.25 37.85 0.157 7.43 3.84 13.59
1/11/2023 2:45:00 PM 3.29 37.922 0.158 7.43 3.88 13.56
1/11/2023 3:00:00 PM 3.3 37.94 0.157 7.44 3.78 13.54
1/11/2023 3:15:00 PM 3.31 37.958 0.158 7.42 3.72 13.5
1/11/2023 3:30:00 PM 3.32 37.976 0.157 7.41 3.88 13.47
1/11/2023 3:45:00 PM 3.32 37.976 0.156 7.41 3.84 13.43
1/11/2023 4:00:00 PM 3.32 37.976 0.153 7.39 35.52 13.37
1/11/2023 4:15:00 PM 3.3 37.94 0.158 7.37 3.99 13.29
1/11/2023 4:30:00 PM 3.28 37.904 0.15 7.35 3.93 13.2
1/11/2023 4:45:00 PM 3.26 37.868 0.148 7.32 3.9 13.13
1/11/2023 5:00:00 PM 3.24 37.832 0.159 7.3 3.87 13.07
1/11/2023 5:15:00 PM 3.22 37.796 0.157 7.28 4.02 13.03
1/11/2023 5:30:00 PM 3.21 37.778 0.155 7.27 4.14 12.99
1/11/2023 5:45:00 PM 3.18 37.724 0.155 7.27 3.7 12.97
1/11/2023 6:00:00 PM 3.16 37.688 0.156 7.33 3.93 12.95
1/11/2023 6:15:00 PM 3.13 37.634 0.152 7.3 3.7 12.93
1/11/2023 6:30:00 PM 3.08 37.544 0.16 7.25 3.89 12.93
1/11/2023 6:45:00 PM 3.04 37.472 0.154 7.31 3.88 12.93
1/11/2023 7:00:00 PM 3 37.4 0.159 7.23 4.13 12.93
1/11/2023 7:15:00 PM 2.97 37.346 0.158 7.21 4.26 12.93
1/11/2023 7:30:00 PM 2.94 37.292 0.16 7.22 4.04 12.93
1/11/2023 7:45:00 PM 2.9 37.22 0.144 7.21 3.91 12.93
1/11/2023 8:00:00 PM 2.86 37.148 0.143 7.2 4.28 12.93
1/11/2023 8:15:00 PM 2.83 37.094 0.144 7.16 4.23 12.94
1/11/2023 8:30:00 PM 2.81 37.058 0.157 7.18 4.14 12.94
1/11/2023 8:45:00 PM 2.79 37.022 0.107 7.17 4.68 12.94
1/11/2023 9:00:00 PM 2.78 37.004 0.161 7.19 3.96 12.95
1/11/2023 9:15:00 PM 2.76 36.968 0.156 7.15 3.91 12.95
1/11/2023 9:30:00 PM 2.73 36.914 0.16 7.15 3.98 12.96
1/11/2023 9:45:00 PM 2.71 36.878 0.159 7.14 3.96 12.96
1/11/2023 10:00:00 PM 2.68 36.824 0.151 7.13 3.95 12.97
1/11/2023 10:15:00 PM 2.66 36.788 0.155 7.18 3.84 12.97
1/11/2023 10:30:00 PM 2.64 36.752 0.155 7.16 3.81 12.98
1/11/2023 10:45:00 PM 2.64 36.752 0.144 7.14 4.08 12.98
1/11/2023 11:00:00 PM 2.64 36.752 0.152 7.19 4.18 12.99
1/11/2023 11:15:00 PM 2.65 36.77 0.154 7.17 4.31 12.99
1/11/2023 11:30:00 PM 2.65 36.77 0.159 7.18 4.2 12.99
1/11/2023 11:45:00 PM 2.66 36.788 0.16 7.17 3.94 12.98
1/12/2023 12:00:00 AM 2.67 36.806 0.161 7.17 3.82 12.98
1/12/2023 12:15:00 AM 2.68 36.824 0.154 7.19 3.92 12.98
1/12/2023 12:30:00 AM 2.68 36.824 0.151 7.17 4.03 12.98
1/12/2023 12:45:00 AM 2.68 36.824 0.157 7.18 3.91 12.98
1/12/2023 1:00:00 AM -99999.99 -179968 -99999.99 -99999.99 -99999.99 -99999.99
1/12/2023 1:15:00 AM -99999.99 -179968 -99999.99 -99999.99 -99999.99 -99999.99
1/12/2023 1:30:00 AM -99999.99 -179968 -99999.99 -99999.99 -99999.99 -99999.99
1/12/2023 1:45:00 AM -99999.99 -179968 -99999.99 -99999.99 -99999.99 -99999.99
1/12/2023 2:00:00 AM -99999.99 -179968 -99999.99 -99999.99 -99999.99 -99999.99
1/12/2023 2:15:00 AM -99999.99 -179968 -99999.99 -99999.99 -99999.99 -99999.99
1/12/2023 2:30:00 AM -99999.99 -179968 -99999.99 -99999.99 -99999.99 -99999.99
1/12/2023 2:45:00 AM -99999.99 -179968 -99999.99 -99999.99 -99999.99 -99999.99
1/12/2023 3:00:00 AM -99999.99 -179968 -99999.99 -99999.99 -99999.99 -99999.99
1/12/2023 3:15:00 AM -99999.99 -179968 -99999.99 -99999.99 -99999.99 -99999.99
1/12/2023 3:30:00 AM -99999.99 -179968 -99999.99 -99999.99 -99999.99 -99999.99
1/12/2023 3:45:00 AM -99999.99 -179968 -99999.99 -99999.99 -99999.99 -99999.99
1/12/2023 4:00:00 AM -99999.99 -179968 -99999.99 -99999.99 -99999.99 -99999.99
1/12/2023 4:15:00 AM -99999.99 -179968 -99999.99 -99999.99 -99999.99 -99999.99
1/12/2023 4:30:00 AM -99999.99 -179968 -99999.99 -99999.99 -99999.99 -99999.99
1/12/2023 4:45:00 AM -99999.99 -179968 -99999.99 -99999.99 -99999.99 -99999.99
1/12/2023 5:00:00 AM -99999.99 -179968 -99999.99 -99999.99 -99999.99 -99999.99
1/12/2023 5:15:00 AM -99999.99 -179968 -99999.99 -99999.99 -99999.99 -99999.99
1/12/2023 5:30:00 AM -99999.99 -179968 -99999.99 -99999.99 -99999.99 -99999.99
1/12/2023 5:45:00 AM -99999.99 -179968 -99999.99 -99999.99 -99999.99 -99999.99
1/12/2023 6:00:00 AM -99999.99 -179968 -99999.99 -99999.99 -99999.99 -99999.99
1/12/2023 6:15:00 AM -99999.99 -179968 -99999.99 -99999.99 -99999.99 -99999.99
1/12/2023 6:30:00 AM -99999.99 -179968 -99999.99 -99999.99 -99999.99 -99999.99
1/12/2023 6:45:00 AM -99999.99 -179968 -99999.99 -99999.99 -99999.99 -99999.99
1/12/2023 7:00:00 AM -99999.99 -179968 -99999.99 -99999.99 -99999.99 -99999.99
1/12/2023 7:15:00 AM -99999.99 -179968 -99999.99 -99999.99 -99999.99 -99999.99
1/12/2023 7:30:00 AM -99999.99 -179968 -99999.99 -99999.99 -99999.99 -99999.99
1/12/2023 7:45:00 AM -99999.99 -179968 -99999.99 -99999.99 -99999.99 -99999.99
1/12/2023 8:00:00 AM -99999.99 -179968 -99999.99 -99999.99 -99999.99 -99999.99
1/12/2023 8:15:00 AM -99999.99 -179968 -99999.99 -99999.99 -99999.99 -99999.99
1/12/2023 8:30:00 AM -99999.99 -179968 -99999.99 -99999.99 -99999.99 -99999.99
1/12/2023 8:45:00 AM -99999.99 -179968 -99999.99 -99999.99 -99999.99 -99999.99
1/12/2023 9:00:00 AM -99999.99 -179968 -99999.99 -99999.99 -99999.99 -99999.99
1/12/2023 9:15:00 AM -99999.99 -179968 -99999.99 -99999.99 -99999.99 -99999.99
1/12/2023 9:30:00 AM -99999.99 -179968 -99999.99 -99999.99 -99999.99 -99999.99
1/12/2023 9:45:00 AM -99999.99 -179968 -99999.99 -99999.99 -99999.99 -99999.99
1/12/2023 10:00:00 AM -99999.99 -179968 -99999.99 -99999.99 -99999.99 -99999.99
1/12/2023 10:15:00 AM -99999.99 -179968 -99999.99 -99999.99 -99999.99 -99999.99
1/12/2023 10:30:00 AM 2.8 37.04 0.167 7.25 4.18 13.3
1/12/2023 10:45:00 AM 2.82 37.076 0.164 7.3 3.59 13.28
1/12/2023 11:00:00 AM 2.84 37.112 0.163 7.31 3.45 13.28
1/12/2023 11:15:00 AM 2.87 37.166 0.159 7.31 3.32 13.29
1/12/2023 11:30:00 AM 2.91 37.238 0.161 7.34 3.56 13.32
1/12/2023 11:45:00 AM 2.95 37.31 0.163 7.35 3.34 13.35
1/12/2023 12:00:00 PM 2.98 37.364 0.161 7.36 3.36 13.35
1/12/2023 12:15:00 PM 3.01 37.418 0.16 7.36 3.34 13.34
1/12/2023 12:30:00 PM 3.04 37.472 0.147 7.37 3.53 13.33
1/12/2023 12:45:00 PM 3.07 37.526 0.162 7.37 3.54 13.31
1/12/2023 1:00:00 PM 3.1 37.58 0.158 7.38 3.4 13.29
1/12/2023 1:15:00 PM 3.13 37.634 0.161 7.38 3.54 13.26
1/12/2023 1:30:00 PM 3.16 37.688 0.155 7.4 3.49 13.24
1/12/2023 1:45:00 PM 3.19 37.742 0.159 7.46 3.54 13.21
1/12/2023 2:00:00 PM 3.22 37.796 0.157 7.46 3.44 13.21
1/12/2023 2:15:00 PM 3.25 37.85 0.159 7.47 3.37 13.21
1/12/2023 2:30:00 PM 3.28 37.904 0.149 7.48 3.45 13.19
1/12/2023 2:45:00 PM 3.3 37.94 0.154 7.46 3.47 13.15
1/12/2023 3:00:00 PM 3.33 37.994 0.16 7.48 3.27 13.14
1/12/2023 3:15:00 PM 3.35 38.03 0.161 7.45 3.43 13.12
1/12/2023 3:30:00 PM 3.37 38.066 0.162 7.45 3.36 13.09
1/12/2023 3:45:00 PM 3.39 38.102 0.157 7.45 3.41 13.04
1/12/2023 4:00:00 PM 3.4 38.12 0.157 7.43 3.54 12.99
1/12/2023 4:15:00 PM 3.41 38.138 0.163 7.43 3.46 12.93
1/12/2023 4:30:00 PM 3.43 38.174 0.161 7.41 3.61 12.88
1/12/2023 4:45:00 PM 3.44 38.192 0.162 7.4 3.61 12.84
1/12/2023 5:00:00 PM 3.45 38.21 0.16 7.38 3.49 12.81
1/12/2023 5:15:00 PM 3.46 38.228 0.158 7.41 3.59 12.76
1/12/2023 5:30:00 PM 3.47 38.246 0.16 7.4 3.72 12.74
1/12/2023 5:45:00 PM 3.49 38.282 0.158 7.37 4.01 12.71
1/12/2023 6:00:00 PM 3.51 38.318 0.16 7.36 4.05 12.68
1/12/2023 6:15:00 PM 3.52 38.336 0.16 7.36 4.09 12.67
1/12/2023 6:30:00 PM 3.53 38.354 0.161 7.41 4.29 12.64
1/12/2023 6:45:00 PM 3.55 38.39 0.143 7.4 4.31 12.63
1/12/2023 7:00:00 PM 3.56 38.408 0.155 7.38 4.61 12.62
1/12/2023 7:15:00 PM 3.57 38.426 0.156 7.39 4.84 12.61
1/12/2023 7:30:00 PM 3.58 38.444 0.144 7.38 4.76 12.59
1/12/2023 7:45:00 PM 3.59 38.462 0.151 7.38 5.21 12.58
1/12/2023 8:00:00 PM 3.6 38.48 0.146 7.4 4.87 12.57
1/12/2023 8:15:00 PM 3.61 38.498 0.146 7.39 5 12.56
1/12/2023 8:30:00 PM 3.62 38.516 0.147 7.38 4.81 12.55
1/12/2023 8:45:00 PM 3.64 38.552 0.147 7.38 5.04 12.54
1/12/2023 9:00:00 PM 3.66 38.588 0.146 7.4 5.27 12.53
1/12/2023 9:15:00 PM 3.67 38.606 0.157 7.43 5.22 12.53
1/12/2023 9:30:00 PM 3.69 38.642 0.157 7.44 5.6 12.51
1/12/2023 9:45:00 PM 3.71 38.678 0.161 7.46 5.57 12.51
1/12/2023 10:00:00 PM 3.71 38.678 0.161 7.49 5.89 12.51
1/12/2023 10:15:00 PM 3.72 38.696 0.144 7.51 5.87 12.5
1/12/2023 10:30:00 PM 3.73 38.714 0.146 7.58 6.25 12.5
1/12/2023 10:45:00 PM 3.74 38.732 0.146 7.59 6.55 12.5
1/12/2023 11:00:00 PM 3.75 38.75 0.149 7.65 6.78 12.5
1/12/2023 11:15:00 PM 3.75 38.75 0.155 7.88 7.1 12.49
1/12/2023 11:30:00 PM 3.76 38.768 0.145 7.96 7.93 12.48
1/12/2023 11:45:00 PM 3.77 38.786 0.15 8.25 8.33 12.49
1/13/2023 12:00:00 AM 3.77 38.786 0.157 8.06 8.95 12.48
1/13/2023 12:15:00 AM 3.78 38.804 0.145 8.03 8.85 12.48
1/13/2023 12:30:00 AM 3.79 38.822 0.146 7.66 11.03 12.47
1/13/2023 12:45:00 AM 3.8 38.84 0.145 7.9 10.45 12.46
1/13/2023 1:00:00 AM 3.81 38.858 0.144 7.9 10.89 12.46
1/13/2023 1:15:00 AM 3.82 38.876 0.146 7.82 11.63 12.45
1/13/2023 1:30:00 AM 3.82 38.876 0.146 7.74 11.87 12.44
1/13/2023 1:45:00 AM 3.83 38.894 0.146 7.82 13.31 12.44
1/13/2023 2:00:00 AM 3.84 38.912 0.146 7.7 14.52 12.43
1/13/2023 2:15:00 AM 3.84 38.912 0.146 7.79 15.33 12.42
1/13/2023 2:30:00 AM 3.85 38.93 0.145 7.88 21.95 12.42
1/13/2023 2:45:00 AM 3.86 38.948 0.144 8.03 17.22 12.42
1/13/2023 3:00:00 AM 3.87 38.966 0.144 7.83 17.1 12.41
1/13/2023 3:15:00 AM 3.88 38.984 0.144 7.85 17.85 12.41
1/13/2023 3:30:00 AM 3.9 39.02 0.144 7.85 18 12.4
1/13/2023 3:45:00 AM 3.91 39.038 0.142 7.9 17.8 12.4
1/13/2023 4:00:00 AM 3.92 39.056 0.142 7.8 19.17 12.39
1/13/2023 4:15:00 AM 3.93 39.074 0.141 7.79 19.58 12.39
1/13/2023 4:30:00 AM 3.94 39.092 0.14 7.73 19.75 12.39
1/13/2023 4:45:00 AM 3.95 39.11 0.141 7.78 21.71 12.38
1/13/2023 5:00:00 AM 3.96 39.128 0.14 7.79 25.53 12.38
1/13/2023 5:15:00 AM 3.96 39.128 0.139 7.78 29.39 12.38
1/13/2023 5:30:00 AM 3.96 39.128 0.14 7.78 34.38 12.39
1/13/2023 5:45:00 AM 3.96 39.128 0.139 7.71 45.26 12.4
1/13/2023 6:00:00 AM 3.96 39.128 0.14 7.64 64.11 12.38
1/13/2023 6:15:00 AM 3.95 39.11 0.139 7.78 66 12.39
1/13/2023 6:30:00 AM 3.94 39.092 0.137 7.73 102.61 12.4
1/13/2023 6:45:00 AM 3.93 39.074 0.138 7.73 121.61 12.41
1/13/2023 7:00:00 AM 3.92 39.056 0.134 7.77 131.97 12.42
1/13/2023 7:15:00 AM 3.91 39.038 0.133 7.57 152 12.43
1/13/2023 7:30:00 AM 3.9 39.02 0.13 7.48 167.31 12.44
1/13/2023 7:45:00 AM 3.88 38.984 0.128 7.45 167.87 12.43
1/13/2023 8:00:00 AM 3.86 38.948 0.126 7.45 166.75 12.44
1/13/2023 8:15:00 AM 3.82 38.876 0.125 7.42 166.61 12.47
1/13/2023 8:30:00 AM 3.79 38.822 0.122 7.58 166.53 12.49
1/13/2023 8:45:00 AM 3.75 38.75 0.121 7.47 156.57 12.51
1/13/2023 9:00:00 AM 3.71 38.678 0.118 7.41 140.37 12.53
1/13/2023 9:15:00 AM 3.67 38.606 0.116 7.51 129.33 12.54
1/13/2023 9:30:00 AM 3.62 38.516 0.115 7.55 117.02 12.56
1/13/2023 9:45:00 AM 3.58 38.444 0.113 7.53 112.39 12.58
1/13/2023 10:00:00 AM 3.56 38.408 0.113 7.47 99.5 12.59
1/13/2023 10:15:00 AM 3.54 38.372 0.113 7.51 92.2 12.61
1/13/2023 10:30:00 AM 3.54 38.372 0.111 7.5 86.9 12.63
1/13/2023 10:45:00 AM 3.55 38.39 0.11 7.42 80.28 12.64
1/13/2023 11:00:00 AM 3.54 38.372 0.11 7.44 74.98 12.65
1/13/2023 11:15:00 AM 3.54 38.372 0.11 7.47 71.92 12.66
1/13/2023 11:30:00 AM 3.54 38.372 0.109 7.38 63.35 12.67
1/13/2023 11:45:00 AM 3.54 38.372 0.109 7.52 63.41 12.68
1/13/2023 12:00:00 PM 3.53 38.354 0.109 7.46 58.6 12.68
1/13/2023 12:15:00 PM 3.52 38.336 0.108 7.37 54.5 12.69
1/13/2023 12:30:00 PM 3.51 38.318 0.109 7.44 50.05 12.69
1/13/2023 12:45:00 PM 3.49 38.282 0.11 7.44 49.01 12.7
1/13/2023 1:00:00 PM 3.47 38.246 0.109 7.24 46.47 12.7
1/13/2023 1:15:00 PM 3.46 38.228 0.109 7.13 49.29 12.71
1/13/2023 1:30:00 PM 3.45 38.21 0.109 7.11 41.11 12.71
1/13/2023 1:45:00 PM 3.43 38.174 0.109 7.1 40.67 12.72
1/13/2023 2:00:00 PM 3.41 38.138 0.109 7.09 38.48 12.72
1/13/2023 2:15:00 PM 3.39 38.102 0.108 7.09 35.96 12.72
1/13/2023 2:30:00 PM 3.37 38.066 0.109 7.08 33.61 12.73
1/13/2023 2:45:00 PM 3.35 38.03 0.109 7.08 32.03 12.73
1/13/2023 3:00:00 PM 3.32 37.976 0.109 7.08 33.36 12.74
1/13/2023 3:15:00 PM 3.3 37.94 0.109 7.08 32.24 12.74
1/13/2023 3:30:00 PM 3.27 37.886 0.11 7.08 31.45 12.75
1/13/2023 3:45:00 PM 3.24 37.832 0.11 7.07 31.01 12.75
1/13/2023 4:00:00 PM 3.21 37.778 0.111 7.08 30.87 12.75
1/13/2023 4:15:00 PM 3.18 37.724 0.111 7.07 29.5 12.76
1/13/2023 4:30:00 PM 3.15 37.67 0.111 7.07 28.56 12.77
1/13/2023 4:45:00 PM 3.12 37.616 0.111 7.06 27.14 12.78
1/13/2023 5:00:00 PM 3.09 37.562 0.111 7.06 26.82 12.79
1/13/2023 5:15:00 PM 3.06 37.508 0.111 7.06 27.17 12.79
1/13/2023 5:30:00 PM 3.03 37.454 0.111 7.06 21.83 12.8
1/13/2023 5:45:00 PM 2.99 37.382 0.112 7.05 24.48 12.81
1/13/2023 6:00:00 PM 2.96 37.328 0.111 7.05 23.92 12.82
1/13/2023 6:15:00 PM 2.91 37.238 0.112 7.05 24.77 12.83
1/13/2023 6:30:00 PM 2.88 37.184 0.112 7.04 23.22 12.84
1/13/2023 6:45:00 PM 2.84 37.112 0.113 7.04 22.64 12.85
1/13/2023 7:00:00 PM 2.81 37.058 0.112 7.04 22.87 12.86
1/13/2023 7:15:00 PM 2.78 37.004 0.112 7.04 25.3 12.88
1/13/2023 7:30:00 PM 2.74 36.932 0.112 7.04 22.63 12.88
1/13/2023 7:45:00 PM 2.7 36.86 0.112 7.03 22.1 12.91
1/13/2023 8:00:00 PM 2.66 36.788 0.113 7.03 21.61 12.91
1/13/2023 8:15:00 PM 2.63 36.734 0.113 7.03 21.43 12.93
1/13/2023 8:30:00 PM 2.59 36.662 0.113 7.03 20.47 12.94
1/13/2023 8:45:00 PM 2.55 36.59 0.114 7.03 22.11 12.95
1/13/2023 9:00:00 PM 2.51 36.518 0.114 7.03 20.06 12.97
1/13/2023 9:15:00 PM 2.48 36.464 0.114 7.03 19.81 12.98
1/13/2023 9:30:00 PM 2.44 36.392 0.114 7.03 19.45 13
1/13/2023 9:45:00 PM 2.4 36.32 0.115 7.03 19.32 13.01
1/13/2023 10:00:00 PM 2.37 36.266 0.116 7.02 18.91 13.02
1/13/2023 10:15:00 PM 2.33 36.194 0.116 7.02 19.62 13.04
1/13/2023 10:30:00 PM 2.3 36.14 0.116 7.02 19.2 13.04
1/13/2023 10:45:00 PM 2.26 36.068 0.115 7.02 17.27 13.06
1/13/2023 11:00:00 PM 2.23 36.014 0.116 7.02 18.89 13.07
1/13/2023 11:15:00 PM 2.2 35.96 0.116 7.02 17 13.09
1/13/2023 11:30:00 PM 2.16 35.888 0.116 7.02 18.15 13.1
1/13/2023 11:45:00 PM 2.12 35.816 0.117 7.02 18.32 13.11
1/14/2023 12:00:00 AM 2.09 35.762 0.117 7.02 17.41 13.12
1/14/2023 12:15:00 AM 2.06 35.708 0.117 7.02 17.02 13.13
1/14/2023 12:30:00 AM 2.02 35.636 0.116 7.02 15.92 13.14
1/14/2023 12:45:00 AM 1.99 35.582 0.117 7.03 16.33 13.16
1/14/2023 1:00:00 AM 1.96 35.528 0.118 7.02 15.52 13.16
1/14/2023 1:15:00 AM 1.92 35.456 0.118 7.02 15.89 13.18
1/14/2023 1:30:00 AM 1.9 35.42 0.118 7.02 16.16 13.19
1/14/2023 1:45:00 AM 1.86 35.348 0.119 7.03 14.73 13.2
1/14/2023 2:00:00 AM 1.83 35.294 0.119 7.03 15.3 13.22
1/14/2023 2:15:00 AM 1.8 35.24 0.119 7.02 15.24 13.22
1/14/2023 2:30:00 AM 1.78 35.204 0.121 7.02 15 13.24
1/14/2023 2:45:00 AM 1.75 35.15 0.119 7.02 13.74 13.26
1/14/2023 3:00:00 AM 1.72 35.096 0.12 7.02 14.01 13.26
1/14/2023 3:15:00 AM 1.7 35.06 0.121 7.02 13.44 13.27
1/14/2023 3:30:00 AM 1.67 35.006 0.12 7.03 13.74 13.29
1/14/2023 3:45:00 AM 1.64 34.952 0.121 7.03 14.39 13.29
1/14/2023 4:00:00 AM 1.61 34.898 0.121 7.03 13.38 13.31
1/14/2023 4:15:00 AM 1.58 34.844 0.121 7.03 13.69 13.32
1/14/2023 4:30:00 AM 1.55 34.79 0.122 7.03 12.44 13.34
1/14/2023 4:45:00 AM 1.52 34.736 0.121 7.03 12.97 13.35
1/14/2023 5:00:00 AM 1.49 34.682 0.122 7.03 12.58 13.36
1/14/2023 5:15:00 AM 1.46 34.628 0.122 7.03 13.13 13.37
1/14/2023 5:30:00 AM 1.42 34.556 0.122 7.03 11.99 13.38
1/14/2023 5:45:00 AM 1.37 34.466 0.122 7.02 11.97 13.4
1/14/2023 6:00:00 AM 1.34 34.412 0.122 7.03 11.77 13.41
1/14/2023 6:15:00 AM 1.32 34.376 0.122 7.03 12.03 13.42
1/14/2023 6:30:00 AM 1.29 34.322 0.123 7.03 11.27 13.44
1/14/2023 6:45:00 AM 1.26 34.268 0.124 7.03 11.77 13.45
1/14/2023 7:00:00 AM 1.23 34.214 0.123 7.03 11.35 13.46
1/14/2023 7:15:00 AM 1.2 34.16 0.124 7.03 11.6 13.47
1/14/2023 7:30:00 AM 1.17 34.106 0.125 7.03 10.97 13.48
1/14/2023 7:45:00 AM 1.12 34.016 0.124 7.03 11.07 13.5
1/14/2023 8:00:00 AM 1.09 33.962 0.124 7.03 10.98 13.52
1/14/2023 8:15:00 AM 1.06 33.908 0.125 7.04 10.59 13.55
1/14/2023 8:30:00 AM 1.04 33.872 0.125 7.04 10.49 13.56
1/14/2023 8:45:00 AM 1.01 33.818 0.125 7.05 10.02 13.59
1/14/2023 9:00:00 AM 0.98 33.764 0.124 7.05 10.32 13.63
1/14/2023 9:15:00 AM 0.97 33.746 0.125 7.06 10.28 13.67
1/14/2023 9:30:00 AM 0.96 33.728 0.126 7.07 9.9 13.71
1/14/2023 9:45:00 AM 0.96 33.728 0.126 7.08 10.44 13.76
1/14/2023 10:00:00 AM 0.96 33.728 0.126 7.09 9.4 13.79
1/14/2023 10:15:00 AM 0.95 33.71 0.126 7.1 9.72 13.82
1/14/2023 10:30:00 AM 0.96 33.728 0.126 7.11 9.66 13.85
1/14/2023 10:45:00 AM 0.95 33.71 0.125 7.11 9.58 13.86
1/14/2023 11:00:00 AM 0.95 33.71 0.125 7.12 8.95 13.88
1/14/2023 11:15:00 AM 0.95 33.71 0.125 7.12 9.78 13.91
1/14/2023 11:30:00 AM 0.96 33.728 0.127 7.13 9.31 13.92
1/14/2023 11:45:00 AM 0.97 33.746 0.127 7.14 9.25 13.93
1/14/2023 12:00:00 PM 0.98 33.764 0.127 7.14 8.99 13.94
1/14/2023 12:15:00 PM 0.97 33.746 0.127 7.14 9.27 13.95
1/14/2023 12:30:00 PM 0.96 33.728 0.127 7.14 9.03 13.95
1/14/2023 12:45:00 PM 0.96 33.728 0.126 7.15 8.54 13.97
1/14/2023 1:00:00 PM 0.97 33.746 0.127 7.15 8.75 13.96
1/14/2023 1:15:00 PM 0.97 33.746 0.128 7.15 8.51 13.97
1/14/2023 1:30:00 PM 0.97 33.746 0.127 7.16 8.27 13.97
1/14/2023 1:45:00 PM 0.99 33.782 0.127 7.16 8.61 13.98
1/14/2023 2:00:00 PM 1 33.8 0.128 7.17 8.61 13.99
1/14/2023 2:15:00 PM 1.01 33.818 0.128 7.17 8.65 13.99
1/14/2023 2:30:00 PM 1.02 33.836 0.128 7.17 8.25 13.99
1/14/2023 2:45:00 PM 1.03 33.854 0.128 7.17 8.4 13.99
1/14/2023 3:00:00 PM 1.03 33.854 0.128 7.18 8.25 14
1/14/2023 3:15:00 PM 1.03 33.854 0.128 7.18 8.2 13.99
1/14/2023 3:30:00 PM 1.03 33.854 0.129 7.18 8.05 13.99
1/14/2023 3:45:00 PM 1.02 33.836 0.129 7.18 8.5 13.98
1/14/2023 4:00:00 PM 0.99 33.782 0.128 7.17 7.77 13.95
1/14/2023 4:15:00 PM 0.97 33.746 0.128 7.16 7.82 13.93
1/14/2023 4:30:00 PM 0.95 33.71 0.128 7.15 8.26 13.9
1/14/2023 4:45:00 PM 0.91 33.638 0.129 7.15 7.63 13.88
1/14/2023 5:00:00 PM 0.88 33.584 0.129 7.14 8.01 13.85
1/14/2023 5:15:00 PM 0.86 33.548 0.129 7.13 8.2 13.83
1/14/2023 5:30:00 PM 0.84 33.512 0.129 7.12 7.72 13.81
1/14/2023 5:45:00 PM 0.81 33.458 0.128 7.11 8.05 13.8
1/14/2023 6:00:00 PM 0.79 33.422 0.129 7.11 7.67 13.8
1/14/2023 6:15:00 PM 0.76 33.368 0.13 7.11 7.59 13.79
1/14/2023 6:30:00 PM 0.74 33.332 0.129 7.1 7.61 13.79
1/14/2023 6:45:00 PM 0.72 33.296 0.128 7.1 7.59 13.8
1/14/2023 7:00:00 PM 0.69 33.242 0.129 7.09 8 13.8
1/14/2023 7:15:00 PM 0.67 33.206 0.13 7.09 7.33 13.79
1/14/2023 7:30:00 PM 0.66 33.188 0.13 7.09 7.41 13.8
1/14/2023 7:45:00 PM 0.63 33.134 0.13 7.09 7.2 13.81
1/14/2023 8:00:00 PM 0.61 33.098 0.13 7.09 7.74 13.81
1/14/2023 8:15:00 PM 0.59 33.062 0.131 7.09 7.72 13.82
1/14/2023 8:30:00 PM 0.58 33.044 0.131 7.09 8 13.83
1/14/2023 8:45:00 PM 0.56 33.008 0.131 7.09 7.71 13.83
1/14/2023 9:00:00 PM 0.54 32.972 0.131 7.09 7.52 13.84
1/14/2023 9:15:00 PM 0.52 32.936 0.131 7.09 7.22 13.85
1/14/2023 9:30:00 PM 0.49 32.882 0.132 7.08 7.41 13.85
1/14/2023 9:45:00 PM 0.47 32.846 0.131 7.08 7.49 13.86
1/14/2023 10:00:00 PM 0.45 32.81 0.131 7.08 7.27 13.87
1/14/2023 10:15:00 PM 0.43 32.774 0.131 7.08 7.22 13.87
1/14/2023 10:30:00 PM 0.42 32.756 0.131 7.08 7.49 13.88
1/14/2023 10:45:00 PM 0.41 32.738 0.131 7.08 7.79 13.89
1/14/2023 11:00:00 PM 0.4 32.72 0.131 7.08 7.02 13.89
1/14/2023 11:15:00 PM 0.39 32.702 0.13 7.08 7.22 13.9
1/14/2023 11:30:00 PM 0.38 32.684 0.132 7.08 7.09 13.9
1/14/2023 11:45:00 PM 0.37 32.666 0.132 7.08 6.86 13.91
1/15/2023 12:00:00 AM 0.36 32.648 0.132 7.08 7.21 13.91
1/15/2023 12:15:00 AM 0.34 32.612 0.131 7.08 6.73 13.91
1/15/2023 12:30:00 AM 0.33 32.594 0.131 7.08 7.29 13.92
1/15/2023 12:45:00 AM 0.33 32.594 0.132 7.09 6.75 13.92
1/15/2023 1:00:00 AM 0.33 32.594 0.131 7.09 6.93 13.93
1/15/2023 1:15:00 AM 0.33 32.594 0.132 7.09 7.21 13.94
1/15/2023 1:30:00 AM 0.32 32.576 0.132 7.09 7.01 13.94
1/15/2023 1:45:00 AM 0.32 32.576 0.131 7.09 7.01 13.94
1/15/2023 2:00:00 AM 0.31 32.558 0.133 7.09 7.46 13.95
1/15/2023 2:15:00 AM 0.3 32.54 0.132 7.09 6.93 13.95
1/15/2023 2:30:00 AM 0.29 32.522 0.131 7.09 7.28 13.96
1/15/2023 2:45:00 AM 0.29 32.522 0.131 7.09 6.8 13.96
1/15/2023 3:00:00 AM 0.29 32.522 0.132 7.09 6.89 13.97
1/15/2023 3:15:00 AM 0.28 32.504 0.132 7.09 6.79 13.97
1/15/2023 3:30:00 AM 0.28 32.504 0.133 7.09 6.68 13.98
1/15/2023 3:45:00 AM 0.27 32.486 0.132 7.09 7.04 13.98
1/15/2023 4:00:00 AM 0.26 32.468 0.132 7.09 6.62 13.98
1/15/2023 4:15:00 AM 0.25 32.45 0.133 7.09 6.59 13.99
1/15/2023 4:30:00 AM 0.24 32.432 0.132 7.09 6.6 13.99
1/15/2023 4:45:00 AM 0.23 32.414 0.133 7.09 6.7 13.99
1/15/2023 5:00:00 AM 0.22 32.396 0.132 7.1 6.86 14
1/15/2023 5:15:00 AM 0.22 32.396 0.133 7.09 6.8 14
1/15/2023 5:30:00 AM 0.21 32.378 0.132 7.09 6.76 14
1/15/2023 5:45:00 AM 0.21 32.378 0.133 7.09 6.87 14
1/15/2023 6:00:00 AM 0.21 32.378 0.134 7.1 6.45 14.01
1/15/2023 6:15:00 AM 0.21 32.378 0.132 7.1 6.82 14.02
1/15/2023 6:30:00 AM 0.21 32.378 0.133 7.1 6.48 14.01
1/15/2023 6:45:00 AM 0.21 32.378 0.133 7.1 6.55 14.01
1/15/2023 7:00:00 AM 0.2 32.36 0.134 7.1 6.24 14.02
1/15/2023 7:15:00 AM 0.19 32.342 0.134 7.1 6.67 14.02
1/15/2023 7:30:00 AM 0.19 32.342 0.133 7.1 6.69 14.03
1/15/2023 7:45:00 AM 0.19 32.342 0.134 7.1 6.46 14.03
1/15/2023 8:00:00 AM 0.19 32.342 0.133 7.11 6.53 14.05
1/15/2023 8:15:00 AM 0.19 32.342 0.133 7.1 6.61 14.06
1/15/2023 8:30:00 AM 0.18 32.324 0.134 7.11 6.41 14.09
1/15/2023 8:45:00 AM 0.2 32.36 0.133 7.12 6.46 14.14
1/15/2023 9:00:00 AM 0.21 32.378 0.133 7.13 6.63 14.17
1/15/2023 9:15:00 AM 0.22 32.396 0.134 7.14 6.33 14.2
1/15/2023 9:30:00 AM 0.23 32.414 0.134 7.14 6.03 14.23
1/15/2023 9:45:00 AM 0.24 32.432 0.133 7.15 6.26 14.25
1/15/2023 10:00:00 AM 0.26 32.468 0.134 7.16 5.88 14.27
1/15/2023 10:15:00 AM 0.28 32.504 0.135 7.17 6.35 14.29
1/15/2023 10:30:00 AM 0.3 32.54 0.135 7.17 6.29 14.31
1/15/2023 10:45:00 AM 0.32 32.576 0.133 7.18 6.01 14.32
1/15/2023 11:00:00 AM 0.35 32.63 0.133 7.19 6.26 14.34
1/15/2023 11:15:00 AM 0.39 32.702 0.134 7.2 6.05 14.36
1/15/2023 11:30:00 AM 0.43 32.774 0.132 7.21 6.19 14.36
1/15/2023 11:45:00 AM 0.47 32.846 0.135 7.21 6.18 14.36
1/15/2023 12:00:00 PM 0.51 32.918 0.135 7.21 6 14.36
1/15/2023 12:15:00 PM 0.56 33.008 0.132 7.22 5.77 14.35
1/15/2023 12:30:00 PM 0.62 33.116 0.133 7.23 6.15 14.36
1/15/2023 12:45:00 PM 0.66 33.188 0.132 7.23 5.9 14.34
1/15/2023 1:00:00 PM 0.69 33.242 0.133 7.23 6.02 14.33
1/15/2023 1:15:00 PM 0.73 33.314 0.133 7.23 5.93 14.32
1/15/2023 1:30:00 PM 0.77 33.386 0.134 7.24 6.05 14.31
1/15/2023 1:45:00 PM 0.82 33.476 0.134 7.24 6.08 14.3
1/15/2023 2:00:00 PM 0.88 33.584 0.133 7.25 6.06 14.28
1/15/2023 2:15:00 PM 0.94 33.692 0.133 7.25 5.84 14.27
1/15/2023 2:30:00 PM 0.94 33.692 0.132 7.25 5.88 14.25
1/15/2023 2:45:00 PM 0.93 33.674 0.133 7.24 5.92 14.22
1/15/2023 3:00:00 PM 0.91 33.638 0.133 7.24 5.73 14.19
1/15/2023 3:15:00 PM 0.89 33.602 0.133 7.23 5.84 14.17
1/15/2023 3:30:00 PM 0.88 33.584 0.133 7.23 5.69 14.15
1/15/2023 3:45:00 PM 0.85 33.53 0.134 7.22 5.9 14.12
1/15/2023 4:00:00 PM 0.83 33.494 0.134 7.21 5.75 14.09
1/15/2023 4:15:00 PM 0.8 33.44 0.133 7.2 5.92 14.07
1/15/2023 4:30:00 PM 0.78 33.404 0.132 7.2 5.95 14.06
1/15/2023 4:45:00 PM 0.76 33.368 0.132 7.19 5.74 14.04
1/15/2023 5:00:00 PM 0.74 33.332 0.133 7.18 6.06 14.01
1/15/2023 5:15:00 PM 0.71 33.278 0.134 7.17 5.87 13.98
1/15/2023 5:30:00 PM 0.68 33.224 0.133 7.16 5.92 13.96
1/15/2023 5:45:00 PM 0.65 33.17 0.134 7.16 6.09 13.95
1/15/2023 6:00:00 PM 0.62 33.116 0.134 7.15 5.89 13.94
1/15/2023 6:15:00 PM 0.59 33.062 0.134 7.14 5.93 13.93
1/15/2023 6:30:00 PM 0.57 33.026 0.133 7.13 6.03 13.93
1/15/2023 6:45:00 PM 0.55 32.99 0.134 7.13 5.94 13.93
1/15/2023 7:00:00 PM 0.54 32.972 0.133 7.13 5.84 13.93
1/15/2023 7:15:00 PM 0.53 32.954 0.134 7.12 5.91 13.93
1/15/2023 7:30:00 PM 0.52 32.936 0.134 7.13 5.9 13.93
1/15/2023 7:45:00 PM 0.51 32.918 0.134 7.12 5.8 13.93
1/15/2023 8:00:00 PM 0.5 32.9 0.134 7.12 5.78 13.93
1/15/2023 8:15:00 PM 0.48 32.864 0.135 7.12 5.58 13.93
1/15/2023 8:30:00 PM 0.45 32.81 0.134 7.11 5.54 13.94
1/15/2023 8:45:00 PM 0.43 32.774 0.134 7.11 5.72 13.94
1/15/2023 9:00:00 PM 0.42 32.756 0.134 7.11 5.94 13.95
1/15/2023 9:15:00 PM 0.41 32.738 0.134 7.12 5.65 13.94
1/15/2023 9:30:00 PM 0.4 32.72 0.135 7.11 5.73 13.94
1/15/2023 9:45:00 PM 0.38 32.684 0.134 7.11 5.78 13.94
1/15/2023 10:00:00 PM 0.38 32.684 0.133 7.11 6.06 13.95
1/15/2023 10:15:00 PM 0.37 32.666 0.134 7.11 5.75 13.95
1/15/2023 10:30:00 PM 0.36 32.648 0.135 7.11 5.71 13.95
1/15/2023 10:45:00 PM 0.35 32.63 0.135 7.11 5.42 13.95
1/15/2023 11:00:00 PM 0.34 32.612 0.135 7.11 5.98 13.96
1/15/2023 11:15:00 PM 0.32 32.576 0.135 7.11 5.93 13.96
1/15/2023 11:30:00 PM 0.31 32.558 0.133 7.11 6.03 13.97
1/15/2023 11:45:00 PM 0.3 32.54 0.133 7.11 5.6 13.97
1/16/2023 12:00:00 AM 0.28 32.504 0.134 7.1 5.95 13.97
1/16/2023 12:15:00 AM 0.27 32.486 0.135 7.11 5.87 13.98
1/16/2023 12:30:00 AM 0.25 32.45 0.135 7.11 5.59 13.99
1/16/2023 12:45:00 AM 0.23 32.414 0.135 7.1 5.96 14
1/16/2023 1:00:00 AM 0.21 32.378 0.135 7.1 6.01 14
1/16/2023 1:15:00 AM 0.19 32.342 0.134 7.1 5.79 14.01
1/16/2023 1:30:00 AM 0.16 32.288 0.134 7.1 5.72 14.02
1/16/2023 1:45:00 AM 0.15 32.27 0.135 7.1 5.88 14.02
1/16/2023 2:00:00 AM 0.13 32.234 0.135 7.1 5.8 14.02
1/16/2023 2:15:00 AM 0.12 32.216 0.135 7.09 6.21 14.03
1/16/2023 2:30:00 AM 0.09 32.162 0.134 7.1 6.04 14.04
1/16/2023 2:45:00 AM 0.08 32.144 0.136 7.1 5.98 14.04
1/16/2023 3:00:00 AM 0.04 32.072 0.136 7.1 5.68 14.05
1/16/2023 3:15:00 AM 0.02 32.036 0.137 7.1 5.93 14.05
1/16/2023 3:30:00 AM 0 32 0.137 7.1 6.06 14.06
1/16/2023 3:45:00 AM -0.01 31.982 0.136 7.1 6.28 14.06
1/16/2023 4:00:00 AM -0.02 31.964 0.137 7.1 5.67 14.07
1/16/2023 4:15:00 AM -0.02 31.964 0.137 7.1 5.88 14.07
1/16/2023 4:30:00 AM -0.03 31.946 0.137 7.1 5.64 14.07
1/16/2023 4:45:00 AM -0.02 31.964 0.137 7.1 5.88 14.07
1/16/2023 5:00:00 AM -0.02 31.964 0.137 7.11 5.62 14.07
1/16/2023 5:15:00 AM -0.02 31.964 0.138 7.11 5.4 14.07
1/16/2023 5:30:00 AM -0.02 31.964 0.138